Darstellungsparameter: Aktuell verwendete Einstellungen:
Skalierung der Graphiken ... ?
xyx+y,   Skalierungsfaktor:      Skalierung: Modus: x, Faktor: 1
Darstellungszeitraum ... ?
Vom - - bis: - -   Zeitraum: 23.02.2007 - 23.02.2008
Min/Max/Avg-Anzeige ... ?
Zeige MMA aktuell
Zeige MMA Monat
Zeige MMA alles
Zeige --A aktuell
Zeige --A Monat
Zeige --A alles
Keine MMA-Anzeige
MMA:
Average (ber die Originaldaten)
MMA-Basis: 23.02.2007 - 23.02.2008
Quicknavigation für Darstellung... ?
Tage:      1T, 2T, 3T, 5T -1T -2T -3T -5T +1T +2T +3T +5T
Wochen: 1W, 2W, 3W -1W -2W -3W +1W +2W +3W
Monate: 1M, 3M, 6M -1M -3M -6M +1M +3M +6M
Jahre:    1J, 3J, 5J, 10J -1J -3J -5J -10J +1J +3J +5J +10J
Nutze für die Darstellung ... ?
Originaldaten oder Mittelwerte auf ...
Stundenbasis Tagesbasis Wochenbasis
Monatsbasis Jahresbasis      Datenbasis: Original-Daten
Darstellen als:
Statistik (Auto) Statistik J:M      Darstellung:

Der gewünschte Datumsbereich war nicht gültig/verfügbar und wurde korrigiert....


Zur Graphik,    zurück zur Übersicht aller Sensoren.
 
Tabellarische Datenbersicht: ?
 
Sensor: Nr:Datum:Temp:Abs-Feuchte:Windchill:Wind:
Aussen-T/F 1 24-02-2007 00:10:02 8.5 C 7.26 g/m*3 8.5 C 0 km/h
2 24-02-2007 00:22:02 8.5 C 7.26 g/m*3 8.5 C 0 km/h
3 24-02-2007 00:34:03 8.6 C 7.39 g/m*3 8.6 C 0 km/h
4 24-02-2007 00:46:02 8.7 C 7.44 g/m*3 8.7 C 0 km/h
5 24-02-2007 00:58:02 8.6 C 7.39 g/m*3 8.6 C 0 km/h
6 24-02-2007 01:10:02 8.5 C 7.34 g/m*3 8.5 C 0 km/h
7 24-02-2007 01:22:02 8.5 C 7.34 g/m*3 8.5 C 0 km/h
8 24-02-2007 01:34:03 8.5 C 7.43 g/m*3 8.5 C 0 km/h
9 24-02-2007 01:46:02 8.4 C 7.38 g/m*3 8.4 C 0 km/h
10 24-02-2007 01:58:02 8.3 C 7.33 g/m*3 8.3 C 0 km/h
11 24-02-2007 02:10:03 8.2 C 7.29 g/m*3 8.2 C 0 km/h
12 24-02-2007 02:22:03 8.2 C 7.29 g/m*3 8.2 C 0 km/h
13 24-02-2007 02:34:03 8.1 C 7.24 g/m*3 8.1 C 0 km/h
14 24-02-2007 02:46:01 8.1 C 7.24 g/m*3 8.1 C 0 km/h
15 24-02-2007 02:58:01 8.1 C 7.32 g/m*3 8.1 C 0 km/h
16 24-02-2007 03:10:02 8.1 C 7.32 g/m*3 8.1 C 0 km/h
17 24-02-2007 03:22:02 7.9 C 7.31 g/m*3 7.9 C 0 km/h
18 24-02-2007 03:34:01 7.6 C 7.17 g/m*3 7.6 C 0 km/h
19 24-02-2007 03:46:02 7.6 C 7.17 g/m*3 7.6 C 0 km/h
20 24-02-2007 03:58:02 7.6 C 7.17 g/m*3 7.6 C 0 km/h
21 24-02-2007 04:10:02 7.6 C 7.17 g/m*3 7.6 C 0 km/h
22 24-02-2007 04:22:02 7.6 C 7.25 g/m*3 7.6 C 0 km/h
23 24-02-2007 04:34:01 7.5 C 7.2 g/m*3 7.5 C 0 km/h
24 24-02-2007 04:46:02 7.5 C 7.2 g/m*3 7.5 C 0 km/h
25 24-02-2007 04:58:02 7.2 C 7.06 g/m*3 7.2 C 0 km/h
Sensor: Nr:Datum:Temp:Abs-Feuchte:Windchill:Wind:
Aussen-T/F 26 24-02-2007 05:10:02 7 C 6.9 g/m*3 7 C 0 km/h
27 24-02-2007 05:22:01 6.7 C 6.84 g/m*3 6.7 C 0 km/h
28 24-02-2007 05:34:01 6.4 C 6.63 g/m*3 6.4 C 0 km/h
29 24-02-2007 05:46:01 6.3 C 6.59 g/m*3 6.3 C 0 km/h
30 24-02-2007 05:58:01 6.3 C 6.59 g/m*3 6.3 C 0 km/h
31 24-02-2007 06:10:02 6.3 C 6.59 g/m*3 6.3 C 0 km/h
32 24-02-2007 06:22:02 6.3 C 6.59 g/m*3 6.3 C 0 km/h
33 24-02-2007 06:34:01 6.3 C 6.66 g/m*3 6.3 C 0 km/h
34 24-02-2007 06:46:02 6.5 C 6.75 g/m*3 6.5 C 0 km/h
35 24-02-2007 06:58:02 6.6 C 6.79 g/m*3 6.6 C 0 km/h
36 24-02-2007 07:10:01 6.5 C 6.75 g/m*3 6.5 C 0 km/h
37 24-02-2007 07:22:01 6.6 C 6.79 g/m*3 6.6 C 0 km/h
38 24-02-2007 07:34:02 6.6 C 6.79 g/m*3 6.6 C 0 km/h
39 24-02-2007 07:46:01 6.9 C 6.93 g/m*3 6.9 C 0 km/h
40 24-02-2007 07:58:01 7.1 C 6.94 g/m*3 7.1 C 0 km/h
41 24-02-2007 08:10:02 7.4 C 7.08 g/m*3 7.4 C 0 km/h
42 24-02-2007 08:22:01 7.6 C 7.17 g/m*3 7.6 C 0 km/h
43 24-02-2007 08:34:02 7.8 C 7.02 g/m*3 7.8 C 0 km/h
44 24-02-2007 08:46:01 7.8 C 6.69 g/m*3 7.8 C 0 km/h
45 24-02-2007 08:58:01 7.7 C 6.41 g/m*3 7.7 C 0 km/h
46 24-02-2007 09:10:01 7.6 C 6.44 g/m*3 7.6 C 0 km/h
47 24-02-2007 09:22:02 7.6 C 6.61 g/m*3 7.6 C 0 km/h
48 24-02-2007 09:34:01 7.6 C 6.69 g/m*3 7.6 C 0 km/h
49 24-02-2007 09:46:02 7.9 C 6.9 g/m*3 7.9 C 0 km/h
50 24-02-2007 09:58:02 8 C 6.94 g/m*3 8 C 0 km/h
Sensor: Nr:Datum:Temp:Abs-Feuchte:Windchill:Wind:
Aussen-T/F 51 24-02-2007 10:10:01 7.9 C 6.9 g/m*3 7.9 C 0 km/h
52 24-02-2007 10:22:01 7.9 C 6.9 g/m*3 7.9 C 0 km/h
53 24-02-2007 10:34:02 7.9 C 6.9 g/m*3 7.9 C 0 km/h
54 24-02-2007 10:46:01 8 C 6.86 g/m*3 8 C 0 km/h
55 24-02-2007 10:58:01 8.1 C 6.91 g/m*3 8.1 C 0 km/h
56 24-02-2007 11:10:02 8.2 C 6.95 g/m*3 8.2 C 0 km/h
57 24-02-2007 11:22:02 8.2 C 6.95 g/m*3 8.2 C 0 km/h
58 24-02-2007 11:34:01 8.2 C 6.95 g/m*3 8.2 C 0 km/h
59 24-02-2007 11:46:01 8.4 C 7.04 g/m*3 8.4 C 0 km/h
60 24-02-2007 11:58:02 8.8 C 7.14 g/m*3 8.8 C 0 km/h
61 24-02-2007 12:10:01 9 C 7.05 g/m*3 9 C 0 km/h
62 24-02-2007 12:22:02 8.9 C 6.75 g/m*3 8.9 C 0 km/h
63 24-02-2007 12:34:02 8.9 C 6.83 g/m*3 8.9 C 0 km/h
64 24-02-2007 12:46:02 9.1 C 6.83 g/m*3 9.1 C 0 km/h
65 24-02-2007 12:58:02 9.7 C 7.19 g/m*3 9.7 C 0 km/h
66 24-02-2007 13:10:02 10.1 C 6.71 g/m*3 10.1 C 0 km/h
67 24-02-2007 13:22:01 9.9 C 6.63 g/m*3 9.9 C 0 km/h
68 24-02-2007 13:34:02 9.3 C 6.65 g/m*3 9.3 C 0 km/h
69 24-02-2007 13:46:01 8.8 C 6.7 g/m*3 8.8 C 0 km/h
70 24-02-2007 13:58:01 8.8 C 6.7 g/m*3 8.8 C 0 km/h
71 24-02-2007 14:10:01 8.5 C 6.4 g/m*3 8.5 C 0 km/h
72 24-02-2007 14:22:02 8.4 C 6.28 g/m*3 8.4 C 0 km/h
73 24-02-2007 14:34:01 9.3 C 6.56 g/m*3 9.3 C 0 km/h
74 24-02-2007 14:46:02 10 C 6.48 g/m*3 10 C 0 km/h
75 24-02-2007 14:58:02 9.7 C 6.08 g/m*3 9.7 C 0 km/h
Sensor: Nr:Datum:Temp:Abs-Feuchte:Windchill:Wind:
Aussen-T/F 76 24-02-2007 15:10:01 9.8 C 6.12 g/m*3 9.8 C 0 km/h
77 24-02-2007 15:22:01 10.7 C 6.19 g/m*3 10.7 C 0 km/h
78 24-02-2007 15:34:02 11.7 C 6.38 g/m*3 11.7 C 0 km/h
79 24-02-2007 15:46:01 12 C 6.07 g/m*3 12 C 0 km/h
80 24-02-2007 15:58:01 11.8 C 5.79 g/m*3 11.8 C 0 km/h
81 24-02-2007 16:10:02 12.2 C 5.72 g/m*3 12.2 C 0 km/h
82 24-02-2007 16:22:01 11.8 C 5.47 g/m*3 11.8 C 0 km/h
83 24-02-2007 16:34:01 11.4 C 5.44 g/m*3 11.4 C 0 km/h
84 24-02-2007 16:46:01 11.2 C 5.47 g/m*3 11.2 C 0 km/h
85 24-02-2007 16:58:01 10.1 C 5.67 g/m*3 10.1 C 0 km/h
86 24-02-2007 17:10:01 10.2 C 5.52 g/m*3 10.2 C 0 km/h
87 24-02-2007 17:22:02 10.4 C 5.4 g/m*3 10.4 C 0 km/h
88 24-02-2007 17:34:01 10.1 C 5.39 g/m*3 10.1 C 0 km/h
89 24-02-2007 17:46:02 9.9 C 5.51 g/m*3 9.9 C 0 km/h
90 24-02-2007 17:58:02 9.8 C 5.47 g/m*3 9.8 C 0 km/h
91 24-02-2007 18:10:01 9.7 C 5.53 g/m*3 9.7 C 0 km/h
92 24-02-2007 18:22:01 9.6 C 5.5 g/m*3 9.6 C 0 km/h
93 24-02-2007 18:34:02 9.3 C 5.66 g/m*3 9.3 C 0 km/h
94 24-02-2007 18:46:01 8.9 C 5.96 g/m*3 8.9 C 0 km/h
95 24-02-2007 18:58:01 8.7 C 6.05 g/m*3 8.7 C 0 km/h
96 24-02-2007 19:10:02 8.3 C 6.15 g/m*3 8.3 C 0 km/h
97 24-02-2007 19:22:01 8.3 C 6.24 g/m*3 8.3 C 0 km/h
98 24-02-2007 19:34:01 8.4 C 6.36 g/m*3 8.4 C 0 km/h
99 24-02-2007 19:46:02 8.2 C 6.36 g/m*3 8.2 C 0 km/h
100 24-02-2007 19:58:02 8.3 C 6.41 g/m*3 8.3 C 0 km/h
Sensor: Nr:Datum:Temp:Abs-Feuchte:Windchill:Wind:
Aussen-T/F 101 24-02-2007 20:10:02 8.4 C 6.28 g/m*3 8.4 C 0 km/h
102 24-02-2007 20:22:01 8.2 C 6.11 g/m*3 8.2 C 0 km/h
103 24-02-2007 20:34:01 8.4 C 6.11 g/m*3 8.4 C 0 km/h
104 24-02-2007 20:46:01 8.1 C 5.99 g/m*3 8.1 C 0 km/h
105 24-02-2007 20:58:01 8.4 C 6.11 g/m*3 8.4 C 0 km/h
106 24-02-2007 21:10:01 8.8 C 6.09 g/m*3 8.8 C 0 km/h
107 24-02-2007 21:22:02 8.7 C 5.97 g/m*3 8.7 C 0 km/h
108 24-02-2007 21:34:01 8.7 C 6.05 g/m*3 8.7 C 0 km/h
109 24-02-2007 21:46:02 8.5 C 5.98 g/m*3 8.5 C 0 km/h
110 24-02-2007 21:58:02 8.4 C 5.94 g/m*3 8.4 C 0 km/h
111 24-02-2007 22:10:01 8.4 C 5.77 g/m*3 8.4 C 0 km/h
112 24-02-2007 22:22:01 8.4 C 5.77 g/m*3 8.4 C 0 km/h
113 24-02-2007 22:34:02 8.3 C 5.82 g/m*3 8.3 C 0 km/h
114 24-02-2007 22:46:01 8.3 C 5.9 g/m*3 8.3 C 0 km/h
115 24-02-2007 22:58:01 8.3 C 5.98 g/m*3 8.3 C 0 km/h
116 24-02-2007 23:10:02 8.3 C 5.98 g/m*3 8.3 C 0 km/h
117 24-02-2007 23:22:01 8.4 C 6.02 g/m*3 8.4 C 0 km/h
118 24-02-2007 23:34:01 8.6 C 6.1 g/m*3 8.6 C 0 km/h
119 24-02-2007 23:46:01 8.7 C 5.97 g/m*3 8.7 C 0 km/h
120 24-02-2007 23:58:01 9 C 5.73 g/m*3 9 C 0 km/h
121 25-02-2007 00:10:02 8.9 C 5.69 g/m*3 8.9 C 0 km/h
122 25-02-2007 00:22:02 8.9 C 5.78 g/m*3 8.9 C 0 km/h
123 25-02-2007 00:34:01 8.9 C 5.78 g/m*3 8.9 C 0 km/h
124 25-02-2007 00:46:02 8.7 C 5.79 g/m*3 8.7 C 0 km/h
125 25-02-2007 00:58:02 8.7 C 5.79 g/m*3 8.7 C 0 km/h
Sensor: Nr:Datum:Temp:Abs-Feuchte:Windchill:Wind:
Aussen-T/F 126 25-02-2007 01:10:02 8.7 C 5.62 g/m*3 8.7 C 0 km/h
127 25-02-2007 01:22:02 8.7 C 5.53 g/m*3 8.7 C 0 km/h
128 25-02-2007 01:34:02 8.6 C 5.5 g/m*3 8.6 C 0 km/h
129 25-02-2007 01:46:02 8.5 C 5.46 g/m*3 8.5 C 0 km/h
130 25-02-2007 01:58:02 8.4 C 5.6 g/m*3 8.4 C 0 km/h
131 25-02-2007 02:10:01 8.4 C 5.68 g/m*3 8.4 C 0 km/h
132 25-02-2007 02:22:02 8.3 C 5.73 g/m*3 8.3 C 0 km/h
133 25-02-2007 02:34:01 8.2 C 5.69 g/m*3 8.2 C 0 km/h
134 25-02-2007 02:46:02 8.1 C 5.82 g/m*3 8.1 C 0 km/h
135 25-02-2007 02:58:02 8.2 C 5.78 g/m*3 8.2 C 0 km/h
136 25-02-2007 03:10:02 8.2 C 5.86 g/m*3 8.2 C 0 km/h
137 25-02-2007 03:22:02 8.2 C 5.86 g/m*3 8.2 C 0 km/h
138 25-02-2007 03:34:01 8.4 C 5.85 g/m*3 8.4 C 0 km/h
139 25-02-2007 03:46:01 8.3 C 5.9 g/m*3 8.3 C 0 km/h
140 25-02-2007 03:58:02 8.5 C 5.89 g/m*3 8.5 C 0 km/h
141 25-02-2007 04:10:02 8.5 C 5.89 g/m*3 8.5 C 0 km/h
142 25-02-2007 04:22:02 8.6 C 5.84 g/m*3 8.6 C 0 km/h
143 25-02-2007 04:34:01 8.5 C 5.81 g/m*3 8.5 C 0 km/h
144 25-02-2007 04:46:02 8.5 C 5.89 g/m*3 8.5 C 0 km/h
145 25-02-2007 04:58:02 8.5 C 5.81 g/m*3 8.5 C 0 km/h
146 25-02-2007 05:10:02 8.7 C 5.88 g/m*3 8.7 C 0 km/h
147 25-02-2007 05:22:02 8.7 C 5.79 g/m*3 8.7 C 0 km/h
148 25-02-2007 05:34:01 8.6 C 5.76 g/m*3 8.6 C 0 km/h
149 25-02-2007 05:46:02 8.7 C 5.79 g/m*3 8.7 C 0 km/h
150 25-02-2007 05:58:02 8.6 C 5.76 g/m*3 8.6 C 0 km/h
Sensor: Nr:Datum:Temp:Abs-Feuchte:Windchill:Wind:
Aussen-T/F 151 25-02-2007 06:10:01 8.4 C 5.85 g/m*3 8.4 C 0 km/h
152 25-02-2007 06:22:01 8.2 C 6.03 g/m*3 8.2 C 0 km/h
153 25-02-2007 06:34:02 8 C 6.2 g/m*3 8 C 0 km/h
154 25-02-2007 06:46:01 7.9 C 6.49 g/m*3 7.9 C 0 km/h
155 25-02-2007 06:58:01 7.8 C 6.53 g/m*3 7.8 C 0 km/h
156 25-02-2007 07:10:02 7.7 C 6.57 g/m*3 7.7 C 0 km/h
157 25-02-2007 07:22:01 7.7 C 6.65 g/m*3 7.7 C 0 km/h
158 25-02-2007 07:34:01 7.7 C 6.73 g/m*3 7.7 C 0 km/h
159 25-02-2007 07:46:01 7.8 C 6.86 g/m*3 7.8 C 0 km/h
160 25-02-2007 07:58:01 7.8 C 6.77 g/m*3 7.8 C 0 km/h
161 25-02-2007 08:10:01 7.9 C 6.82 g/m*3 7.9 C 0 km/h
162 25-02-2007 08:22:02 8.3 C 6.83 g/m*3 8.3 C 0 km/h
163 25-02-2007 08:34:01 8.4 C 6.62 g/m*3 8.4 C 0 km/h
164 25-02-2007 08:46:02 8.4 C 6.7 g/m*3 8.4 C 0 km/h
165 25-02-2007 08:58:02 8.7 C 6.75 g/m*3 8.7 C 0 km/h
166 25-02-2007 09:10:02 8.7 C 6.75 g/m*3 8.7 C 0 km/h
167 25-02-2007 09:22:01 8.8 C 6.7 g/m*3 8.8 C 0 km/h
168 25-02-2007 09:34:02 8.5 C 6.32 g/m*3 8.5 C 0 km/h
169 25-02-2007 09:46:01 8.2 C 6.11 g/m*3 8.2 C 0 km/h
170 25-02-2007 09:58:01 8.1 C 6.16 g/m*3 8.1 C 0 km/h
171 25-02-2007 10:10:02 8.2 C 5.95 g/m*3 8.2 C 0 km/h
172 25-02-2007 10:22:02 8.2 C 5.95 g/m*3 8.2 C 0 km/h
173 25-02-2007 10:34:01 8.1 C 5.91 g/m*3 8.1 C 0 km/h
174 25-02-2007 10:46:01 8.1 C 5.74 g/m*3 8.1 C 0 km/h
175 25-02-2007 10:58:01 8.5 C 5.64 g/m*3 8.5 C 0 km/h
Sensor: Nr:Datum:Temp:Abs-Feuchte:Windchill:Wind:
Aussen-T/F 176 25-02-2007 11:10:02 8.7 C 5.62 g/m*3 8.7 C 0 km/h
177 25-02-2007 11:22:01 8.8 C 5.4 g/m*3 8.8 C 0 km/h
178 25-02-2007 11:34:01 9 C 5.2 g/m*3 9 C 0 km/h
179 25-02-2007 11:46:01 8.7 C 5.19 g/m*3 8.7 C 0 km/h
180 25-02-2007 11:58:01 8.8 C 5.22 g/m*3 8.8 C 0 km/h
181 25-02-2007 12:10:01 9.2 C 5 g/m*3 9.2 C 0 km/h
182 25-02-2007 12:22:02 9.7 C 4.7 g/m*3 9.7 C 0 km/h
183 25-02-2007 12:34:01 9.5 C 4.64 g/m*3 9.5 C 0 km/h
184 25-02-2007 12:46:02 9.4 C 4.43 g/m*3 9.4 C 0 km/h
185 25-02-2007 12:58:02 9.7 C 4.52 g/m*3 9.7 C 0 km/h
186 25-02-2007 13:10:02 10.4 C 4.53 g/m*3 10.4 C 0 km/h
187 25-02-2007 13:22:01 9.3 C 4.67 g/m*3 9.3 C 0 km/h
188 25-02-2007 13:34:02 9.1 C 5.23 g/m*3 9.1 C 0 km/h
189 25-02-2007 13:46:02 9.8 C 4.92 g/m*3 9.8 C 0 km/h
190 25-02-2007 13:58:02 9.7 C 4.7 g/m*3 9.7 C 0 km/h
191 25-02-2007 14:10:02 9.6 C 4.58 g/m*3 9.6 C 0 km/h
192 25-02-2007 14:22:01 9 C 4.67 g/m*3 9 C 0 km/h
193 25-02-2007 14:34:02 8.7 C 5.02 g/m*3 8.7 C 0 km/h
194 25-02-2007 14:46:01 9.2 C 5.09 g/m*3 9.2 C 0 km/h
195 25-02-2007 14:58:01 9.1 C 4.97 g/m*3 9.1 C 0 km/h
196 25-02-2007 15:10:02 8.2 C 5.44 g/m*3 8.2 C 0 km/h
197 25-02-2007 15:22:01 8.1 C 5.66 g/m*3 8.1 C 0 km/h
198 25-02-2007 15:34:01 8.1 C 5.57 g/m*3 8.1 C 0 km/h
199 25-02-2007 15:46:01 9.4 C 5.34 g/m*3 9.4 C 0 km/h
200 25-02-2007 15:58:01 9.9 C 4.58 g/m*3 9.9 C 0 km/h
Sensor: Nr:Datum:Temp:Abs-Feuchte:Windchill:Wind:
Aussen-T/F 201 25-02-2007 16:10:01 10.2 C 4.09 g/m*3 10.2 C 0 km/h
202 25-02-2007 16:22:02 10.1 C 4.26 g/m*3 10.1 C 0 km/h
203 25-02-2007 16:34:01 9.8 C 4.08 g/m*3 9.8 C 0 km/h
204 25-02-2007 16:46:02 9.9 C 3.83 g/m*3 9.9 C 0 km/h
205 25-02-2007 16:58:02 9.8 C 3.8 g/m*3 9.8 C 0 km/h
206 25-02-2007 17:10:01 9.7 C 3.78 g/m*3 9.7 C 0 km/h
207 25-02-2007 17:22:01 8.1 C 3.66 g/m*3 8.1 C 0 km/h
208 25-02-2007 17:34:02 6.9 C 5.23 g/m*3 6.9 C 0 km/h
209 25-02-2007 17:46:01 6.5 C 5.47 g/m*3 6.5 C 0 km/h
210 25-02-2007 17:58:01 6.3 C 5.55 g/m*3 6.3 C 0 km/h
211 25-02-2007 18:10:02 6.4 C 5.51 g/m*3 6.4 C 0 km/h
212 25-02-2007 18:22:01 6.5 C 5.47 g/m*3 6.5 C 0 km/h
213 25-02-2007 18:34:01 6.4 C 5.44 g/m*3 6.4 C 0 km/h
214 25-02-2007 18:46:01 6 C 5.3 g/m*3 6 C 0 km/h
215 25-02-2007 18:58:01 5.8 C 5.37 g/m*3 5.8 C 0 km/h
216 25-02-2007 19:10:01 5.4 C 5.37 g/m*3 5.4 C 0 km/h
217 25-02-2007 19:22:02 5.6 C 5.59 g/m*3 5.6 C 0 km/h
218 25-02-2007 19:34:01 5.8 C 5.73 g/m*3 5.8 C 0 km/h
219 25-02-2007 19:46:02 5.7 C 5.62 g/m*3 5.7 C 0 km/h
220 25-02-2007 19:58:02 5.9 C 5.55 g/m*3 5.9 C 0 km/h
221 25-02-2007 20:10:02 6 C 5.37 g/m*3 6 C 0 km/h
222 25-02-2007 20:22:01 5.7 C 5.27 g/m*3 5.7 C 0 km/h
223 25-02-2007 20:34:01 5.8 C 5.3 g/m*3 5.8 C 0 km/h
224 25-02-2007 20:46:02 5.9 C 5.26 g/m*3 5.9 C 0 km/h
225 25-02-2007 20:58:02 5.8 C 5.16 g/m*3 5.8 C 0 km/h
Sensor: Nr:Datum:Temp:Abs-Feuchte:Windchill:Wind:
Aussen-T/F 226 25-02-2007 21:10:02 5.8 C 5.23 g/m*3 5.8 C 0 km/h
227 25-02-2007 21:22:01 5.8 C 5.23 g/m*3 5.8 C 0 km/h
228 25-02-2007 21:34:01 5.9 C 5.26 g/m*3 5.9 C 0 km/h
229 25-02-2007 21:46:01 6.2 C 5.15 g/m*3 6.2 C 0 km/h
230 25-02-2007 21:58:01 6.3 C 5.11 g/m*3 6.3 C 0 km/h
231 25-02-2007 22:10:01 6.3 C 5.11 g/m*3 6.3 C 0 km/h
232 25-02-2007 22:22:02 6.4 C 5.07 g/m*3 6.4 C 0 km/h
233 25-02-2007 22:34:01 6.5 C 5.1 g/m*3 6.5 C 0 km/h
234 25-02-2007 22:46:02 6.5 C 5.1 g/m*3 6.5 C 0 km/h
235 25-02-2007 22:58:02 6.4 C 5.14 g/m*3 6.4 C 0 km/h
236 25-02-2007 23:10:01 6.3 C 5.33 g/m*3 6.3 C 0 km/h
237 25-02-2007 23:22:01 6.1 C 5.41 g/m*3 6.1 C 0 km/h
238 25-02-2007 23:34:02 6 C 5.59 g/m*3 6 C 0 km/h
239 25-02-2007 23:46:01 5.8 C 5.66 g/m*3 5.8 C 0 km/h
240 25-02-2007 23:58:01 5.8 C 5.73 g/m*3 5.8 C 0 km/h
241 26-02-2007 00:10:02 5.6 C 5.66 g/m*3 5.6 C 0 km/h
242 26-02-2007 00:22:02 5.5 C 5.62 g/m*3 5.5 C 0 km/h
243 26-02-2007 00:34:02 5.4 C 5.65 g/m*3 5.4 C 0 km/h
244 26-02-2007 00:46:02 5.4 C 5.65 g/m*3 5.4 C 0 km/h
245 26-02-2007 00:58:02 5.4 C 5.72 g/m*3 5.4 C 0 km/h
246 26-02-2007 01:10:01 5.5 C 5.76 g/m*3 5.5 C 0 km/h
247 26-02-2007 01:22:02 5.5 C 5.76 g/m*3 5.5 C 0 km/h
248 26-02-2007 01:34:01 5.6 C 5.73 g/m*3 5.6 C 0 km/h
249 26-02-2007 01:46:02 5.7 C 5.76 g/m*3 5.7 C 0 km/h
250 26-02-2007 01:58:02 5.6 C 5.8 g/m*3 5.6 C 0 km/h
Sensor: Nr:Datum:Temp:Abs-Feuchte:Windchill:Wind:
Aussen-T/F 251 26-02-2007 02:10:02 5.7 C 5.84 g/m*3 5.7 C 0 km/h
252 26-02-2007 02:22:02 5.8 C 5.8 g/m*3 5.8 C 0 km/h
253 26-02-2007 02:34:02 5.8 C 5.8 g/m*3 5.8 C 0 km/h
254 26-02-2007 02:46:01 5.9 C 5.84 g/m*3 5.9 C 0 km/h
255 26-02-2007 02:58:01 6 C 5.73 g/m*3 6 C 0 km/h
256 26-02-2007 03:10:01 6 C 5.73 g/m*3 6 C 0 km/h
257 26-02-2007 03:22:01 6.1 C 5.77 g/m*3 6.1 C 0 km/h
258 26-02-2007 03:34:02 6.1 C 5.7 g/m*3 6.1 C 0 km/h
259 26-02-2007 03:46:02 6 C 5.66 g/m*3 6 C 0 km/h
260 26-02-2007 03:58:02 6.2 C 5.66 g/m*3 6.2 C 0 km/h
261 26-02-2007 04:10:01 6.4 C 5.44 g/m*3 6.4 C 0 km/h
262 26-02-2007 04:22:02 6.3 C 5.4 g/m*3 6.3 C 0 km/h
263 26-02-2007 04:34:02 6.4 C 5.44 g/m*3 6.4 C 0 km/h
264 26-02-2007 04:46:01 6.3 C 5.4 g/m*3 6.3 C 0 km/h
265 26-02-2007 04:58:01 6.4 C 5.44 g/m*3 6.4 C 0 km/h
266 26-02-2007 05:10:02 6.5 C 5.47 g/m*3 6.5 C 0 km/h
267 26-02-2007 05:22:02 6.7 C 5.55 g/m*3 6.7 C 0 km/h
268 26-02-2007 05:34:02 6.8 C 5.51 g/m*3 6.8 C 0 km/h
269 26-02-2007 05:46:01 6.9 C 5.54 g/m*3 6.9 C 0 km/h
270 26-02-2007 05:58:02 6.8 C 5.51 g/m*3 6.8 C 0 km/h
271 26-02-2007 06:10:01 6.8 C 5.58 g/m*3 6.8 C 0 km/h
272 26-02-2007 06:22:02 6.9 C 5.54 g/m*3 6.9 C 0 km/h
273 26-02-2007 06:34:02 6.9 C 5.47 g/m*3 6.9 C 0 km/h
274 26-02-2007 06:46:02 6.9 C 5.47 g/m*3 6.9 C 0 km/h
275 26-02-2007 06:58:02 7.1 C 5.38 g/m*3 7.1 C 0 km/h
Sensor: Nr:Datum:Temp:Abs-Feuchte:Windchill:Wind:
Aussen-T/F 276 26-02-2007 07:10:02 7.2 C 5.26 g/m*3 7.2 C 0 km/h
277 26-02-2007 07:22:01 7 C 5.19 g/m*3 7 C 0 km/h
278 26-02-2007 07:34:02 6.7 C 5.24 g/m*3 6.7 C 0 km/h
279 26-02-2007 07:46:01 6.7 C 5.24 g/m*3 6.7 C 0 km/h
280 26-02-2007 07:58:01 6.8 C 5.28 g/m*3 6.8 C 0 km/h
281 26-02-2007 08:10:02 6.8 C 5.28 g/m*3 6.8 C 0 km/h
282 26-02-2007 08:22:02 6.9 C 5.31 g/m*3 6.9 C 0 km/h
283 26-02-2007 08:34:01 7.1 C 5.23 g/m*3 7.1 C 0 km/h
284 26-02-2007 08:46:02 7.2 C 5.18 g/m*3 7.2 C 0 km/h
285 26-02-2007 08:58:02 7.2 C 5.1 g/m*3 7.2 C 0 km/h
286 26-02-2007 09:10:01 7 C 5.35 g/m*3 7 C 0 km/h
287 26-02-2007 09:22:01 6.5 C 5.55 g/m*3 6.5 C 0 km/h
288 26-02-2007 09:34:02 6.4 C 5.74 g/m*3 6.4 C 0 km/h
289 26-02-2007 09:46:01 6.7 C 5.7 g/m*3 6.7 C 0 km/h
290 26-02-2007 09:58:01 6.7 C 5.62 g/m*3 6.7 C 0 km/h
291 26-02-2007 10:10:02 6.8 C 5.58 g/m*3 6.8 C 0 km/h
292 26-02-2007 10:22:01 7 C 5.5 g/m*3 7 C 0 km/h
293 26-02-2007 10:34:01 7 C 5.5 g/m*3 7 C 0 km/h
294 26-02-2007 10:46:01 7.1 C 5.54 g/m*3 7.1 C 0 km/h
295 26-02-2007 10:58:01 7.3 C 5.53 g/m*3 7.3 C 0 km/h
296 26-02-2007 11:10:01 7.5 C 5.36 g/m*3 7.5 C 0 km/h
297 26-02-2007 11:22:02 7.4 C 5.33 g/m*3 7.4 C 0 km/h
298 26-02-2007 11:34:01 7.5 C 5.28 g/m*3 7.5 C 0 km/h
299 26-02-2007 11:46:02 7.6 C 5.32 g/m*3 7.6 C 0 km/h
300 26-02-2007 11:58:02 7.7 C 5.27 g/m*3 7.7 C 0 km/h
Sensor: Nr:Datum:Temp:Abs-Feuchte:Windchill:Wind:
Aussen-T/F 301 26-02-2007 12:10:01 7.7 C 5.35 g/m*3 7.7 C 0 km/h
302 26-02-2007 12:22:01 7.6 C 5.48 g/m*3 7.6 C 0 km/h
303 26-02-2007 12:34:02 7.5 C 5.44 g/m*3 7.5 C 0 km/h
304 26-02-2007 12:46:01 7.3 C 5.45 g/m*3 7.3 C 0 km/h
305 26-02-2007 12:58:01 7 C 5.58 g/m*3 7 C 0 km/h
306 26-02-2007 13:10:02 7.2 C 5.89 g/m*3 7.2 C 0 km/h
307 26-02-2007 13:22:01 7.3 C 6 g/m*3 7.3 C 0 km/h
308 26-02-2007 13:34:01 7.4 C 5.81 g/m*3 7.4 C 0 km/h
309 26-02-2007 13:46:01 7.4 C 5.41 g/m*3 7.4 C 0 km/h
310 26-02-2007 13:58:01 7.5 C 5.2 g/m*3 7.5 C 0 km/h
311 26-02-2007 14:10:01 7.5 C 5.28 g/m*3 7.5 C 0 km/h
312 26-02-2007 14:22:02 7.4 C 5.17 g/m*3 7.4 C 0 km/h
313 26-02-2007 14:34:01 7.4 C 5.01 g/m*3 7.4 C 0 km/h
314 26-02-2007 14:46:02 7.5 C 4.96 g/m*3 7.5 C 0 km/h
315 26-02-2007 14:58:02 7.5 C 5.04 g/m*3 7.5 C 0 km/h
316 26-02-2007 15:10:01 7.2 C 5.02 g/m*3 7.2 C 0 km/h
317 26-02-2007 15:22:01 7.2 C 5.1 g/m*3 7.2 C 0 km/h
318 26-02-2007 15:34:02 7 C 5.19 g/m*3 7 C 0 km/h
319 26-02-2007 15:46:01 7.1 C 5.3 g/m*3 7.1 C 0 km/h
320 26-02-2007 15:58:01 7.1 C 5.15 g/m*3 7.1 C 0 km/h
321 26-02-2007 16:10:02 7.2 C 5.1 g/m*3 7.2 C 0 km/h
322 26-02-2007 16:22:01 7.4 C 5.01 g/m*3 7.4 C 0 km/h
323 26-02-2007 16:34:01 7.4 C 5.01 g/m*3 7.4 C 0 km/h
324 26-02-2007 16:46:01 7.3 C 4.98 g/m*3 7.3 C 0 km/h
325 26-02-2007 16:58:02 7.2 C 5.02 g/m*3 7.2 C 0 km/h
Sensor: Nr:Datum:Temp:Abs-Feuchte:Windchill:Wind:
Aussen-T/F 326 26-02-2007 17:10:01 7.1 C 5.15 g/m*3 7.1 C 0 km/h
327 26-02-2007 17:22:01 6.8 C 5.43 g/m*3 6.8 C 0 km/h
328 26-02-2007 17:34:02 6.6 C 5.44 g/m*3 6.6 C 0 km/h
329 26-02-2007 17:46:02 6.5 C 5.47 g/m*3 6.5 C 0 km/h
330 26-02-2007 17:58:02 6.7 C 5.55 g/m*3 6.7 C 0 km/h
331 26-02-2007 18:10:02 6.8 C 5.51 g/m*3 6.8 C 0 km/h
332 26-02-2007 18:22:01 6.8 C 5.43 g/m*3 6.8 C 0 km/h
333 26-02-2007 18:34:02 6.7 C 5.7 g/m*3 6.7 C 0 km/h
334 26-02-2007 18:46:01 6.4 C 5.51 g/m*3 6.4 C 0 km/h
335 26-02-2007 18:58:01 6.4 C 5.66 g/m*3 6.4 C 0 km/h
336 26-02-2007 19:10:01 6.3 C 5.55 g/m*3 6.3 C 0 km/h
337 26-02-2007 19:22:02 6.3 C 5.26 g/m*3 6.3 C 0 km/h
338 26-02-2007 19:34:01 6.2 C 5.15 g/m*3 6.2 C 0 km/h
339 26-02-2007 19:46:02 5.8 C 5.3 g/m*3 5.8 C 0 km/h
340 26-02-2007 19:58:02 5.7 C 5.48 g/m*3 5.7 C 0 km/h
341 26-02-2007 20:10:02 5.6 C 5.51 g/m*3 5.6 C 0 km/h
342 26-02-2007 20:22:01 5.5 C 5.34 g/m*3 5.5 C 0 km/h
343 26-02-2007 20:34:02 5.7 C 5.34 g/m*3 5.7 C 0 km/h
344 26-02-2007 20:46:01 5.6 C 5.23 g/m*3 5.6 C 0 km/h
345 26-02-2007 20:58:01 5.6 C 5.23 g/m*3 5.6 C 0 km/h
346 26-02-2007 21:10:02 5.6 C 5.16 g/m*3 5.6 C 0 km/h
347 26-02-2007 21:22:02 5.6 C 5.16 g/m*3 5.6 C 0 km/h
348 26-02-2007 21:34:02 5.6 C 5.23 g/m*3 5.6 C 0 km/h
349 26-02-2007 21:46:01 5.5 C 5.27 g/m*3 5.5 C 0 km/h
350 26-02-2007 21:58:01 5.5 C 5.34 g/m*3 5.5 C 0 km/h
Sensor: Nr:Datum:Temp:Abs-Feuchte:Windchill:Wind:
Aussen-T/F 351 26-02-2007 22:10:02 5.6 C 5.44 g/m*3 5.6 C 0 km/h
352 26-02-2007 22:22:01 5.6 C 5.44 g/m*3 5.6 C 0 km/h
353 26-02-2007 22:34:01 5.6 C 5.44 g/m*3 5.6 C 0 km/h
354 26-02-2007 22:46:01 5.7 C 5.41 g/m*3 5.7 C 0 km/h
355 26-02-2007 22:58:01 5.7 C 5.34 g/m*3 5.7 C 0 km/h
356 26-02-2007 23:10:01 5.8 C 5.23 g/m*3 5.8 C 0 km/h
357 26-02-2007 23:22:02 5.8 C 5.3 g/m*3 5.8 C 0 km/h
358 26-02-2007 23:34:01 5.9 C 5.26 g/m*3 5.9 C 0 km/h
359 26-02-2007 23:46:02 5.9 C 5.19 g/m*3 5.9 C 0 km/h
360 26-02-2007 23:58:02 5.9 C 5.19 g/m*3 5.9 C 0 km/h
361 27-02-2007 00:10:01 5.8 C 5.16 g/m*3 5.8 C 0 km/h
362 27-02-2007 00:22:02 5.9 C 5.05 g/m*3 5.9 C 0 km/h
363 27-02-2007 00:34:01 5.8 C 4.94 g/m*3 5.8 C 0 km/h
364 27-02-2007 00:46:02 5.8 C 4.94 g/m*3 5.8 C 0 km/h
365 27-02-2007 00:58:02 5.5 C 4.71 g/m*3 5.5 C 0 km/h
366 27-02-2007 01:10:02 5.2 C 4.68 g/m*3 5.2 C 0 km/h
367 27-02-2007 01:22:02 5.1 C 4.72 g/m*3 5.1 C 0 km/h
368 27-02-2007 01:34:02 5.4 C 4.67 g/m*3 5.4 C 0 km/h
369 27-02-2007 01:46:01 5.5 C 4.57 g/m*3 5.5 C 0 km/h
370 27-02-2007 01:58:01 5.6 C 4.38 g/m*3 5.6 C 0 km/h
371 27-02-2007 02:10:02 5.7 C 4.27 g/m*3 5.7 C 0 km/h
372 27-02-2007 02:22:02 5.7 C 4.27 g/m*3 5.7 C 0 km/h
373 27-02-2007 02:34:01 5.6 C 4.24 g/m*3 5.6 C 0 km/h
374 27-02-2007 02:46:02 5.6 C 4.31 g/m*3 5.6 C 0 km/h
375 27-02-2007 02:58:02 5.4 C 4.26 g/m*3 5.4 C 0 km/h
Sensor: Nr:Datum:Temp:Abs-Feuchte:Windchill:Wind:
Aussen-T/F 376 27-02-2007 03:10:02 5.4 C 4.33 g/m*3 5.4 C 0 km/h
377 27-02-2007 03:22:02 5.5 C 4.28 g/m*3 5.5 C 0 km/h
378 27-02-2007 03:34:02 5.5 C 4.28 g/m*3 5.5 C 0 km/h
379 27-02-2007 03:46:02 5.5 C 4.21 g/m*3 5.5 C 0 km/h
380 27-02-2007 03:58:02 5.5 C 4.14 g/m*3 5.5 C 0 km/h
381 27-02-2007 04:10:02 5.5 C 4.14 g/m*3 5.5 C 0 km/h
382 27-02-2007 04:22:02 5.5 C 4.07 g/m*3 5.5 C 0 km/h
383 27-02-2007 04:34:02 5.4 C 3.98 g/m*3 5.4 C 0 km/h
384 27-02-2007 04:46:02 5.5 C 3.93 g/m*3 5.5 C 0 km/h
385 27-02-2007 04:58:02 5.4 C 3.91 g/m*3 5.4 C 0 km/h
386 27-02-2007 05:10:02 5.4 C 3.91 g/m*3 5.4 C 0 km/h
387 27-02-2007 05:22:01 5.3 C 3.88 g/m*3 5.3 C 0 km/h
388 27-02-2007 05:34:02 5.3 C 3.95 g/m*3 5.3 C 0 km/h
389 27-02-2007 05:46:01 5.3 C 3.95 g/m*3 5.3 C 0 km/h
390 27-02-2007 05:58:01 5.1 C 4.04 g/m*3 5.1 C 0 km/h
391 27-02-2007 06:10:01 5.1 C 4.04 g/m*3 5.1 C 0 km/h
392 27-02-2007 06:22:02 5 C 4.01 g/m*3 5 C 0 km/h
393 27-02-2007 06:34:01 5 C 3.87 g/m*3 5 C 0 km/h
394 27-02-2007 06:46:02 5.1 C 3.83 g/m*3 5.1 C 0 km/h
395 27-02-2007 06:58:02 5 C 3.87 g/m*3 5 C 0 km/h
396 27-02-2007 07:10:01 5 C 3.87 g/m*3 5 C 0 km/h
397 27-02-2007 07:22:01 4.8 C 3.89 g/m*3 4.8 C 0 km/h
398 27-02-2007 07:34:02 4.7 C 3.93 g/m*3 4.7 C 0 km/h
399 27-02-2007 07:46:01 4.6 C 3.97 g/m*3 4.6 C 0 km/h
400 27-02-2007 07:58:01 4.5 C 4.01 g/m*3 4.5 C 0 km/h
Sensor: Nr:Datum:Temp:Abs-Feuchte:Windchill:Wind:
Aussen-T/F 401 27-02-2007 08:10:02 4.4 C 4.05 g/m*3 4.4 C 0 km/h
402 27-02-2007 08:22:02 4.2 C 4.06 g/m*3 4.2 C 0 km/h
403 27-02-2007 08:34:01 4.3 C 4.15 g/m*3 4.3 C 0 km/h
404 27-02-2007 08:46:01 4.6 C 4.23 g/m*3 4.6 C 0 km/h
405 27-02-2007 08:58:02 4.8 C 4.29 g/m*3 4.8 C 0 km/h
406 27-02-2007 09:10:01 5.2 C 4.27 g/m*3 5.2 C 0 km/h
407 27-02-2007 09:22:02 5.3 C 4.16 g/m*3 5.3 C 0 km/h
408 27-02-2007 09:34:01 5.5 C 4.21 g/m*3 5.5 C 0 km/h
409 27-02-2007 09:46:02 5.9 C 4.11 g/m*3 5.9 C 0 km/h
410 27-02-2007 09:58:02 6.3 C 4.07 g/m*3 6.3 C 0 km/h
411 27-02-2007 10:10:01 6.5 C 4.05 g/m*3 6.5 C 0 km/h
412 27-02-2007 10:22:01 6.9 C 4.08 g/m*3 6.9 C 0 km/h
413 27-02-2007 10:34:02 7.1 C 3.98 g/m*3 7.1 C 0 km/h
414 27-02-2007 10:46:01 7.3 C 3.87 g/m*3 7.3 C 0 km/h
415 27-02-2007 10:58:01 7.3 C 3.87 g/m*3 7.3 C 0 km/h
416 27-02-2007 11:10:02 7.6 C 3.79 g/m*3 7.6 C 0 km/h
417 27-02-2007 11:22:02 7.4 C 3.82 g/m*3 7.4 C 0 km/h
418 27-02-2007 11:34:01 7.4 C 3.98 g/m*3 7.4 C 0 km/h
419 27-02-2007 11:46:01 7.3 C 3.87 g/m*3 7.3 C 0 km/h
420 27-02-2007 11:58:02 7.2 C 3.85 g/m*3 7.2 C 0 km/h
421 27-02-2007 12:10:01 7.2 C 4 g/m*3 7.2 C 0 km/h
422 27-02-2007 12:22:02 6.8 C 4.21 g/m*3 6.8 C 0 km/h
423 27-02-2007 12:34:02 6.5 C 4.35 g/m*3 6.5 C 0 km/h
424 27-02-2007 12:46:02 6.1 C 4.38 g/m*3 6.1 C 0 km/h
425 27-02-2007 12:58:02 5.9 C 4.69 g/m*3 5.9 C 0 km/h
Sensor: Nr:Datum:Temp:Abs-Feuchte:Windchill:Wind:
Aussen-T/F 426 27-02-2007 13:10:02 5.6 C 4.74 g/m*3 5.6 C 0 km/h
427 27-02-2007 13:22:01 5.6 C 4.88 g/m*3 5.6 C 0 km/h
428 27-02-2007 13:34:02 5.7 C 4.98 g/m*3 5.7 C 0 km/h
429 27-02-2007 13:46:01 5.6 C 5.02 g/m*3 5.6 C 0 km/h
430 27-02-2007 13:58:01 5.7 C 5.12 g/m*3 5.7 C 0 km/h
431 27-02-2007 14:10:02 5.8 C 5.16 g/m*3 5.8 C 0 km/h
432 27-02-2007 14:22:02 5.7 C 5.19 g/m*3 5.7 C 0 km/h
433 27-02-2007 14:34:01 5.7 C 5.27 g/m*3 5.7 C 0 km/h
434 27-02-2007 14:46:01 5.8 C 5.37 g/m*3 5.8 C 0 km/h
435 27-02-2007 14:58:01 5.9 C 5.48 g/m*3 5.9 C 0 km/h
436 27-02-2007 15:10:01 6 C 5.52 g/m*3 6 C 0 km/h
437 27-02-2007 15:22:02 6.2 C 5.66 g/m*3 6.2 C 0 km/h
438 27-02-2007 15:34:01 6.4 C 5.81 g/m*3 6.4 C 0 km/h
439 27-02-2007 15:46:02 6.4 C 5.81 g/m*3 6.4 C 0 km/h
440 27-02-2007 15:58:02 6.3 C 5.77 g/m*3 6.3 C 0 km/h
441 27-02-2007 16:10:01 6.2 C 5.74 g/m*3 6.2 C 0 km/h
442 27-02-2007 16:22:01 6.1 C 5.77 g/m*3 6.1 C 0 km/h
443 27-02-2007 16:34:02 6.1 C 5.84 g/m*3 6.1 C 0 km/h
444 27-02-2007 16:46:01 6.1 C 5.84 g/m*3 6.1 C 0 km/h
445 27-02-2007 16:58:01 6.1 C 5.92 g/m*3 6.1 C 0 km/h
446 27-02-2007 17:10:02 6 C 5.88 g/m*3 6 C 0 km/h
447 27-02-2007 17:22:01 6.1 C 5.92 g/m*3 6.1 C 0 km/h
448 27-02-2007 17:34:01 6.2 C 5.96 g/m*3 6.2 C 0 km/h
449 27-02-2007 17:46:01 6.2 C 5.96 g/m*3 6.2 C 0 km/h
450 27-02-2007 17:58:02 6.4 C 6.04 g/m*3 6.4 C 0 km/h
Sensor: Nr:Datum:Temp:Abs-Feuchte:Windchill:Wind:
Aussen-T/F 451 27-02-2007 18:10:01 6.6 C 6.04 g/m*3 6.6 C 0 km/h
452 27-02-2007 18:22:02 6.7 C 6 g/m*3 6.7 C 0 km/h
453 27-02-2007 18:34:01 6.7 C 6.08 g/m*3 6.7 C 0 km/h
454 27-02-2007 18:46:02 6.8 C 6.04 g/m*3 6.8 C 0 km/h
455 27-02-2007 18:58:02 6.9 C 6.08 g/m*3 6.9 C 0 km/h
456 27-02-2007 19:10:02 7.2 C 6.12 g/m*3 7.2 C 0 km/h
457 27-02-2007 19:22:01 7.2 C 6.04 g/m*3 7.2 C 0 km/h
458 27-02-2007 19:34:01 7.4 C 6.04 g/m*3 7.4 C 0 km/h
459 27-02-2007 19:46:01 7.4 C 6.04 g/m*3 7.4 C 0 km/h
460 27-02-2007 19:58:01 7.4 C 6.04 g/m*3 7.4 C 0 km/h
461 27-02-2007 20:10:01 7.5 C 6.08 g/m*3 7.5 C 0 km/h
462 27-02-2007 20:22:02 7.6 C 6.12 g/m*3 7.6 C 0 km/h
463 27-02-2007 20:34:01 7.8 C 6.12 g/m*3 7.8 C 0 km/h
464 27-02-2007 20:46:02 7.8 C 6.12 g/m*3 7.8 C 0 km/h
465 27-02-2007 20:58:02 7.9 C 6.24 g/m*3 7.9 C 0 km/h
466 27-02-2007 21:10:03 7.8 C 6.2 g/m*3 7.8 C 0 km/h
467 27-02-2007 21:22:02 7.8 C 6.28 g/m*3 7.8 C 0 km/h
468 27-02-2007 21:34:02 7.8 C 6.37 g/m*3 7.8 C 0 km/h
469 27-02-2007 21:46:01 8.2 C 6.45 g/m*3 8.2 C 0 km/h
470 27-02-2007 21:58:01 8.6 C 6.53 g/m*3 8.6 C 0 km/h
471 27-02-2007 22:10:01 8.9 C 6.66 g/m*3 8.9 C 0 km/h
472 27-02-2007 22:22:02 9.3 C 6.65 g/m*3 9.3 C 0 km/h
473 27-02-2007 22:34:01 9.4 C 6.6 g/m*3 9.4 C 0 km/h
474 27-02-2007 22:46:02 9.8 C 6.68 g/m*3 9.8 C 0 km/h
475 27-02-2007 22:58:02 9.9 C 6.63 g/m*3 9.9 C 0 km/h
Sensor: Nr:Datum:Temp:Abs-Feuchte:Windchill:Wind:
Aussen-T/F 476 27-02-2007 23:10:01 10.2 C 6.57 g/m*3 10.2 C 0 km/h
477 27-02-2007 23:22:01 10.2 C 6.57 g/m*3 10.2 C 0 km/h
478 27-02-2007 23:34:02 10.1 C 6.71 g/m*3 10.1 C 0 km/h
479 27-02-2007 23:46:02 10.2 C 6.85 g/m*3 10.2 C 0 km/h
480 27-02-2007 23:58:02 10.5 C 6.89 g/m*3 10.5 C 0 km/h
481 28-02-2007 00:10:02 10.4 C 6.94 g/m*3 10.4 C 0 km/h
482 28-02-2007 00:22:02 10.4 C 6.94 g/m*3 10.4 C 0 km/h
483 28-02-2007 00:34:01 10.5 C 7.08 g/m*3 10.5 C 0 km/h
484 28-02-2007 00:46:02 10.4 C 7.04 g/m*3 10.4 C 0 km/h
485 28-02-2007 00:58:02 10.4 C 7.13 g/m*3 10.4 C 0 km/h
486 28-02-2007 01:10:02 10.5 C 6.98 g/m*3 10.5 C 0 km/h
487 28-02-2007 01:22:01 10.6 C 6.93 g/m*3 10.6 C 0 km/h
488 28-02-2007 01:34:01 10.9 C 6.76 g/m*3 10.9 C 0 km/h
489 28-02-2007 01:46:02 10.9 C 6.66 g/m*3 10.9 C 0 km/h
490 28-02-2007 01:58:02 11.1 C 6.45 g/m*3 11.1 C 0 km/h
491 28-02-2007 02:10:01 11.1 C 6.45 g/m*3 11.1 C 0 km/h
492 28-02-2007 02:22:02 11 C 6.21 g/m*3 11 C 0 km/h
493 28-02-2007 02:34:02 11 C 6.21 g/m*3 11 C 0 km/h
494 28-02-2007 02:46:02 10.8 C 6.23 g/m*3 10.8 C 0 km/h
495 28-02-2007 02:58:02 10.8 C 6.23 g/m*3 10.8 C 0 km/h
496 28-02-2007 03:10:01 10.8 C 6.23 g/m*3 10.8 C 0 km/h
497 28-02-2007 03:22:01 10.7 C 6.29 g/m*3 10.7 C 0 km/h
498 28-02-2007 03:34:02 10.8 C 6.23 g/m*3 10.8 C 0 km/h
499 28-02-2007 03:46:02 10.8 C 6.23 g/m*3 10.8 C 0 km/h
500 28-02-2007 03:58:02 10.7 C 6.19 g/m*3 10.7 C 0 km/h
Sensor: Nr:Datum:Temp:Abs-Feuchte:Windchill:Wind:
Aussen-T/F 501 28-02-2007 04:10:02 10.7 C 5.99 g/m*3 10.7 C 0 km/h
502 28-02-2007 04:22:02 10.6 C 6.05 g/m*3 10.6 C 0 km/h
503 28-02-2007 04:34:02 10.5 C 5.92 g/m*3 10.5 C 0 km/h
504 28-02-2007 04:46:02 10.2 C 5.9 g/m*3 10.2 C 0 km/h
505 28-02-2007 04:58:02 10.1 C 6.05 g/m*3 10.1 C 0 km/h
506 28-02-2007 05:10:02 10.2 C 6 g/m*3 10.2 C 0 km/h
507 28-02-2007 05:22:01 10.3 C 5.94 g/m*3 10.3 C 0 km/h
508 28-02-2007 05:34:02 10.2 C 5.9 g/m*3 10.2 C 0 km/h
509 28-02-2007 05:46:01 10.4 C 5.88 g/m*3 10.4 C 0 km/h
510 28-02-2007 05:58:01 10.4 C 5.78 g/m*3 10.4 C 0 km/h
511 28-02-2007 06:10:02 10.3 C 5.84 g/m*3 10.3 C 0 km/h
512 28-02-2007 06:22:01 10.2 C 5.8 g/m*3 10.2 C 0 km/h
513 28-02-2007 06:34:01 10.2 C 5.9 g/m*3 10.2 C 0 km/h
514 28-02-2007 06:46:02 10.2 C 5.9 g/m*3 10.2 C 0 km/h
515 28-02-2007 06:58:02 10.2 C 5.9 g/m*3 10.2 C 0 km/h
516 28-02-2007 07:10:01 10.2 C 5.8 g/m*3 10.2 C 0 km/h
517 28-02-2007 07:22:01 10.5 C 5.53 g/m*3 10.5 C 0 km/h
518 28-02-2007 07:34:02 10.2 C 5.33 g/m*3 10.2 C 0 km/h
519 28-02-2007 07:46:01 10.3 C 5.27 g/m*3 10.3 C 0 km/h
520 28-02-2007 07:58:01 10.2 C 5.14 g/m*3 10.2 C 0 km/h
521 28-02-2007 08:10:02 10.1 C 5.2 g/m*3 10.1 C 0 km/h
522 28-02-2007 08:22:01 10.1 C 5.11 g/m*3 10.1 C 0 km/h
523 28-02-2007 08:34:01 10.3 C 5.08 g/m*3 10.3 C 0 km/h
524 28-02-2007 08:46:01 10.4 C 5.2 g/m*3 10.4 C 0 km/h
525 28-02-2007 08:58:01 10.5 C 5.04 g/m*3 10.5 C 0 km/h
Sensor: Nr:Datum:Temp:Abs-Feuchte:Windchill:Wind:
Aussen-T/F 526 28-02-2007 09:10:01 10.5 C 5.04 g/m*3 10.5 C 0 km/h
527 28-02-2007 09:22:02 10.4 C 5.11 g/m*3 10.4 C 0 km/h
528 28-02-2007 09:34:01 10.4 C 5.2 g/m*3 10.4 C 0 km/h
529 28-02-2007 09:46:02 10.7 C 5.21 g/m*3 10.7 C 0 km/h
530 28-02-2007 09:58:02 10.9 C 5.07 g/m*3 10.9 C 0 km/h
531 28-02-2007 10:10:01 11.2 C 4.97 g/m*3 11.2 C 0 km/h
532 28-02-2007 10:22:01 11.8 C 4.95 g/m*3 11.8 C 0 km/h
533 28-02-2007 10:34:02 11.7 C 4.92 g/m*3 11.7 C 0 km/h
534 28-02-2007 10:46:01 11.7 C 4.92 g/m*3 11.7 C 0 km/h
535 28-02-2007 10:58:01 11.7 C 4.92 g/m*3 11.7 C 0 km/h
536 28-02-2007 11:10:02 11.7 C 4.81 g/m*3 11.7 C 0 km/h
537 28-02-2007 11:22:01 11.9 C 4.87 g/m*3 11.9 C 0 km/h
538 28-02-2007 11:34:01 12.1 C 4.72 g/m*3 12.1 C 0 km/h
539 28-02-2007 11:46:01 12 C 4.8 g/m*3 12 C 0 km/h
540 28-02-2007 11:58:01 11.8 C 4.95 g/m*3 11.8 C 0 km/h
541 28-02-2007 12:10:01 11.9 C 4.98 g/m*3 11.9 C 0 km/h
542 28-02-2007 12:22:02 12 C 4.8 g/m*3 12 C 0 km/h
543 28-02-2007 12:34:01 12.2 C 4.75 g/m*3 12.2 C 0 km/h
544 28-02-2007 12:46:02 12.4 C 4.7 g/m*3 12.4 C 0 km/h
545 28-02-2007 12:58:02 12.3 C 4.56 g/m*3 12.3 C 0 km/h
546 28-02-2007 13:10:01 12.2 C 4.64 g/m*3 12.2 C 0 km/h
547 28-02-2007 13:22:01 11.7 C 4.92 g/m*3 11.7 C 0 km/h
548 28-02-2007 13:34:02 11.4 C 5.34 g/m*3 11.4 C 0 km/h
549 28-02-2007 13:46:01 11.4 C 5.34 g/m*3 11.4 C 0 km/h
550 28-02-2007 13:58:01 11.5 C 5.27 g/m*3 11.5 C 0 km/h
Sensor: Nr:Datum:Temp:Abs-Feuchte:Windchill:Wind:
Aussen-T/F 551 28-02-2007 14:10:02 11.4 C 5.23 g/m*3 11.4 C 0 km/h
552 28-02-2007 14:22:01 10.4 C 5.78 g/m*3 10.4 C 0 km/h
553 28-02-2007 14:34:01 10.1 C 5.86 g/m*3 10.1 C 0 km/h
554 28-02-2007 14:46:01 10.7 C 5.6 g/m*3 10.7 C 0 km/h
555 28-02-2007 14:58:02 10.8 C 5.44 g/m*3 10.8 C 0 km/h
556 28-02-2007 15:10:01 10.7 C 5.5 g/m*3 10.7 C 0 km/h
557 28-02-2007 15:22:02 10.5 C 5.33 g/m*3 10.5 C 0 km/h
558 28-02-2007 15:34:01 10.2 C 4.95 g/m*3 10.2 C 0 km/h
559 28-02-2007 15:46:02 11.2 C 4.56 g/m*3 11.2 C 0 km/h
560 28-02-2007 15:58:02 11.6 C 4.05 g/m*3 11.6 C 0 km/h
561 28-02-2007 16:10:02 11.6 C 3.95 g/m*3 11.6 C 0 km/h
562 28-02-2007 16:22:01 11.4 C 3.9 g/m*3 11.4 C 0 km/h
563 28-02-2007 16:34:02 10.7 C 4.03 g/m*3 10.7 C 0 km/h
564 28-02-2007 16:46:01 10.3 C 4.21 g/m*3 10.3 C 0 km/h
565 28-02-2007 16:58:01 9.9 C 4.29 g/m*3 9.9 C 0 km/h
566 28-02-2007 17:10:02 9.9 C 4.39 g/m*3 9.9 C 0 km/h
567 28-02-2007 17:22:02 9.9 C 4.48 g/m*3 9.9 C 0 km/h
568 28-02-2007 17:34:01 10.2 C 4.47 g/m*3 10.2 C 0 km/h
569 28-02-2007 17:46:01 10 C 4.6 g/m*3 10 C 0 km/h
570 28-02-2007 17:58:02 9.7 C 4.61 g/m*3 9.7 C 0 km/h
571 28-02-2007 18:10:01 9.6 C 4.95 g/m*3 9.6 C 0 km/h
572 28-02-2007 18:22:02 9.3 C 5.03 g/m*3 9.3 C 0 km/h
573 28-02-2007 18:34:02 9.2 C 5 g/m*3 9.2 C 0 km/h
574 28-02-2007 18:46:02 9.5 C 5.1 g/m*3 9.5 C 0 km/h
575 28-02-2007 18:58:02 9.4 C 5.06 g/m*3 9.4 C 0 km/h
Sensor: Nr:Datum:Temp:Abs-Feuchte:Windchill:Wind:
Aussen-T/F 576 28-02-2007 19:10:02 9.5 C 5.19 g/m*3 9.5 C 0 km/h
577 28-02-2007 19:22:01 9.5 C 5.1 g/m*3 9.5 C 0 km/h
578 28-02-2007 19:34:02 9.7 C 5.16 g/m*3 9.7 C 0 km/h
579 28-02-2007 19:46:01 9.7 C 5.35 g/m*3 9.7 C 0 km/h
580 28-02-2007 19:58:01 9.4 C 5.43 g/m*3 9.4 C 0 km/h
581 28-02-2007 20:10:01 9.3 C 5.48 g/m*3 9.3 C 0 km/h
582 28-02-2007 20:22:02 9.2 C 5.45 g/m*3 9.2 C 0 km/h
583 28-02-2007 20:34:01 9.3 C 5.39 g/m*3 9.3 C 0 km/h
584 28-02-2007 20:46:02 9 C 5.03 g/m*3 9 C 0 km/h
585 28-02-2007 20:58:02 9.1 C 4.88 g/m*3 9.1 C 0 km/h
586 28-02-2007 21:10:01 9.1 C 4.79 g/m*3 9.1 C 0 km/h
587 28-02-2007 21:22:01 9 C 4.85 g/m*3 9 C 0 km/h
588 28-02-2007 21:34:01 9.4 C 4.61 g/m*3 9.4 C 0 km/h
589 28-02-2007 21:46:01 9.4 C 4.7 g/m*3 9.4 C 0 km/h
590 28-02-2007 21:58:02 9.4 C 4.79 g/m*3 9.4 C 0 km/h
591 28-02-2007 22:10:01 9.5 C 4.73 g/m*3 9.5 C 0 km/h
592 28-02-2007 22:22:02 9.5 C 4.73 g/m*3 9.5 C 0 km/h
593 28-02-2007 22:34:01 9.4 C 4.7 g/m*3 9.4 C 0 km/h
594 28-02-2007 22:46:02 9.4 C 4.79 g/m*3 9.4 C 0 km/h
595 28-02-2007 22:58:02 9.4 C 4.79 g/m*3 9.4 C 0 km/h
596 28-02-2007 23:10:02 9.3 C 4.76 g/m*3 9.3 C 0 km/h
597 28-02-2007 23:22:01 9.5 C 4.82 g/m*3 9.5 C 0 km/h
598 28-02-2007 23:34:01 9.4 C 4.88 g/m*3 9.4 C 0 km/h
599 28-02-2007 23:46:01 9.2 C 4.91 g/m*3 9.2 C 0 km/h
600 28-02-2007 23:58:01 9.2 C 4.91 g/m*3 9.2 C 0 km/h
Sensor: Nr:Datum:Temp:Abs-Feuchte:Windchill:Wind:
Aussen-T/F 601 01-03-2007 00:10:02 9.1 C 4.97 g/m*3 9.1 C 0 km/h
602 01-03-2007 00:22:02 9.1 C 5.23 g/m*3 9.1 C 0 km/h
603 01-03-2007 00:34:01 8.9 C 5.43 g/m*3 8.9 C 0 km/h
604 01-03-2007 00:46:01 8.8 C 5.57 g/m*3 8.8 C 0 km/h
605 01-03-2007 00:58:01 8.5 C 5.64 g/m*3 8.5 C 0 km/h
606 01-03-2007 01:10:02 8.4 C 5.85 g/m*3 8.4 C 0 km/h
607 01-03-2007 01:22:02 8.3 C 5.82 g/m*3 8.3 C 0 km/h
608 01-03-2007 01:34:02 8.7 C 5.71 g/m*3 8.7 C 0 km/h
609 01-03-2007 01:46:02 8.9 C 5.69 g/m*3 8.9 C 0 km/h
610 01-03-2007 01:58:02 9 C 5.55 g/m*3 9 C 0 km/h
611 01-03-2007 02:10:02 9.2 C 5.63 g/m*3 9.2 C 0 km/h
612 01-03-2007 02:22:02 9 C 5.73 g/m*3 9 C 0 km/h
613 01-03-2007 02:34:02 8.9 C 5.96 g/m*3 8.9 C 0 km/h
614 01-03-2007 02:46:01 8.9 C 6.04 g/m*3 8.9 C 0 km/h
615 01-03-2007 02:58:01 8.7 C 6.14 g/m*3 8.7 C 0 km/h
616 01-03-2007 03:10:02 8.7 C 6.23 g/m*3 8.7 C 0 km/h
617 01-03-2007 03:22:02 8.8 C 6.27 g/m*3 8.8 C 0 km/h
618 01-03-2007 03:34:01 8.8 C 6.27 g/m*3 8.8 C 0 km/h
619 01-03-2007 03:46:02 9.1 C 6.12 g/m*3 9.1 C 0 km/h
620 01-03-2007 03:58:02 9 C 6.08 g/m*3 9 C 0 km/h
621 01-03-2007 04:10:01 9.5 C 6.01 g/m*3 9.5 C 0 km/h
622 01-03-2007 04:22:02 9.4 C 5.88 g/m*3 9.4 C 0 km/h
623 01-03-2007 04:34:02 9.3 C 5.84 g/m*3 9.3 C 0 km/h
624 01-03-2007 04:46:02 9.4 C 5.79 g/m*3 9.4 C 0 km/h
625 01-03-2007 04:58:02 9.3 C 5.93 g/m*3 9.3 C 0 km/h
Sensor: Nr:Datum:Temp:Abs-Feuchte:Windchill:Wind:
Aussen-T/F 626 01-03-2007 05:10:02 9 C 5.99 g/m*3 9 C 0 km/h
627 01-03-2007 05:22:02 9 C 5.91 g/m*3 9 C 0 km/h
628 01-03-2007 05:34:02 9 C 5.82 g/m*3 9 C 0 km/h
629 01-03-2007 05:46:01 9 C 5.82 g/m*3 9 C 0 km/h
630 01-03-2007 05:58:01 9 C 5.82 g/m*3 9 C 0 km/h
631 01-03-2007 06:10:01 9.1 C 5.86 g/m*3 9.1 C 0 km/h
632 01-03-2007 06:22:02 9 C 5.82 g/m*3 9 C 0 km/h
633 01-03-2007 06:34:27 9.2 C 5.71 g/m*3 9.2 C 0 km/h
634 01-03-2007 06:46:02 9 C 5.82 g/m*3 9 C 0 km/h
635 01-03-2007 06:58:02 8.7 C 5.79 g/m*3 8.7 C 0 km/h
636 01-03-2007 07:10:01 8.6 C 5.84 g/m*3 8.6 C 0 km/h
637 01-03-2007 07:22:01 8.5 C 5.89 g/m*3 8.5 C 0 km/h
638 01-03-2007 07:34:02 8.6 C 6.1 g/m*3 8.6 C 0 km/h
639 01-03-2007 07:46:01 8.6 C 6.19 g/m*3 8.6 C 0 km/h
640 01-03-2007 07:58:01 8.6 C 6.27 g/m*3 8.6 C 0 km/h
641 01-03-2007 08:10:02 8.9 C 6.39 g/m*3 8.9 C 0 km/h
642 01-03-2007 08:22:01 9.1 C 6.3 g/m*3 9.1 C 0 km/h
643 01-03-2007 08:34:01 9.2 C 6.34 g/m*3 9.2 C 0 km/h
644 01-03-2007 08:46:01 9.5 C 6.28 g/m*3 9.5 C 0 km/h
645 01-03-2007 08:58:01 9.7 C 6.36 g/m*3 9.7 C 0 km/h
646 01-03-2007 09:10:01 9.7 C 6.36 g/m*3 9.7 C 0 km/h
647 01-03-2007 09:22:02 9.9 C 6.44 g/m*3 9.9 C 0 km/h
648 01-03-2007 09:34:01 9.9 C 6.54 g/m*3 9.9 C 0 km/h
649 01-03-2007 09:46:02 10.2 C 6.47 g/m*3 10.2 C 0 km/h
650 01-03-2007 09:58:02 10.4 C 6.46 g/m*3 10.4 C 0 km/h
Sensor: Nr:Datum:Temp:Abs-Feuchte:Windchill:Wind:
Aussen-T/F 651 01-03-2007 10:10:01 10.2 C 6.47 g/m*3 10.2 C 0 km/h
652 01-03-2007 10:22:01 9.9 C 6.72 g/m*3 9.9 C 0 km/h
653 01-03-2007 10:34:02 9.9 C 6.82 g/m*3 9.9 C 0 km/h
654 01-03-2007 10:46:01 10.2 C 6 g/m*3 10.2 C 0 km/h
655 01-03-2007 10:58:01 10.4 C 5.59 g/m*3 10.4 C 0 km/h
656 01-03-2007 11:10:02 10.5 C 5.24 g/m*3 10.5 C 0 km/h
657 01-03-2007 11:22:01 11 C 4.9 g/m*3 11 C 0 km/h
658 01-03-2007 11:34:01 11.1 C 4.13 g/m*3 11.1 C 0 km/h
659 01-03-2007 11:46:01 11.3 C 4.18 g/m*3 11.3 C 0 km/h
660 01-03-2007 11:58:01 11.4 C 4.31 g/m*3 11.4 C 0 km/h
661 01-03-2007 12:10:01 11.6 C 4.16 g/m*3 11.6 C 0 km/h
662 01-03-2007 12:22:01 11.8 C 4.21 g/m*3 11.8 C 0 km/h
663 01-03-2007 12:34:02 11.7 C 4.08 g/m*3 11.7 C 0 km/h
664 01-03-2007 12:46:01 11.5 C 3.93 g/m*3 11.5 C 0 km/h
665 01-03-2007 12:58:01 11.6 C 4.05 g/m*3 11.6 C 0 km/h
666 01-03-2007 13:10:02 10.5 C 4.66 g/m*3 10.5 C 0 km/h
667 01-03-2007 13:22:01 10.6 C 4.68 g/m*3 10.6 C 0 km/h
668 01-03-2007 13:34:01 11.7 C 4.71 g/m*3 11.7 C 0 km/h
669 01-03-2007 13:46:01 11.6 C 4.68 g/m*3 11.6 C 0 km/h
670 01-03-2007 13:58:01 10.7 C 5.4 g/m*3 10.7 C 0 km/h
671 01-03-2007 14:10:01 11 C 4.8 g/m*3 11 C 0 km/h
672 01-03-2007 14:22:02 9.3 C 5.03 g/m*3 9.3 C 0 km/h
673 01-03-2007 14:34:01 9 C 5.11 g/m*3 9 C 0 km/h
674 01-03-2007 14:46:02 9.1 C 4.97 g/m*3 9.1 C 0 km/h
675 01-03-2007 14:58:02 9.1 C 5.06 g/m*3 9.1 C 0 km/h
Sensor: Nr:Datum:Temp:Abs-Feuchte:Windchill:Wind:
Aussen-T/F 676 01-03-2007 15:10:01 9.2 C 4.64 g/m*3 9.2 C 0 km/h
677 01-03-2007 15:22:01 9.9 C 4.58 g/m*3 9.9 C 0 km/h
678 01-03-2007 15:34:02 10.1 C 4.35 g/m*3 10.1 C 0 km/h
679 01-03-2007 15:46:01 10.4 C 4.24 g/m*3 10.4 C 0 km/h
680 01-03-2007 15:58:01 10.9 C 4.28 g/m*3 10.9 C 0 km/h
681 01-03-2007 16:10:02 10.7 C 4.32 g/m*3 10.7 C 0 km/h
682 01-03-2007 16:22:01 10.6 C 4.39 g/m*3 10.6 C 0 km/h
683 01-03-2007 16:34:01 10.9 C 4.28 g/m*3 10.9 C 0 km/h
684 01-03-2007 16:46:01 10.8 C 4.25 g/m*3 10.8 C 0 km/h
685 01-03-2007 16:58:01 10.3 C 3.83 g/m*3 10.3 C 0 km/h
686 01-03-2007 17:10:01 9.7 C 4.24 g/m*3 9.7 C 0 km/h
687 01-03-2007 17:22:02 9.7 C 4.06 g/m*3 9.7 C 0 km/h
688 01-03-2007 17:34:01 9.6 C 4.03 g/m*3 9.6 C 0 km/h
689 01-03-2007 17:46:02 9.1 C 4.35 g/m*3 9.1 C 0 km/h
690 01-03-2007 17:58:02 9.1 C 3.99 g/m*3 9.1 C 0 km/h
691 01-03-2007 18:10:02 8.9 C 4.12 g/m*3 8.9 C 0 km/h
692 01-03-2007 18:22:01 8.7 C 4.15 g/m*3 8.7 C 0 km/h
693 01-03-2007 18:34:02 8.1 C 4.33 g/m*3 8.1 C 0 km/h
694 01-03-2007 18:46:01 7.6 C 4.51 g/m*3 7.6 C 0 km/h
695 01-03-2007 18:58:02 7.6 C 4.43 g/m*3 7.6 C 0 km/h
696 01-03-2007 19:10:01 7.5 C 4.4 g/m*3 7.5 C 0 km/h
697 01-03-2007 19:22:01 7.8 C 4.24 g/m*3 7.8 C 0 km/h
698 01-03-2007 19:34:02 7.7 C 4.22 g/m*3 7.7 C 0 km/h
699 01-03-2007 19:46:01 7.6 C 4.27 g/m*3 7.6 C 0 km/h
700 01-03-2007 19:58:01 7.4 C 4.37 g/m*3 7.4 C 0 km/h
Sensor: Nr:Datum:Temp:Abs-Feuchte:Windchill:Wind:
Aussen-T/F 701 01-03-2007 20:10:02 7.3 C 4.35 g/m*3 7.3 C 0 km/h
702 01-03-2007 20:22:01 7.1 C 4.37 g/m*3 7.1 C 0 km/h
703 01-03-2007 20:34:01 6.8 C 4.36 g/m*3 6.8 C 0 km/h
704 01-03-2007 20:46:01 7.2 C 4.24 g/m*3 7.2 C 0 km/h
705 01-03-2007 20:58:01 7.2 C 4.08 g/m*3 7.2 C 0 km/h
706 01-03-2007 21:10:02 7.1 C 3.98 g/m*3 7.1 C 0 km/h
707 01-03-2007 21:22:02 6.9 C 4.08 g/m*3 6.9 C 0 km/h
708 01-03-2007 21:34:01 6.8 C 4.13 g/m*3 6.8 C 0 km/h
709 01-03-2007 21:46:02 6.7 C 4.18 g/m*3 6.7 C 0 km/h
710 01-03-2007 21:58:02 6.4 C 4.25 g/m*3 6.4 C 0 km/h
711 01-03-2007 22:10:02 6.5 C 4.27 g/m*3 6.5 C 0 km/h
712 01-03-2007 22:22:01 6.7 C 4.18 g/m*3 6.7 C 0 km/h
713 01-03-2007 22:34:01 6.7 C 4.26 g/m*3 6.7 C 0 km/h
714 01-03-2007 22:46:01 6.6 C 4.15 g/m*3 6.6 C 0 km/h
715 01-03-2007 22:58:01 6.7 C 4.1 g/m*3 6.7 C 0 km/h
716 01-03-2007 23:10:01 6.5 C 4.12 g/m*3 6.5 C 0 km/h
717 01-03-2007 23:22:02 6.3 C 4.15 g/m*3 6.3 C 0 km/h
718 01-03-2007 23:34:01 6.5 C 4.05 g/m*3 6.5 C 0 km/h
719 01-03-2007 23:46:02 7 C 4.03 g/m*3 7 C 0 km/h
720 01-03-2007 23:58:02 6.9 C 4.08 g/m*3 6.9 C 0 km/h
721 02-03-2007 00:10:01 6.9 C 4.16 g/m*3 6.9 C 0 km/h
722 02-03-2007 00:22:02 6.9 C 4.16 g/m*3 6.9 C 0 km/h
723 02-03-2007 00:34:02 7.2 C 4.08 g/m*3 7.2 C 0 km/h
724 02-03-2007 00:46:01 7.1 C 3.98 g/m*3 7.1 C 0 km/h
725 02-03-2007 00:58:01 7.2 C 3.92 g/m*3 7.2 C 0 km/h
Sensor: Nr:Datum:Temp:Abs-Feuchte:Windchill:Wind:
Aussen-T/F 726 02-03-2007 01:10:01 7.1 C 3.9 g/m*3 7.1 C 0 km/h
727 02-03-2007 01:22:02 7.2 C 3.92 g/m*3 7.2 C 0 km/h
728 02-03-2007 01:34:02 6.8 C 3.9 g/m*3 6.8 C 0 km/h
729 02-03-2007 01:46:02 6.9 C 3.93 g/m*3 6.9 C 0 km/h
730 02-03-2007 01:58:02 6.8 C 3.9 g/m*3 6.8 C 0 km/h
731 02-03-2007 02:10:02 6.7 C 3.95 g/m*3 6.7 C 0 km/h
732 02-03-2007 02:22:02 6.7 C 3.95 g/m*3 6.7 C 0 km/h
733 02-03-2007 02:34:01 6.5 C 3.9 g/m*3 6.5 C 0 km/h
734 02-03-2007 02:47:29 6.3 C 3.92 g/m*3 6.3 C 0 km/h
735 02-03-2007 02:59:29 6.3 C 4.07 g/m*3 6.3 C 0 km/h
736 02-03-2007 03:11:29 6.5 C 3.97 g/m*3 6.5 C 0 km/h
737 02-03-2007 03:23:29 6.4 C 4.25 g/m*3 6.4 C 0 km/h
738 02-03-2007 03:35:01 6 C 4.28 g/m*3 6 C 0 km/h
739 02-03-2007 03:47:01 5.9 C 4.4 g/m*3 5.9 C 0 km/h
740 02-03-2007 03:59:01 6 C 4.21 g/m*3 6 C 0 km/h
741 02-03-2007 04:11:02 5.9 C 4.25 g/m*3 5.9 C 0 km/h
742 02-03-2007 04:23:03 6 C 4.21 g/m*3 6 C 0 km/h
743 02-03-2007 04:35:02 5.9 C 4.4 g/m*3 5.9 C 0 km/h
744 02-03-2007 04:47:02 5.8 C 4.37 g/m*3 5.8 C 0 km/h
745 02-03-2007 04:59:02 5.8 C 4.37 g/m*3 5.8 C 0 km/h
746 02-03-2007 05:11:02 5.9 C 4.33 g/m*3 5.9 C 0 km/h
747 02-03-2007 05:23:02 6 C 4.28 g/m*3 6 C 0 km/h
748 02-03-2007 05:35:02 6 C 4.21 g/m*3 6 C 0 km/h
749 02-03-2007 05:47:02 5.9 C 4.33 g/m*3 5.9 C 0 km/h
750 02-03-2007 05:59:02 5.9 C 4.47 g/m*3 5.9 C 0 km/h
Sensor: Nr:Datum:Temp:Abs-Feuchte:Windchill:Wind:
Aussen-T/F 751 02-03-2007 06:11:02 4.2 C 4.38 g/m*3 4.2 C 0 km/h
752 02-03-2007 06:23:02 4.1 C 4.67 g/m*3 4.1 C 0 km/h
753 02-03-2007 06:35:02 4 C 4.83 g/m*3 4 C 0 km/h
754 02-03-2007 06:47:02 4 C 4.96 g/m*3 4 C 0 km/h
755 02-03-2007 06:59:02 4 C 5.02 g/m*3 4 C 0 km/h
756 02-03-2007 07:11:02 3.8 C 4.96 g/m*3 3.8 C 0 km/h
757 02-03-2007 07:23:01 3.7 C 4.99 g/m*3 3.7 C 0 km/h
758 02-03-2007 07:35:02 3.7 C 5.05 g/m*3 3.7 C 0 km/h
759 02-03-2007 07:47:02 3.9 C 5.18 g/m*3 3.9 C 0 km/h
760 02-03-2007 07:59:02 4.2 C 5.28 g/m*3 4.2 C 0 km/h
761 02-03-2007 08:11:02 4.5 C 5.26 g/m*3 4.5 C 0 km/h
762 02-03-2007 08:23:02 4.9 C 5.06 g/m*3 4.9 C 0 km/h
763 02-03-2007 08:35:03 5 C 4.69 g/m*3 5 C 0 km/h
764 02-03-2007 08:47:01 5.3 C 4.37 g/m*3 5.3 C 0 km/h
765 02-03-2007 08:59:01 5.4 C 4.33 g/m*3 5.4 C 0 km/h
766 02-03-2007 09:11:02 5.6 C 4.17 g/m*3 5.6 C 0 km/h
767 02-03-2007 09:23:02 5.7 C 4.27 g/m*3 5.7 C 0 km/h
768 02-03-2007 09:35:01 6 C 3.99 g/m*3 6 C 0 km/h
769 02-03-2007 09:47:02 6.2 C 4.04 g/m*3 6.2 C 0 km/h
770 02-03-2007 09:59:02 6 C 3.92 g/m*3 6 C 0 km/h
771 02-03-2007 10:11:02 6.7 C 3.8 g/m*3 6.7 C 0 km/h
772 02-03-2007 10:23:01 6.8 C 3.75 g/m*3 6.8 C 0 km/h
773 02-03-2007 10:35:02 6.9 C 3.77 g/m*3 6.9 C 0 km/h
774 02-03-2007 10:47:01 7.1 C 3.59 g/m*3 7.1 C 0 km/h
775 02-03-2007 10:59:01 7.1 C 3.51 g/m*3 7.1 C 0 km/h
Sensor: Nr:Datum:Temp:Abs-Feuchte:Windchill:Wind:
Aussen-T/F 776 02-03-2007 11:11:02 7.3 C 3.48 g/m*3 7.3 C 0 km/h
777 02-03-2007 11:23:01 7.2 C 3.14 g/m*3 7.2 C 0 km/h
778 02-03-2007 11:35:01 7.5 C 3.2 g/m*3 7.5 C 0 km/h
779 02-03-2007 11:47:01 8.2 C 2.68 g/m*3 8.2 C 0 km/h
780 02-03-2007 11:59:01 8.3 C 3.03 g/m*3 8.3 C 0 km/h
781 02-03-2007 12:11:01 8.4 C 3.05 g/m*3 8.4 C 0 km/h
782 02-03-2007 12:23:02 8.5 C 2.9 g/m*3 8.5 C 0 km/h
783 02-03-2007 12:35:01 8.5 C 2.73 g/m*3 8.5 C 0 km/h
784 02-03-2007 12:47:02 8.7 C 2.77 g/m*3 8.7 C 0 km/h
785 02-03-2007 12:59:02 8.8 C 2.87 g/m*3 8.8 C 0 km/h
786 02-03-2007 13:11:02 8.9 C 2.8 g/m*3 8.9 C 0 km/h
787 02-03-2007 13:23:01 8.8 C 2.7 g/m*3 8.8 C 0 km/h
788 02-03-2007 13:35:02 9.5 C 2.64 g/m*3 9.5 C 0 km/h
789 02-03-2007 13:47:01 9.4 C 2.35 g/m*3 9.4 C 0 km/h
790 02-03-2007 13:59:01 9.7 C 2.3 g/m*3 9.7 C 0 km/h
791 02-03-2007 14:11:02 9.8 C 2.32 g/m*3 9.8 C 0 km/h
792 02-03-2007 14:23:02 10.1 C 2.08 g/m*3 10.1 C 0 km/h
793 02-03-2007 14:35:01 10.2 C 2 g/m*3 10.2 C 0 km/h
794 02-03-2007 14:47:02 10.1 C 1.89 g/m*3 10.1 C 0 km/h
795 02-03-2007 14:59:03 9.7 C 1.94 g/m*3 9.7 C 0 km/h
796 02-03-2007 15:11:02 10.8 C 1.98 g/m*3 10.8 C 0 km/h
797 02-03-2007 15:23:01 11.2 C 2.03 g/m*3 11.2 C 0 km/h
798 02-03-2007 15:35:02 10.3 C 1.92 g/m*3 10.3 C 0 km/h
799 02-03-2007 15:47:02 10.3 C 1.92 g/m*3 10.3 C 0 km/h
800 02-03-2007 15:59:02 10 C 1.88 g/m*3 10 C 0 km/h
Sensor: Nr:Datum:Temp:Abs-Feuchte:Windchill:Wind:
Aussen-T/F 801 02-03-2007 16:11:02 9.8 C 1.86 g/m*3 9.8 C 0 km/h
802 02-03-2007 16:23:02 10.2 C 1.9 g/m*3 10.2 C 0 km/h
803 02-03-2007 16:35:03 11.2 C 2.03 g/m*3 11.2 C 0 km/h
804 02-03-2007 16:47:02 11.4 C 2.05 g/m*3 11.4 C 0 km/h
805 02-03-2007 16:59:02 11.3 C 2.04 g/m*3 11.3 C 0 km/h
806 02-03-2007 17:11:02 10.9 C 1.99 g/m*3 10.9 C 0 km/h
807 02-03-2007 17:23:02 10.3 C 1.92 g/m*3 10.3 C 0 km/h
808 02-03-2007 17:35:02 9.7 C 2.3 g/m*3 9.7 C 0 km/h
809 02-03-2007 17:47:02 9.6 C 2.38 g/m*3 9.6 C 0 km/h
810 02-03-2007 17:59:02 9.1 C 2.75 g/m*3 9.1 C 0 km/h
811 02-03-2007 18:11:02 8.3 C 2.95 g/m*3 8.3 C 0 km/h
812 02-03-2007 18:23:02 7.5 C 3.12 g/m*3 7.5 C 0 km/h
813 02-03-2007 18:35:02 6.9 C 3.08 g/m*3 6.9 C 0 km/h
814 02-03-2007 18:47:02 6.6 C 3.17 g/m*3 6.6 C 0 km/h
815 02-03-2007 18:59:02 6.5 C 3.45 g/m*3 6.5 C 0 km/h
816 02-03-2007 19:11:02 6.4 C 3.43 g/m*3 6.4 C 0 km/h
817 02-03-2007 19:23:01 6.2 C 3.38 g/m*3 6.2 C 0 km/h
818 02-03-2007 19:35:03 6 C 3.41 g/m*3 6 C 0 km/h
819 02-03-2007 19:47:02 5.7 C 3.56 g/m*3 5.7 C 0 km/h
820 02-03-2007 19:59:02 5.5 C 3.51 g/m*3 5.5 C 0 km/h
821 02-03-2007 20:11:02 5.3 C 3.53 g/m*3 5.3 C 0 km/h
822 02-03-2007 20:23:02 5.1 C 3.56 g/m*3 5.1 C 0 km/h
823 02-03-2007 20:35:03 4.9 C 3.65 g/m*3 4.9 C 0 km/h
824 02-03-2007 20:47:02 4.8 C 3.62 g/m*3 4.8 C 0 km/h
825 02-03-2007 20:59:02 4.7 C 3.66 g/m*3 4.7 C 0 km/h
Sensor: Nr:Datum:Temp:Abs-Feuchte:Windchill:Wind:
Aussen-T/F 826 02-03-2007 21:11:02 4.4 C 3.66 g/m*3 4.4 C 0 km/h
827 02-03-2007 21:23:02 4.4 C 3.66 g/m*3 4.4 C 0 km/h
828 02-03-2007 21:35:02 4.2 C 3.67 g/m*3 4.2 C 0 km/h
829 02-03-2007 21:47:02 4 C 3.69 g/m*3 4 C 0 km/h
830 02-03-2007 21:59:03 4.1 C 3.71 g/m*3 4.1 C 0 km/h
831 02-03-2007 22:11:02 4.3 C 3.89 g/m*3 4.3 C 0 km/h
832 02-03-2007 22:23:03 4.4 C 3.92 g/m*3 4.4 C 0 km/h
833 02-03-2007 22:35:02 4.5 C 3.94 g/m*3 4.5 C 0 km/h
834 02-03-2007 22:47:02 4.6 C 3.9 g/m*3 4.6 C 0 km/h
835 02-03-2007 22:59:02 4.6 C 3.9 g/m*3 4.6 C 0 km/h
836 02-03-2007 23:11:02 4.8 C 3.96 g/m*3 4.8 C 0 km/h
837 02-03-2007 23:23:01 4.8 C 3.96 g/m*3 4.8 C 0 km/h
838 02-03-2007 23:35:02 4.8 C 3.96 g/m*3 4.8 C 0 km/h
839 02-03-2007 23:47:01 5 C 3.94 g/m*3 5 C 0 km/h
840 02-03-2007 23:59:01 5.2 C 3.92 g/m*3 5.2 C 0 km/h
841 03-03-2007 00:11:02 5.3 C 3.88 g/m*3 5.3 C 0 km/h
842 03-03-2007 00:23:01 5.4 C 3.98 g/m*3 5.4 C 0 km/h
843 03-03-2007 00:35:01 5.3 C 3.95 g/m*3 5.3 C 0 km/h
844 03-03-2007 00:47:01 5 C 4.21 g/m*3 5 C 0 km/h
845 03-03-2007 00:59:01 4.8 C 4.36 g/m*3 4.8 C 0 km/h
846 03-03-2007 01:11:02 4.9 C 4.59 g/m*3 4.9 C 0 km/h
847 03-03-2007 01:23:02 4.9 C 4.66 g/m*3 4.9 C 0 km/h
848 03-03-2007 01:35:02 4.9 C 4.79 g/m*3 4.9 C 0 km/h
849 03-03-2007 01:47:02 4.8 C 4.76 g/m*3 4.8 C 0 km/h
850 03-03-2007 01:59:03 4.7 C 4.86 g/m*3 4.7 C 0 km/h
Sensor: Nr:Datum:Temp:Abs-Feuchte:Windchill:Wind:
Aussen-T/F 851 03-03-2007 02:11:02 4.8 C 5.03 g/m*3 4.8 C 0 km/h
852 03-03-2007 02:23:02 4.8 C 5.1 g/m*3 4.8 C 0 km/h
853 03-03-2007 02:35:02 4.8 C 5.16 g/m*3 4.8 C 0 km/h
854 03-03-2007 02:48:03 4.8 C 5.23 g/m*3 4.8 C 0 km/h
855 03-03-2007 03:00:03 4.8 C 5.36 g/m*3 4.8 C 0 km/h
856 03-03-2007 03:12:03 4.9 C 5.54 g/m*3 4.9 C 0 km/h
857 03-03-2007 03:24:03 4.9 C 5.6 g/m*3 4.9 C 0 km/h
858 03-03-2007 03:36:03 5 C 5.64 g/m*3 5 C 0 km/h
859 03-03-2007 03:48:03 5 C 5.64 g/m*3 5 C 0 km/h
860 03-03-2007 04:00:03 5.1 C 5.68 g/m*3 5.1 C 0 km/h
861 03-03-2007 04:12:02 5.1 C 5.75 g/m*3 5.1 C 0 km/h
862 03-03-2007 04:24:03 5.2 C 5.78 g/m*3 5.2 C 0 km/h
863 03-03-2007 04:36:03 5.2 C 5.85 g/m*3 5.2 C 0 km/h
864 03-03-2007 04:48:02 5.2 C 5.85 g/m*3 5.2 C 0 km/h
865 03-03-2007 05:00:02 5.4 C 5.93 g/m*3 5.4 C 0 km/h
866 03-03-2007 05:12:02 5.7 C 6.19 g/m*3 5.7 C 0 km/h
867 03-03-2007 05:24:02 5.9 C 6.35 g/m*3 5.9 C 0 km/h
868 03-03-2007 05:36:02 6.2 C 6.4 g/m*3 6.2 C 0 km/h
869 03-03-2007 05:48:02 6 C 6.31 g/m*3 6 C 0 km/h
870 03-03-2007 06:00:02 5.9 C 6.35 g/m*3 5.9 C 0 km/h
871 03-03-2007 06:12:03 5.4 C 6.07 g/m*3 5.4 C 0 km/h
872 03-03-2007 06:24:02 5.3 C 6.03 g/m*3 5.3 C 0 km/h
873 03-03-2007 06:36:02 5.4 C 6.07 g/m*3 5.4 C 0 km/h
874 03-03-2007 06:48:01 5.6 C 6.22 g/m*3 5.6 C 0 km/h
875 03-03-2007 07:00:01 5.3 C 6.1 g/m*3 5.3 C 0 km/h
Sensor: Nr:Datum:Temp:Abs-Feuchte:Windchill:Wind:
Aussen-T/F 876 03-03-2007 07:12:01 5.6 C 6.29 g/m*3 5.6 C 0 km/h
877 03-03-2007 07:24:02 5.7 C 6.33 g/m*3 5.7 C 0 km/h
878 03-03-2007 07:36:01 6.3 C 6.59 g/m*3 6.3 C 0 km/h
879 03-03-2007 07:48:02 6.8 C 6.81 g/m*3 6.8 C 0 km/h
880 03-03-2007 08:00:02 7.4 C 6.76 g/m*3 7.4 C 0 km/h
881 03-03-2007 08:12:02 7.5 C 6.4 g/m*3 7.5 C 0 km/h
882 03-03-2007 08:24:02 7.7 C 6.24 g/m*3 7.7 C 0 km/h
883 03-03-2007 08:36:02 8.2 C 6.03 g/m*3 8.2 C 0 km/h
884 03-03-2007 08:48:01 8.7 C 5.71 g/m*3 8.7 C 0 km/h
885 03-03-2007 09:00:01 9 C 5.38 g/m*3 9 C 0 km/h
886 03-03-2007 09:12:02 9.4 C 5.06 g/m*3 9.4 C 0 km/h
887 03-03-2007 09:24:02 9.6 C 4.86 g/m*3 9.6 C 0 km/h
888 03-03-2007 09:36:01 9.6 C 4.86 g/m*3 9.6 C 0 km/h
889 03-03-2007 09:48:02 9.8 C 4.73 g/m*3 9.8 C 0 km/h
890 03-03-2007 10:00:02 9.8 C 4.73 g/m*3 9.8 C 0 km/h
891 03-03-2007 10:12:01 9.9 C 4.76 g/m*3 9.9 C 0 km/h
892 03-03-2007 10:24:01 9.9 C 4.76 g/m*3 9.9 C 0 km/h
893 03-03-2007 10:36:02 9.8 C 4.73 g/m*3 9.8 C 0 km/h
894 03-03-2007 10:48:03 10 C 4.6 g/m*3 10 C 0 km/h
895 03-03-2007 11:00:03 10 C 4.51 g/m*3 10 C 0 km/h
896 03-03-2007 11:12:02 9.2 C 5.18 g/m*3 9.2 C 0 km/h
897 03-03-2007 11:24:02 8.2 C 5.61 g/m*3 8.2 C 0 km/h
898 03-03-2007 11:36:02 8 C 5.79 g/m*3 8 C 0 km/h
899 03-03-2007 11:48:02 7.9 C 5.83 g/m*3 7.9 C 0 km/h
900 03-03-2007 12:00:02 8.1 C 5.74 g/m*3 8.1 C 0 km/h
Sensor: Nr:Datum:Temp:Abs-Feuchte:Windchill:Wind:
Aussen-T/F 901 03-03-2007 12:12:02 8.5 C 5.38 g/m*3 8.5 C 0 km/h
902 03-03-2007 12:24:02 8.8 C 4.96 g/m*3 8.8 C 0 km/h
903 03-03-2007 12:36:02 8.6 C 4.73 g/m*3 8.6 C 0 km/h
904 03-03-2007 12:48:03 8.7 C 4.41 g/m*3 8.7 C 0 km/h
905 03-03-2007 13:00:03 8.6 C 4.3 g/m*3 8.6 C 0 km/h
906 03-03-2007 13:12:02 8.7 C 4.15 g/m*3 8.7 C 0 km/h
907 03-03-2007 13:24:02 8.5 C 4.18 g/m*3 8.5 C 0 km/h
908 03-03-2007 13:36:03 8.4 C 3.99 g/m*3 8.4 C 0 km/h
909 03-03-2007 13:48:02 8.4 C 3.9 g/m*3 8.4 C 0 km/h
910 03-03-2007 14:00:03 8.3 C 3.88 g/m*3 8.3 C 0 km/h
911 03-03-2007 14:12:02 8.3 C 3.96 g/m*3 8.3 C 0 km/h
912 03-03-2007 14:24:02 8.2 C 4.02 g/m*3 8.2 C 0 km/h
913 03-03-2007 14:36:03 8.2 C 4.02 g/m*3 8.2 C 0 km/h
914 03-03-2007 14:48:01 8.2 C 4.02 g/m*3 8.2 C 0 km/h
915 03-03-2007 15:00:01 8.2 C 4.02 g/m*3 8.2 C 0 km/h
916 03-03-2007 15:12:02 8.1 C 4.16 g/m*3 8.1 C 0 km/h
917 03-03-2007 15:24:02 8.2 C 4.1 g/m*3 8.2 C 0 km/h
918 03-03-2007 15:36:02 8.1 C 4.16 g/m*3 8.1 C 0 km/h
919 03-03-2007 15:48:02 8 C 4.22 g/m*3 8 C 0 km/h
920 03-03-2007 16:00:02 7.8 C 4.41 g/m*3 7.8 C 0 km/h
921 03-03-2007 16:12:02 7.9 C 4.19 g/m*3 7.9 C 0 km/h
922 03-03-2007 16:24:02 7.9 C 4.19 g/m*3 7.9 C 0 km/h
923 03-03-2007 16:36:02 7.9 C 4.19 g/m*3 7.9 C 0 km/h
924 03-03-2007 16:48:01 7.6 C 4.27 g/m*3 7.6 C 0 km/h
925 03-03-2007 17:00:01 7.3 C 4.35 g/m*3 7.3 C 0 km/h
Sensor: Nr:Datum:Temp:Abs-Feuchte:Windchill:Wind:
Aussen-T/F 926 03-03-2007 17:12:02 7.1 C 4.29 g/m*3 7.1 C 0 km/h
927 03-03-2007 17:24:02 7.1 C 4.29 g/m*3 7.1 C 0 km/h
928 03-03-2007 17:36:02 7.1 C 4.06 g/m*3 7.1 C 0 km/h
929 03-03-2007 17:48:01 7.1 C 4.06 g/m*3 7.1 C 0 km/h
930 03-03-2007 18:00:01 6.5 C 4.5 g/m*3 6.5 C 0 km/h
931 03-03-2007 18:12:01 6.1 C 4.6 g/m*3 6.1 C 0 km/h
932 03-03-2007 18:24:02 6.2 C 4.41 g/m*3 6.2 C 0 km/h
933 03-03-2007 18:36:02 6.4 C 4.17 g/m*3 6.4 C 0 km/h
934 03-03-2007 18:48:02 6.5 C 4.12 g/m*3 6.5 C 0 km/h
935 03-03-2007 19:00:02 6.4 C 4.1 g/m*3 6.4 C 0 km/h
936 03-03-2007 19:12:03 6.5 C 4.05 g/m*3 6.5 C 0 km/h
937 03-03-2007 19:24:02 6.4 C 3.95 g/m*3 6.4 C 0 km/h
938 03-03-2007 19:36:02 6.3 C 4 g/m*3 6.3 C 0 km/h
939 03-03-2007 19:48:02 6.2 C 4.04 g/m*3 6.2 C 0 km/h
940 03-03-2007 20:00:02 6.2 C 4.04 g/m*3 6.2 C 0 km/h
941 03-03-2007 20:12:02 5.7 C 4.13 g/m*3 5.7 C 0 km/h
942 03-03-2007 20:24:01 5.9 C 4.18 g/m*3 5.9 C 0 km/h
943 03-03-2007 20:36:02 5.8 C 4.23 g/m*3 5.8 C 0 km/h
944 03-03-2007 20:48:01 5.7 C 4.13 g/m*3 5.7 C 0 km/h
945 03-03-2007 21:00:01 5.8 C 4.08 g/m*3 5.8 C 0 km/h
946 03-03-2007 21:12:02 5.6 C 4.03 g/m*3 5.6 C 0 km/h
947 03-03-2007 21:24:02 5.3 C 4.09 g/m*3 5.3 C 0 km/h
948 03-03-2007 21:36:01 5.1 C 4.1 g/m*3 5.1 C 0 km/h
949 03-03-2007 21:48:02 5 C 4.14 g/m*3 5 C 0 km/h
950 03-03-2007 22:00:02 4.7 C 4.2 g/m*3 4.7 C 0 km/h
Sensor: Nr:Datum:Temp:Abs-Feuchte:Windchill:Wind:
Aussen-T/F 951 03-03-2007 22:12:02 4.5 C 4.21 g/m*3 4.5 C 0 km/h
952 03-03-2007 22:24:02 4.4 C 4.24 g/m*3 4.4 C 0 km/h
953 03-03-2007 22:36:02 4.4 C 4.18 g/m*3 4.4 C 0 km/h
954 03-03-2007 22:48:01 4.4 C 4.24 g/m*3 4.4 C 0 km/h
955 03-03-2007 23:00:01 4.5 C 4.27 g/m*3 4.5 C 0 km/h
956 03-03-2007 23:12:02 4.8 C 4.29 g/m*3 4.8 C 0 km/h
957 03-03-2007 23:24:02 4.8 C 4.29 g/m*3 4.8 C 0 km/h
958 03-03-2007 23:36:01 4.7 C 4.33 g/m*3 4.7 C 0 km/h
959 03-03-2007 23:48:02 4.9 C 4.39 g/m*3 4.9 C 0 km/h
960 04-03-2007 00:00:03 5 C 4.35 g/m*3 5 C 0 km/h
961 04-03-2007 00:12:02 4.8 C 4.29 g/m*3 4.8 C 0 km/h
962 04-03-2007 00:24:02 4.5 C 4.34 g/m*3 4.5 C 0 km/h
963 04-03-2007 00:36:02 4.1 C 4.29 g/m*3 4.1 C 0 km/h
964 04-03-2007 00:48:02 3.4 C 4.28 g/m*3 3.4 C 0 km/h
965 04-03-2007 01:00:02 3.2 C 4.28 g/m*3 3.2 C 0 km/h
966 04-03-2007 01:12:02 3.2 C 4.46 g/m*3 3.2 C 0 km/h
967 04-03-2007 01:24:02 4 C 4.77 g/m*3 4 C 0 km/h
968 04-03-2007 01:36:02 4.4 C 4.77 g/m*3 4.4 C 0 km/h
969 04-03-2007 01:48:02 4.5 C 4.6 g/m*3 4.5 C 0 km/h
970 04-03-2007 02:00:02 4.8 C 4.63 g/m*3 4.8 C 0 km/h
971 04-03-2007 02:12:02 4.5 C 4.47 g/m*3 4.5 C 0 km/h
972 04-03-2007 02:24:02 4 C 4.39 g/m*3 4 C 0 km/h
973 04-03-2007 02:36:02 3.5 C 4.37 g/m*3 3.5 C 0 km/h
974 04-03-2007 02:49:03 3.3 C 4.49 g/m*3 3.3 C 0 km/h
975 04-03-2007 03:01:03 3.3 C 4.55 g/m*3 3.3 C 0 km/h
Sensor: Nr:Datum:Temp:Abs-Feuchte:Windchill:Wind:
Aussen-T/F 976 04-03-2007 03:13:03 3.1 C 4.55 g/m*3 3.1 C 0 km/h
977 04-03-2007 03:25:03 2.8 C 4.52 g/m*3 2.8 C 0 km/h
978 04-03-2007 03:37:02 2.5 C 4.43 g/m*3 2.5 C 0 km/h
979 04-03-2007 03:49:03 2.3 C 4.42 g/m*3 2.3 C 0 km/h
980 04-03-2007 04:01:02 2.3 C 4.48 g/m*3 2.3 C 0 km/h
981 04-03-2007 04:13:02 2.2 C 4.45 g/m*3 2.2 C 0 km/h
982 04-03-2007 04:25:02 2.1 C 4.48 g/m*3 2.1 C 0 km/h
983 04-03-2007 04:37:02 2 C 4.45 g/m*3 2 C 0 km/h
984 04-03-2007 04:49:02 2.2 C 4.56 g/m*3 2.2 C 0 km/h
985 04-03-2007 05:01:02 2.4 C 4.62 g/m*3 2.4 C 0 km/h
986 04-03-2007 05:13:02 2.2 C 4.62 g/m*3 2.2 C 0 km/h
987 04-03-2007 05:25:02 2.2 C 4.68 g/m*3 2.2 C 0 km/h
988 04-03-2007 05:37:02 2.4 C 4.74 g/m*3 2.4 C 0 km/h
989 04-03-2007 05:49:01 2.5 C 4.83 g/m*3 2.5 C 0 km/h
990 04-03-2007 06:01:02 2.4 C 4.8 g/m*3 2.4 C 0 km/h
991 04-03-2007 06:13:02 2 C 4.61 g/m*3 2 C 0 km/h
992 04-03-2007 06:25:01 1.6 C 4.54 g/m*3 1.6 C 0 km/h
993 04-03-2007 06:37:01 1.5 C 4.46 g/m*3 1.5 C 0 km/h
994 04-03-2007 06:49:02 1.5 C 4.46 g/m*3 1.5 C 0 km/h
995 04-03-2007 07:01:01 1.4 C 4.48 g/m*3 1.4 C 0 km/h
996 04-03-2007 07:13:01 1.4 C 4.48 g/m*3 1.4 C 0 km/h
997 04-03-2007 07:25:02 1.6 C 4.6 g/m*3 1.6 C 0 km/h
998 04-03-2007 07:37:02 1.6 C 4.6 g/m*3 1.6 C 0 km/h
999 04-03-2007 07:49:02 1.6 C 4.6 g/m*3 1.6 C 0 km/h
1000 04-03-2007 08:01:02 1.6 C 4.6 g/m*3 1.6 C 0 km/h
Sensor: Nr:Datum:Temp:Abs-Feuchte:Windchill:Wind:
Aussen-T/F 1001 04-03-2007 08:13:03 1.5 C 4.57 g/m*3 1.5 C 0 km/h
1002 04-03-2007 08:25:02 1.4 C 4.53 g/m*3 1.4 C 0 km/h
1003 04-03-2007 08:37:02 1.5 C 4.57 g/m*3 1.5 C 0 km/h
1004 04-03-2007 08:49:01 1.5 C 4.62 g/m*3 1.5 C 0 km/h
1005 04-03-2007 09:01:02 1.6 C 4.65 g/m*3 1.6 C 0 km/h
1006 04-03-2007 09:13:02 1.7 C 4.68 g/m*3 1.7 C 0 km/h
1007 04-03-2007 09:25:02 2 C 4.78 g/m*3 2 C 0 km/h
1008 04-03-2007 09:37:01 2.3 C 4.88 g/m*3 2.3 C 0 km/h
1009 04-03-2007 09:49:02 2.8 C 5.1 g/m*3 2.8 C 0 km/h
1010 04-03-2007 10:01:02 3.5 C 5.35 g/m*3 3.5 C 0 km/h
1011 04-03-2007 10:13:03 4.2 C 5.67 g/m*3 4.2 C 0 km/h
1012 04-03-2007 10:25:01 4.5 C 5.78 g/m*3 4.5 C 0 km/h
1013 04-03-2007 10:37:02 5.2 C 6.06 g/m*3 5.2 C 0 km/h
1014 04-03-2007 10:49:02 5.7 C 6.26 g/m*3 5.7 C 0 km/h
1015 04-03-2007 11:01:02 6.2 C 6.4 g/m*3 6.2 C 0 km/h
1016 04-03-2007 11:13:02 6.9 C 6.62 g/m*3 6.9 C 0 km/h
1017 04-03-2007 11:25:02 7.2 C 6.52 g/m*3 7.2 C 0 km/h
1018 04-03-2007 11:37:02 8.1 C 5.74 g/m*3 8.1 C 0 km/h
1019 04-03-2007 11:49:02 9.3 C 5.12 g/m*3 9.3 C 0 km/h
1020 04-03-2007 12:01:01 9.7 C 5.25 g/m*3 9.7 C 0 km/h
1021 04-03-2007 12:13:01 10.3 C 4.98 g/m*3 10.3 C 0 km/h
1022 04-03-2007 12:25:01 11.3 C 5 g/m*3 11.3 C 0 km/h
1023 04-03-2007 12:37:02 12.3 C 4.34 g/m*3 12.3 C 0 km/h
1024 04-03-2007 12:49:02 12.9 C 4.4 g/m*3 12.9 C 0 km/h
1025 04-03-2007 13:01:02 13 C 3.97 g/m*3 13 C 0 km/h
Sensor: Nr:Datum:Temp:Abs-Feuchte:Windchill:Wind:
Aussen-T/F 1026 04-03-2007 13:13:02 13 C 3.86 g/m*3 13 C 0 km/h
1027 04-03-2007 13:25:02 13.2 C 4.02 g/m*3 13.2 C 0 km/h
1028 04-03-2007 13:37:02 12.9 C 4.17 g/m*3 12.9 C 0 km/h
1029 04-03-2007 13:49:02 13 C 4.08 g/m*3 13 C 0 km/h
1030 04-03-2007 14:01:02 13.8 C 4.17 g/m*3 13.8 C 0 km/h
1031 04-03-2007 14:13:02 14.1 C 3.76 g/m*3 14.1 C 0 km/h
1032 04-03-2007 14:25:02 14 C 3.74 g/m*3 14 C 0 km/h
1033 04-03-2007 14:37:02 14.8 C 3.93 g/m*3 14.8 C 0 km/h
1034 04-03-2007 14:49:02 15.4 C 3.68 g/m*3 15.4 C 0 km/h
1035 04-03-2007 15:01:01 15.4 C 3.55 g/m*3 15.4 C 0 km/h
1036 04-03-2007 15:13:01 15.1 C 3.87 g/m*3 15.1 C 0 km/h
1037 04-03-2007 15:25:01 15.9 C 4.06 g/m*3 15.9 C 0 km/h
1038 04-03-2007 15:37:02 16 C 3.68 g/m*3 16 C 0 km/h
1039 04-03-2007 15:49:02 16.4 C 3.77 g/m*3 16.4 C 0 km/h
1040 04-03-2007 16:01:03 15.8 C 3.63 g/m*3 15.8 C 0 km/h
1041 04-03-2007 16:13:03 16 C 3.68 g/m*3 16 C 0 km/h
1042 04-03-2007 16:25:02 15.9 C 3.79 g/m*3 15.9 C 0 km/h
1043 04-03-2007 16:37:02 15.9 C 3.66 g/m*3 15.9 C 0 km/h
1044 04-03-2007 16:49:02 15.7 C 3.75 g/m*3 15.7 C 0 km/h
1045 04-03-2007 17:01:02 15.8 C 3.9 g/m*3 15.8 C 0 km/h
1046 04-03-2007 17:13:02 15.4 C 3.94 g/m*3 15.4 C 0 km/h
1047 04-03-2007 17:25:02 15.2 C 3.89 g/m*3 15.2 C 0 km/h
1048 04-03-2007 17:37:01 13.9 C 4.32 g/m*3 13.9 C 0 km/h
1049 04-03-2007 17:49:02 13.1 C 4.22 g/m*3 13.1 C 0 km/h
1050 04-03-2007 18:01:01 12.4 C 4.37 g/m*3 12.4 C 0 km/h
Sensor: Nr:Datum:Temp:Abs-Feuchte:Windchill:Wind:
Aussen-T/F 1051 04-03-2007 18:13:01 11.7 C 4.6 g/m*3 11.7 C 0 km/h
1052 04-03-2007 18:25:02 11.2 C 4.56 g/m*3 11.2 C 0 km/h
1053 04-03-2007 18:37:02 10.7 C 4.52 g/m*3 10.7 C 0 km/h
1054 04-03-2007 18:49:03 10.3 C 4.6 g/m*3 10.3 C 0 km/h
1055 04-03-2007 19:01:02 10.1 C 4.73 g/m*3 10.1 C 0 km/h
1056 04-03-2007 19:13:03 9.7 C 4.61 g/m*3 9.7 C 0 km/h
1057 04-03-2007 19:25:02 9.6 C 4.67 g/m*3 9.6 C 0 km/h
1058 04-03-2007 19:37:03 9.5 C 4.73 g/m*3 9.5 C 0 km/h
1059 04-03-2007 19:49:02 9.5 C 4.73 g/m*3 9.5 C 0 km/h
1060 04-03-2007 20:01:02 9.6 C 4.76 g/m*3 9.6 C 0 km/h
1061 04-03-2007 20:13:02 9.6 C 4.67 g/m*3 9.6 C 0 km/h
1062 04-03-2007 20:25:02 9.5 C 4.64 g/m*3 9.5 C 0 km/h
1063 04-03-2007 20:37:02 9.4 C 4.52 g/m*3 9.4 C 0 km/h
1064 04-03-2007 20:49:03 9.5 C 4.55 g/m*3 9.5 C 0 km/h
1065 04-03-2007 21:01:02 9.6 C 4.49 g/m*3 9.6 C 0 km/h
1066 04-03-2007 21:13:02 9.7 C 4.52 g/m*3 9.7 C 0 km/h
1067 04-03-2007 21:25:02 10 C 4.32 g/m*3 10 C 0 km/h
1068 04-03-2007 21:37:03 10 C 4.32 g/m*3 10 C 0 km/h
1069 04-03-2007 21:49:02 10 C 4.23 g/m*3 10 C 0 km/h
1070 04-03-2007 22:01:02 10.1 C 4.07 g/m*3 10.1 C 0 km/h
1071 04-03-2007 22:13:02 10.1 C 4.07 g/m*3 10.1 C 0 km/h
1072 04-03-2007 22:25:02 9.8 C 4.18 g/m*3 9.8 C 0 km/h
1073 04-03-2007 22:37:02 9.7 C 4.24 g/m*3 9.7 C 0 km/h
1074 04-03-2007 22:49:02 10.2 C 3.9 g/m*3 10.2 C 0 km/h
1075 04-03-2007 23:01:01 10.4 C 3.95 g/m*3 10.4 C 0 km/h
Sensor: Nr:Datum:Temp:Abs-Feuchte:Windchill:Wind:
Aussen-T/F 1076 04-03-2007 23:13:01 10.7 C 3.83 g/m*3 10.7 C 0 km/h
1077 04-03-2007 23:25:02 11 C 3.6 g/m*3 11 C 0 km/h
1078 04-03-2007 23:37:02 11 C 3.6 g/m*3 11 C 0 km/h
1079 04-03-2007 23:49:02 11 C 3.7 g/m*3 11 C 0 km/h
1080 05-03-2007 00:01:02 10.9 C 3.68 g/m*3 10.9 C 0 km/h
1081 05-03-2007 00:13:02 10.8 C 3.66 g/m*3 10.8 C 0 km/h
1082 05-03-2007 00:25:03 10.6 C 3.71 g/m*3 10.6 C 0 km/h
1083 05-03-2007 00:37:02 10.6 C 3.71 g/m*3 10.6 C 0 km/h
1084 05-03-2007 00:49:02 10.4 C 3.66 g/m*3 10.4 C 0 km/h
1085 05-03-2007 01:01:02 10.3 C 3.73 g/m*3 10.3 C 0 km/h
1086 05-03-2007 01:13:02 10.1 C 3.78 g/m*3 10.1 C 0 km/h
1087 05-03-2007 01:25:02 10.1 C 3.78 g/m*3 10.1 C 0 km/h
1088 05-03-2007 01:37:02 10 C 3.76 g/m*3 10 C 0 km/h
1089 05-03-2007 01:49:02 10.1 C 3.78 g/m*3 10.1 C 0 km/h
1090 05-03-2007 02:01:03 9.8 C 3.8 g/m*3 9.8 C 0 km/h
1091 05-03-2007 02:13:03 9.7 C 3.78 g/m*3 9.7 C 0 km/h
1092 05-03-2007 02:25:02 9.7 C 3.78 g/m*3 9.7 C 0 km/h
1093 05-03-2007 02:37:02 9.6 C 3.85 g/m*3 9.6 C 0 km/h
1094 05-03-2007 02:49:01 9.3 C 3.86 g/m*3 9.3 C 0 km/h
1095 05-03-2007 03:01:01 9.1 C 3.9 g/m*3 9.1 C 0 km/h
1096 05-03-2007 03:13:02 8.8 C 4 g/m*3 8.8 C 0 km/h
1097 05-03-2007 03:25:02 8.7 C 3.89 g/m*3 8.7 C 0 km/h
1098 05-03-2007 03:37:02 8.6 C 3.87 g/m*3 8.6 C 0 km/h
1099 05-03-2007 03:49:02 8.5 C 4.01 g/m*3 8.5 C 0 km/h
1100 05-03-2007 04:01:02 8.5 C 4.01 g/m*3 8.5 C 0 km/h
Sensor: Nr:Datum:Temp:Abs-Feuchte:Windchill:Wind:
Aussen-T/F 1101 05-03-2007 04:13:02 8.7 C 3.98 g/m*3 8.7 C 0 km/h
1102 05-03-2007 04:25:02 9 C 3.97 g/m*3 9 C 0 km/h
1103 05-03-2007 04:37:02 8.7 C 3.98 g/m*3 8.7 C 0 km/h
1104 05-03-2007 04:49:02 8.5 C 4.1 g/m*3 8.5 C 0 km/h
1105 05-03-2007 05:01:01 8.3 C 4.3 g/m*3 8.3 C 0 km/h
1106 05-03-2007 05:13:01 8 C 4.22 g/m*3 8 C 0 km/h
1107 05-03-2007 05:25:02 8 C 4.3 g/m*3 8 C 0 km/h
1108 05-03-2007 05:37:02 8.1 C 4.49 g/m*3 8.1 C 0 km/h
1109 05-03-2007 05:49:02 8.4 C 4.58 g/m*3 8.4 C 0 km/h
1110 05-03-2007 06:01:01 8.5 C 4.7 g/m*3 8.5 C 0 km/h
1111 05-03-2007 06:13:01 8.5 C 4.61 g/m*3 8.5 C 0 km/h
1112 05-03-2007 06:25:01 8.6 C 4.73 g/m*3 8.6 C 0 km/h
1113 05-03-2007 06:37:02 8.8 C 4.79 g/m*3 8.8 C 0 km/h
1114 05-03-2007 06:49:01 10.2 C 5.14 g/m*3 10.2 C 0 km/h
1115 05-03-2007 07:01:02 11.5 C 5.06 g/m*3 11.5 C 0 km/h
1116 05-03-2007 07:13:02 11.8 C 5.05 g/m*3 11.8 C 0 km/h
1117 05-03-2007 07:25:01 11.7 C 5.12 g/m*3 11.7 C 0 km/h
1118 05-03-2007 07:37:01 11.7 C 5.12 g/m*3 11.7 C 0 km/h
1119 05-03-2007 07:49:01 11.5 C 5.16 g/m*3 11.5 C 0 km/h
1120 05-03-2007 08:01:01 11.1 C 5.44 g/m*3 11.1 C 0 km/h
1121 05-03-2007 08:13:01 11 C 5.2 g/m*3 11 C 0 km/h
1122 05-03-2007 08:25:02 11 C 5.1 g/m*3 11 C 0 km/h
1123 05-03-2007 08:37:01 11 C 5 g/m*3 11 C 0 km/h
1124 05-03-2007 08:49:02 11.2 C 5.07 g/m*3 11.2 C 0 km/h
1125 05-03-2007 09:01:02 11.1 C 4.94 g/m*3 11.1 C 0 km/h
Sensor: Nr:Datum:Temp:Abs-Feuchte:Windchill:Wind:
Aussen-T/F 1126 05-03-2007 09:13:02 11.1 C 5.04 g/m*3 11.1 C 0 km/h
1127 05-03-2007 09:25:01 11.2 C 5.07 g/m*3 11.2 C 0 km/h
1128 05-03-2007 09:37:02 11.2 C 4.97 g/m*3 11.2 C 0 km/h
1129 05-03-2007 09:49:01 11.2 C 5.07 g/m*3 11.2 C 0 km/h
1130 05-03-2007 10:01:02 11.1 C 5.24 g/m*3 11.1 C 0 km/h
1131 05-03-2007 10:13:02 11.2 C 5.27 g/m*3 11.2 C 0 km/h
1132 05-03-2007 10:25:02 11.6 C 5.2 g/m*3 11.6 C 0 km/h
1133 05-03-2007 10:37:01 11.9 C 5.08 g/m*3 11.9 C 0 km/h
1134 05-03-2007 10:49:02 11.8 C 4.95 g/m*3 11.8 C 0 km/h
1135 05-03-2007 11:01:01 11.8 C 4.63 g/m*3 11.8 C 0 km/h
1136 05-03-2007 11:13:01 11.4 C 4.52 g/m*3 11.4 C 0 km/h
1137 05-03-2007 11:25:01 11.4 C 4.31 g/m*3 11.4 C 0 km/h
1138 05-03-2007 11:37:02 11.4 C 4.31 g/m*3 11.4 C 0 km/h
1139 05-03-2007 11:49:02 11.7 C 4.39 g/m*3 11.7 C 0 km/h
1140 05-03-2007 12:01:02 11.5 C 4.34 g/m*3 11.5 C 0 km/h
1141 05-03-2007 12:13:02 11.5 C 4.54 g/m*3 11.5 C 0 km/h
1142 05-03-2007 12:25:01 11.5 C 4.54 g/m*3 11.5 C 0 km/h
1143 05-03-2007 12:37:02 11.9 C 4.24 g/m*3 11.9 C 0 km/h
1144 05-03-2007 12:49:01 12 C 3.84 g/m*3 12 C 0 km/h
1145 05-03-2007 13:01:02 12.4 C 3.82 g/m*3 12.4 C 0 km/h
1146 05-03-2007 13:13:02 12.7 C 3.9 g/m*3 12.7 C 0 km/h
1147 05-03-2007 13:25:02 13 C 3.74 g/m*3 13 C 0 km/h
1148 05-03-2007 13:37:01 13.1 C 3.42 g/m*3 13.1 C 0 km/h
1149 05-03-2007 13:49:02 13.4 C 3.25 g/m*3 13.4 C 0 km/h
1150 05-03-2007 14:01:01 13.5 C 3.51 g/m*3 13.5 C 0 km/h
Sensor: Nr:Datum:Temp:Abs-Feuchte:Windchill:Wind:
Aussen-T/F 1151 05-03-2007 14:13:01 13.5 C 3.51 g/m*3 13.5 C 0 km/h
1152 05-03-2007 14:25:02 13.3 C 3.58 g/m*3 13.3 C 0 km/h
1153 05-03-2007 14:37:01 13 C 3.4 g/m*3 13 C 0 km/h
1154 05-03-2007 14:49:02 12.7 C 3.45 g/m*3 12.7 C 0 km/h
1155 05-03-2007 15:01:01 12.7 C 3.67 g/m*3 12.7 C 0 km/h
1156 05-03-2007 15:13:02 12.6 C 3.65 g/m*3 12.6 C 0 km/h
1157 05-03-2007 15:25:01 13 C 3.63 g/m*3 13 C 0 km/h
1158 05-03-2007 15:37:02 13.3 C 3 g/m*3 13.3 C 0 km/h
1159 05-03-2007 15:49:01 12.8 C 3.47 g/m*3 12.8 C 0 km/h
1160 05-03-2007 16:01:01 13.3 C 3.47 g/m*3 13.3 C 0 km/h
1161 05-03-2007 16:13:01 13.4 C 3.49 g/m*3 13.4 C 0 km/h
1162 05-03-2007 16:25:02 13 C 3.4 g/m*3 13 C 0 km/h
1163 05-03-2007 16:37:01 12.3 C 3.47 g/m*3 12.3 C 0 km/h
1164 05-03-2007 16:49:02 12.6 C 3.54 g/m*3 12.6 C 0 km/h
1165 05-03-2007 17:01:01 12.4 C 3.5 g/m*3 12.4 C 0 km/h
1166 05-03-2007 17:13:01 12.4 C 3.71 g/m*3 12.4 C 0 km/h
1167 05-03-2007 17:25:01 12.4 C 3.82 g/m*3 12.4 C 0 km/h
1168 05-03-2007 17:37:02 12 C 3.84 g/m*3 12 C 0 km/h
1169 05-03-2007 17:49:01 11.4 C 4.11 g/m*3 11.4 C 0 km/h
1170 05-03-2007 18:01:02 11.1 C 3.63 g/m*3 11.1 C 0 km/h
1171 05-03-2007 18:13:02 11 C 3.5 g/m*3 11 C 0 km/h
1172 05-03-2007 18:25:01 10.9 C 3.48 g/m*3 10.9 C 0 km/h
1173 05-03-2007 18:37:01 10.7 C 3.54 g/m*3 10.7 C 0 km/h
1174 05-03-2007 18:49:01 10.4 C 3.47 g/m*3 10.4 C 0 km/h
1175 05-03-2007 19:01:02 10 C 3.76 g/m*3 10 C 0 km/h
Sensor: Nr:Datum:Temp:Abs-Feuchte:Windchill:Wind:
Aussen-T/F 1176 05-03-2007 19:13:02 9.5 C 3.82 g/m*3 9.5 C 0 km/h
1177 05-03-2007 19:25:02 9.1 C 3.9 g/m*3 9.1 C 0 km/h
1178 05-03-2007 19:37:01 8.9 C 3.94 g/m*3 8.9 C 0 km/h
1179 05-03-2007 19:49:02 8.7 C 3.98 g/m*3 8.7 C 0 km/h
1180 05-03-2007 20:01:01 8.5 C 4.01 g/m*3 8.5 C 0 km/h
1181 05-03-2007 20:13:01 8.4 C 4.07 g/m*3 8.4 C 0 km/h
1182 05-03-2007 20:25:01 8.1 C 4.08 g/m*3 8.1 C 0 km/h
1183 05-03-2007 20:37:02 8 C 4.05 g/m*3 8 C 0 km/h
1184 05-03-2007 20:49:02 7.9 C 4.19 g/m*3 7.9 C 0 km/h
1185 05-03-2007 21:01:02 7.6 C 4.11 g/m*3 7.6 C 0 km/h
1186 05-03-2007 21:13:02 7.4 C 4.14 g/m*3 7.4 C 0 km/h
1187 05-03-2007 21:25:01 7.2 C 4.08 g/m*3 7.2 C 0 km/h
1188 05-03-2007 21:37:02 7.1 C 4.13 g/m*3 7.1 C 0 km/h
1189 05-03-2007 21:49:01 7 C 4.18 g/m*3 7 C 0 km/h
1190 05-03-2007 22:01:01 7 C 4.18 g/m*3 7 C 0 km/h
1191 05-03-2007 22:13:01 6.8 C 4.13 g/m*3 6.8 C 0 km/h
1192 05-03-2007 22:25:02 6.7 C 4.18 g/m*3 6.7 C 0 km/h
1193 05-03-2007 22:37:01 6.6 C 4.15 g/m*3 6.6 C 0 km/h
1194 05-03-2007 22:49:02 6.4 C 4.17 g/m*3 6.4 C 0 km/h
1195 05-03-2007 23:01:01 6.3 C 4.15 g/m*3 6.3 C 0 km/h
1196 05-03-2007 23:13:01 6.3 C 4.15 g/m*3 6.3 C 0 km/h
1197 05-03-2007 23:25:01 6.3 C 4.15 g/m*3 6.3 C 0 km/h
1198 05-03-2007 23:37:02 6 C 4.14 g/m*3 6 C 0 km/h
1199 05-03-2007 23:49:01 6 C 4.21 g/m*3 6 C 0 km/h
1200 06-03-2007 00:01:02 6 C 4.28 g/m*3 6 C 0 km/h
Sensor: Nr:Datum:Temp:Abs-Feuchte:Windchill:Wind:
Aussen-T/F 1201 06-03-2007 00:13:02 6 C 4.28 g/m*3 6 C 0 km/h
1202 06-03-2007 00:25:02 5.9 C 4.25 g/m*3 5.9 C 0 km/h
1203 06-03-2007 00:37:02 5.9 C 4.33 g/m*3 5.9 C 0 km/h
1204 06-03-2007 00:49:01 5.9 C 4.33 g/m*3 5.9 C 0 km/h
1205 06-03-2007 01:01:01 5.9 C 4.33 g/m*3 5.9 C 0 km/h
1206 06-03-2007 01:13:02 5.8 C 4.23 g/m*3 5.8 C 0 km/h
1207 06-03-2007 01:25:02 5.8 C 4.3 g/m*3 5.8 C 0 km/h
1208 06-03-2007 01:37:02 5.9 C 4.33 g/m*3 5.9 C 0 km/h
1209 06-03-2007 01:49:01 5.8 C 4.23 g/m*3 5.8 C 0 km/h
1210 06-03-2007 02:01:01 6.2 C 4.19 g/m*3 6.2 C 0 km/h
1211 06-03-2007 02:13:01 6.5 C 4.05 g/m*3 6.5 C 0 km/h
1212 06-03-2007 02:25:02 6.1 C 4.09 g/m*3 6.1 C 0 km/h
1213 06-03-2007 02:37:02 6.1 C 4.09 g/m*3 6.1 C 0 km/h
1214 06-03-2007 02:50:04 6 C 4.06 g/m*3 6 C 0 km/h
1215 06-03-2007 03:02:04 6 C 4.14 g/m*3 6 C 0 km/h
1216 06-03-2007 03:14:04 6 C 4.21 g/m*3 6 C 0 km/h
1217 06-03-2007 03:26:04 5.9 C 4.25 g/m*3 5.9 C 0 km/h
1218 06-03-2007 03:38:02 6.1 C 4.24 g/m*3 6.1 C 0 km/h
1219 06-03-2007 03:50:02 6.6 C 4.15 g/m*3 6.6 C 0 km/h
1220 06-03-2007 04:02:01 7.4 C 3.98 g/m*3 7.4 C 0 km/h
1221 06-03-2007 04:14:01 7.5 C 3.92 g/m*3 7.5 C 0 km/h
1222 06-03-2007 04:26:01 7.6 C 3.87 g/m*3 7.6 C 0 km/h
1223 06-03-2007 04:38:02 7.7 C 3.89 g/m*3 7.7 C 0 km/h
1224 06-03-2007 04:50:02 7.5 C 3.84 g/m*3 7.5 C 0 km/h
1225 06-03-2007 05:02:02 7.7 C 3.81 g/m*3 7.7 C 0 km/h
Sensor: Nr:Datum:Temp:Abs-Feuchte:Windchill:Wind:
Aussen-T/F 1226 06-03-2007 05:14:02 7.6 C 3.87 g/m*3 7.6 C 0 km/h
1227 06-03-2007 05:26:02 7.4 C 3.9 g/m*3 7.4 C 0 km/h
1228 06-03-2007 05:38:02 7.5 C 4 g/m*3 7.5 C 0 km/h
1229 06-03-2007 05:50:01 7.4 C 3.9 g/m*3 7.4 C 0 km/h
1230 06-03-2007 06:02:02 7.3 C 3.95 g/m*3 7.3 C 0 km/h
1231 06-03-2007 06:14:02 7.6 C 3.95 g/m*3 7.6 C 0 km/h
1232 06-03-2007 06:26:01 7.7 C 3.89 g/m*3 7.7 C 0 km/h
1233 06-03-2007 06:38:01 7.5 C 3.84 g/m*3 7.5 C 0 km/h
1234 06-03-2007 06:50:01 7.4 C 3.9 g/m*3 7.4 C 0 km/h
1235 06-03-2007 07:02:02 7.5 C 3.92 g/m*3 7.5 C 0 km/h
1236 06-03-2007 07:14:02 7.4 C 3.9 g/m*3 7.4 C 0 km/h
1237 06-03-2007 07:26:02 7.7 C 3.89 g/m*3 7.7 C 0 km/h
1238 06-03-2007 07:38:01 7.9 C 3.86 g/m*3 7.9 C 0 km/h
1239 06-03-2007 07:50:02 8.1 C 3.83 g/m*3 8.1 C 0 km/h
1240 06-03-2007 08:02:01 8.1 C 3.74 g/m*3 8.1 C 0 km/h
1241 06-03-2007 08:14:01 8.2 C 3.77 g/m*3 8.2 C 0 km/h
1242 06-03-2007 08:26:01 8.4 C 3.73 g/m*3 8.4 C 0 km/h
1243 06-03-2007 08:38:02 8.6 C 3.78 g/m*3 8.6 C 0 km/h
1244 06-03-2007 08:50:02 8.8 C 3.74 g/m*3 8.8 C 0 km/h
1245 06-03-2007 09:02:02 9 C 3.79 g/m*3 9 C 0 km/h
1246 06-03-2007 09:14:02 9.5 C 3.73 g/m*3 9.5 C 0 km/h
1247 06-03-2007 09:26:02 9.7 C 3.69 g/m*3 9.7 C 0 km/h
1248 06-03-2007 09:38:02 9.9 C 3.73 g/m*3 9.9 C 0 km/h
1249 06-03-2007 09:50:02 10 C 3.66 g/m*3 10 C 0 km/h
1250 06-03-2007 10:02:02 10.2 C 3.62 g/m*3 10.2 C 0 km/h
Sensor: Nr:Datum:Temp:Abs-Feuchte:Windchill:Wind:
Aussen-T/F 1251 06-03-2007 10:14:02 10.5 C 3.59 g/m*3 10.5 C 0 km/h
1252 06-03-2007 10:26:02 10.7 C 3.54 g/m*3 10.7 C 0 km/h
1253 06-03-2007 10:38:02 11.1 C 3.63 g/m*3 11.1 C 0 km/h
1254 06-03-2007 10:50:02 11.6 C 3.64 g/m*3 11.6 C 0 km/h
1255 06-03-2007 11:02:02 12.2 C 3.45 g/m*3 12.2 C 0 km/h
1256 06-03-2007 11:14:02 12.6 C 3.43 g/m*3 12.6 C 0 km/h
1257 06-03-2007 11:26:02 12.6 C 3.43 g/m*3 12.6 C 0 km/h
1258 06-03-2007 11:38:02 13 C 3.4 g/m*3 13 C 0 km/h
1259 06-03-2007 11:50:01 13.3 C 3.35 g/m*3 13.3 C 0 km/h
1260 06-03-2007 12:02:02 13.7 C 3.32 g/m*3 13.7 C 0 km/h
1261 06-03-2007 12:14:02 13.8 C 3.22 g/m*3 13.8 C 0 km/h
1262 06-03-2007 12:26:02 14.1 C 3.03 g/m*3 14.1 C 0 km/h
1263 06-03-2007 12:38:01 14.1 C 3.03 g/m*3 14.1 C 0 km/h
1264 06-03-2007 12:50:02 14.3 C 3.07 g/m*3 14.3 C 0 km/h
1265 06-03-2007 13:02:01 14.3 C 3.07 g/m*3 14.3 C 0 km/h
1266 06-03-2007 13:14:01 14.4 C 2.97 g/m*3 14.4 C 0 km/h
1267 06-03-2007 13:26:02 14 C 2.65 g/m*3 14 C 0 km/h
1268 06-03-2007 13:38:02 14.1 C 2.67 g/m*3 14.1 C 0 km/h
1269 06-03-2007 13:50:02 14.1 C 2.67 g/m*3 14.1 C 0 km/h
1270 06-03-2007 14:02:02 14.1 C 2.67 g/m*3 14.1 C 0 km/h
1271 06-03-2007 14:14:02 14.1 C 2.67 g/m*3 14.1 C 0 km/h
1272 06-03-2007 14:26:01 14.3 C 2.83 g/m*3 14.3 C 0 km/h
1273 06-03-2007 14:38:02 14.4 C 2.6 g/m*3 14.4 C 0 km/h
1274 06-03-2007 14:50:03 14.6 C 2.63 g/m*3 14.6 C 0 km/h
1275 06-03-2007 15:02:02 14.4 C 2.6 g/m*3 14.4 C 0 km/h
Sensor: Nr:Datum:Temp:Abs-Feuchte:Windchill:Wind:
Aussen-T/F 1276 06-03-2007 15:14:02 14.4 C 2.6 g/m*3 14.4 C 0 km/h
1277 06-03-2007 15:26:02 14.1 C 2.43 g/m*3 14.1 C 0 km/h
1278 06-03-2007 15:38:03 14 C 2.53 g/m*3 14 C 0 km/h
1279 06-03-2007 15:50:02 13.6 C 2.82 g/m*3 13.6 C 0 km/h
1280 06-03-2007 16:02:03 13.7 C 2.96 g/m*3 13.7 C 0 km/h
1281 06-03-2007 16:14:03 13.6 C 2.82 g/m*3 13.6 C 0 km/h
1282 06-03-2007 16:26:02 13.3 C 2.89 g/m*3 13.3 C 0 km/h
1283 06-03-2007 16:38:02 13 C 3.06 g/m*3 13 C 0 km/h
1284 06-03-2007 16:50:02 12.6 C 3.54 g/m*3 12.6 C 0 km/h
1285 06-03-2007 17:02:02 12.2 C 3.88 g/m*3 12.2 C 0 km/h
1286 06-03-2007 17:14:02 11.6 C 4.16 g/m*3 11.6 C 0 km/h
1287 06-03-2007 17:26:02 11.4 C 4.31 g/m*3 11.4 C 0 km/h
1288 06-03-2007 17:38:01 10.9 C 4.67 g/m*3 10.9 C 0 km/h
1289 06-03-2007 17:50:02 10.2 C 4.95 g/m*3 10.2 C 0 km/h
1290 06-03-2007 18:02:03 10 C 5.26 g/m*3 10 C 0 km/h
1291 06-03-2007 18:14:03 10.2 C 4.57 g/m*3 10.2 C 0 km/h
1292 06-03-2007 18:26:02 10.7 C 4.52 g/m*3 10.7 C 0 km/h
1293 06-03-2007 18:38:02 10.7 C 4.42 g/m*3 10.7 C 0 km/h
1294 06-03-2007 18:50:01 10.7 C 4.32 g/m*3 10.7 C 0 km/h
1295 06-03-2007 19:02:02 10.4 C 4.43 g/m*3 10.4 C 0 km/h
1296 06-03-2007 19:14:02 10.5 C 4.46 g/m*3 10.5 C 0 km/h
1297 06-03-2007 19:26:02 10.5 C 4.46 g/m*3 10.5 C 0 km/h
1298 06-03-2007 19:38:02 10.5 C 4.46 g/m*3 10.5 C 0 km/h
1299 06-03-2007 19:50:02 10.4 C 4.43 g/m*3 10.4 C 0 km/h
1300 06-03-2007 20:02:02 10.1 C 4.54 g/m*3 10.1 C 0 km/h
Sensor: Nr:Datum:Temp:Abs-Feuchte:Windchill:Wind:
Aussen-T/F 1301 06-03-2007 20:14:02 10 C 4.7 g/m*3 10 C 0 km/h
1302 06-03-2007 20:26:02 9.8 C 4.82 g/m*3 9.8 C 0 km/h
1303 06-03-2007 20:38:02 9.6 C 4.86 g/m*3 9.6 C 0 km/h
1304 06-03-2007 20:50:02 9.6 C 5.04 g/m*3 9.6 C 0 km/h
1305 06-03-2007 21:02:03 9.4 C 5.16 g/m*3 9.4 C 0 km/h
1306 06-03-2007 21:14:03 9.4 C 5.25 g/m*3 9.4 C 0 km/h
1307 06-03-2007 21:26:02 9.6 C 5.59 g/m*3 9.6 C 0 km/h
1308 06-03-2007 21:38:02 8.8 C 5.57 g/m*3 8.8 C 0 km/h
1309 06-03-2007 21:50:02 8.6 C 5.67 g/m*3 8.6 C 0 km/h
1310 06-03-2007 22:02:01 8.5 C 5.72 g/m*3 8.5 C 0 km/h
1311 06-03-2007 22:14:01 8.7 C 5.53 g/m*3 8.7 C 0 km/h
1312 06-03-2007 22:26:01 8.9 C 5.52 g/m*3 8.9 C 0 km/h
1313 06-03-2007 22:38:02 8.8 C 5.57 g/m*3 8.8 C 0 km/h
1314 06-03-2007 22:50:03 8.6 C 5.59 g/m*3 8.6 C 0 km/h
1315 06-03-2007 23:02:02 8.6 C 5.5 g/m*3 8.6 C 0 km/h
1316 06-03-2007 23:14:02 8.7 C 5.45 g/m*3 8.7 C 0 km/h
1317 06-03-2007 23:26:02 8.7 C 5.36 g/m*3 8.7 C 0 km/h
1318 06-03-2007 23:38:03 8.6 C 5.41 g/m*3 8.6 C 0 km/h
1319 06-03-2007 23:50:02 8.5 C 5.38 g/m*3 8.5 C 0 km/h
1320 07-03-2007 00:02:03 8.6 C 5.41 g/m*3 8.6 C 0 km/h
1321 07-03-2007 00:14:03 8.7 C 5.36 g/m*3 8.7 C 0 km/h
1322 07-03-2007 00:26:03 8.6 C 5.33 g/m*3 8.6 C 0 km/h
1323 07-03-2007 00:38:02 8.6 C 5.33 g/m*3 8.6 C 0 km/h
1324 07-03-2007 00:50:02 8.7 C 5.28 g/m*3 8.7 C 0 km/h
1325 07-03-2007 01:02:02 8.7 C 5.19 g/m*3 8.7 C 0 km/h
Sensor: Nr:Datum:Temp:Abs-Feuchte:Windchill:Wind:
Aussen-T/F 1326 07-03-2007 01:14:02 8.7 C 5.19 g/m*3 8.7 C 0 km/h
1327 07-03-2007 01:26:03 8.7 C 5.19 g/m*3 8.7 C 0 km/h
1328 07-03-2007 01:38:03 8.6 C 5.16 g/m*3 8.6 C 0 km/h
1329 07-03-2007 01:50:03 8.7 C 5.1 g/m*3 8.7 C 0 km/h
1330 07-03-2007 02:02:03 8.8 C 5.14 g/m*3 8.8 C 0 km/h
1331 07-03-2007 02:14:03 8.7 C 5.02 g/m*3 8.7 C 0 km/h
1332 07-03-2007 02:26:03 8.8 C 5.05 g/m*3 8.8 C 0 km/h
1333 07-03-2007 02:38:03 8.7 C 4.93 g/m*3 8.7 C 0 km/h
1334 07-03-2007 02:51:03 8.8 C 4.96 g/m*3 8.8 C 0 km/h
1335 07-03-2007 03:03:03 8.7 C 5.02 g/m*3 8.7 C 0 km/h
1336 07-03-2007 03:15:03 8.7 C 5.1 g/m*3 8.7 C 0 km/h
1337 07-03-2007 03:27:03 8.7 C 5.1 g/m*3 8.7 C 0 km/h
1338 07-03-2007 03:39:03 8.8 C 5.14 g/m*3 8.8 C 0 km/h
1339 07-03-2007 03:51:03 8.8 C 5.14 g/m*3 8.8 C 0 km/h
1340 07-03-2007 04:03:02 8.9 C 5.17 g/m*3 8.9 C 0 km/h
1341 07-03-2007 04:15:02 8.8 C 5.14 g/m*3 8.8 C 0 km/h
1342 07-03-2007 04:27:02 8.7 C 5.19 g/m*3 8.7 C 0 km/h
1343 07-03-2007 04:39:02 8.7 C 5.19 g/m*3 8.7 C 0 km/h
1344 07-03-2007 04:51:02 8.6 C 5.24 g/m*3 8.6 C 0 km/h
1345 07-03-2007 05:03:02 8.5 C 5.21 g/m*3 8.5 C 0 km/h
1346 07-03-2007 05:15:02 8.4 C 5.26 g/m*3 8.4 C 0 km/h
1347 07-03-2007 05:27:02 8.5 C 5.29 g/m*3 8.5 C 0 km/h
1348 07-03-2007 05:39:02 8.4 C 5.26 g/m*3 8.4 C 0 km/h
1349 07-03-2007 05:51:01 8.5 C 5.21 g/m*3 8.5 C 0 km/h
1350 07-03-2007 06:03:02 8.5 C 5.21 g/m*3 8.5 C 0 km/h
Sensor: Nr:Datum:Temp:Abs-Feuchte:Windchill:Wind:
Aussen-T/F 1351 07-03-2007 06:15:01 8.6 C 5.24 g/m*3 8.6 C 0 km/h
1352 07-03-2007 06:27:01 8.6 C 5.24 g/m*3 8.6 C 0 km/h
1353 07-03-2007 06:39:01 8.6 C 5.33 g/m*3 8.6 C 0 km/h
1354 07-03-2007 06:51:01 8.4 C 5.34 g/m*3 8.4 C 0 km/h
1355 07-03-2007 07:03:02 8.5 C 5.38 g/m*3 8.5 C 0 km/h
1356 07-03-2007 07:15:02 8.6 C 5.41 g/m*3 8.6 C 0 km/h
1357 07-03-2007 07:27:02 8.6 C 5.41 g/m*3 8.6 C 0 km/h
1358 07-03-2007 07:39:01 8.8 C 5.48 g/m*3 8.8 C 0 km/h
1359 07-03-2007 07:51:02 8.9 C 5.43 g/m*3 8.9 C 0 km/h
1360 07-03-2007 08:03:01 8.9 C 5.52 g/m*3 8.9 C 0 km/h
1361 07-03-2007 08:15:02 9 C 5.47 g/m*3 9 C 0 km/h
1362 07-03-2007 08:27:02 9.2 C 5.63 g/m*3 9.2 C 0 km/h
1363 07-03-2007 08:39:02 9.1 C 5.68 g/m*3 9.1 C 0 km/h
1364 07-03-2007 08:51:02 9.3 C 5.75 g/m*3 9.3 C 0 km/h
1365 07-03-2007 09:03:02 9.5 C 5.73 g/m*3 9.5 C 0 km/h
1366 07-03-2007 09:15:02 9.8 C 5.66 g/m*3 9.8 C 0 km/h
1367 07-03-2007 09:27:02 9.8 C 5.47 g/m*3 9.8 C 0 km/h
1368 07-03-2007 09:39:01 10.1 C 5.48 g/m*3 10.1 C 0 km/h
1369 07-03-2007 09:51:02 10.1 C 5.48 g/m*3 10.1 C 0 km/h
1370 07-03-2007 10:03:02 10 C 5.36 g/m*3 10 C 0 km/h
1371 07-03-2007 10:15:02 10 C 5.26 g/m*3 10 C 0 km/h
1372 07-03-2007 10:27:02 10.4 C 5.2 g/m*3 10.4 C 0 km/h
1373 07-03-2007 10:39:01 10.4 C 4.92 g/m*3 10.4 C 0 km/h
1374 07-03-2007 10:51:02 10.5 C 4.95 g/m*3 10.5 C 0 km/h
1375 07-03-2007 11:03:02 10 C 5.17 g/m*3 10 C 0 km/h
Sensor: Nr:Datum:Temp:Abs-Feuchte:Windchill:Wind:
Aussen-T/F 1376 07-03-2007 11:15:01 9.8 C 5.38 g/m*3 9.8 C 0 km/h
1377 07-03-2007 11:27:01 9.9 C 5.51 g/m*3 9.9 C 0 km/h
1378 07-03-2007 11:39:02 9.7 C 5.81 g/m*3 9.7 C 0 km/h
1379 07-03-2007 11:51:01 9.6 C 5.95 g/m*3 9.6 C 0 km/h
1380 07-03-2007 12:03:02 9.6 C 5.86 g/m*3 9.6 C 0 km/h
1381 07-03-2007 12:15:01 9.7 C 5.62 g/m*3 9.7 C 0 km/h
1382 07-03-2007 12:27:01 10.4 C 5.3 g/m*3 10.4 C 0 km/h
1383 07-03-2007 12:39:01 10.7 C 5.21 g/m*3 10.7 C 0 km/h
1384 07-03-2007 12:51:01 10.5 C 4.95 g/m*3 10.5 C 0 km/h
1385 07-03-2007 13:03:01 10.3 C 4.88 g/m*3 10.3 C 0 km/h
1386 07-03-2007 13:15:01 10.1 C 4.82 g/m*3 10.1 C 0 km/h
1387 07-03-2007 13:27:01 9.8 C 4.82 g/m*3 9.8 C 0 km/h
1388 07-03-2007 13:39:01 9.2 C 5 g/m*3 9.2 C 0 km/h
1389 07-03-2007 13:51:02 9.5 C 5.1 g/m*3 9.5 C 0 km/h
1390 07-03-2007 14:03:01 9.6 C 4.86 g/m*3 9.6 C 0 km/h
1391 07-03-2007 14:15:01 10.1 C 4.73 g/m*3 10.1 C 0 km/h
1392 07-03-2007 14:27:01 11 C 4.5 g/m*3 11 C 0 km/h
1393 07-03-2007 14:39:01 11.6 C 4.47 g/m*3 11.6 C 0 km/h
1394 07-03-2007 14:51:02 12.2 C 4.32 g/m*3 12.2 C 0 km/h
1395 07-03-2007 15:03:02 12.4 C 4.37 g/m*3 12.4 C 0 km/h
1396 07-03-2007 15:15:02 12.8 C 4.26 g/m*3 12.8 C 0 km/h
1397 07-03-2007 15:27:02 12.8 C 4.14 g/m*3 12.8 C 0 km/h
1398 07-03-2007 15:39:02 12.4 C 4.15 g/m*3 12.4 C 0 km/h
1399 07-03-2007 15:51:02 12.4 C 4.26 g/m*3 12.4 C 0 km/h
1400 07-03-2007 16:03:02 12.9 C 4.28 g/m*3 12.9 C 0 km/h
Sensor: Nr:Datum:Temp:Abs-Feuchte:Windchill:Wind:
Aussen-T/F 1401 07-03-2007 16:15:02 12.5 C 4.07 g/m*3 12.5 C 0 km/h
1402 07-03-2007 16:27:02 12.7 C 4.23 g/m*3 12.7 C 0 km/h
1403 07-03-2007 16:39:01 12.5 C 4.07 g/m*3 12.5 C 0 km/h
1404 07-03-2007 16:51:02 13 C 4.08 g/m*3 13 C 0 km/h
1405 07-03-2007 17:03:02 12.9 C 3.94 g/m*3 12.9 C 0 km/h
1406 07-03-2007 17:15:02 12.8 C 3.7 g/m*3 12.8 C 0 km/h
1407 07-03-2007 17:27:02 12.4 C 3.71 g/m*3 12.4 C 0 km/h
1408 07-03-2007 17:39:02 12.4 C 3.82 g/m*3 12.4 C 0 km/h
1409 07-03-2007 17:51:02 12.2 C 3.78 g/m*3 12.2 C 0 km/h
1410 07-03-2007 18:03:02 11.5 C 3.93 g/m*3 11.5 C 0 km/h
1411 07-03-2007 18:15:01 10.5 C 3.98 g/m*3 10.5 C 0 km/h
1412 07-03-2007 18:27:01 10 C 4.04 g/m*3 10 C 0 km/h
1413 07-03-2007 18:39:02 9.3 C 4.22 g/m*3 9.3 C 0 km/h
1414 07-03-2007 18:51:02 8.9 C 4.29 g/m*3 8.9 C 0 km/h
1415 07-03-2007 19:03:03 8.6 C 4.3 g/m*3 8.6 C 0 km/h
1416 07-03-2007 19:15:02 8.3 C 4.3 g/m*3 8.3 C 0 km/h
1417 07-03-2007 19:27:03 8.1 C 4.33 g/m*3 8.1 C 0 km/h
1418 07-03-2007 19:39:02 8 C 4.38 g/m*3 8 C 0 km/h
1419 07-03-2007 19:51:03 7.8 C 4.49 g/m*3 7.8 C 0 km/h
1420 07-03-2007 20:03:02 7.5 C 4.48 g/m*3 7.5 C 0 km/h
1421 07-03-2007 20:15:02 7.4 C 4.61 g/m*3 7.4 C 0 km/h
1422 07-03-2007 20:27:02 7.2 C 4.47 g/m*3 7.2 C 0 km/h
1423 07-03-2007 20:39:03 7 C 4.49 g/m*3 7 C 0 km/h
1424 07-03-2007 20:51:02 6.8 C 4.51 g/m*3 6.8 C 0 km/h
1425 07-03-2007 21:03:02 6.7 C 4.64 g/m*3 6.7 C 0 km/h
Sensor: Nr:Datum:Temp:Abs-Feuchte:Windchill:Wind:
Aussen-T/F 1426 07-03-2007 21:15:02 6.7 C 4.64 g/m*3 6.7 C 0 km/h
1427 07-03-2007 21:27:02 6.5 C 4.57 g/m*3 6.5 C 0 km/h
1428 07-03-2007 21:39:02 6.3 C 4.66 g/m*3 6.3 C 0 km/h
1429 07-03-2007 21:51:02 6.1 C 4.6 g/m*3 6.1 C 0 km/h
1430 07-03-2007 22:03:01 5.9 C 4.69 g/m*3 5.9 C 0 km/h
1431 07-03-2007 22:15:01 5.7 C 4.7 g/m*3 5.7 C 0 km/h
1432 07-03-2007 22:27:01 5.6 C 4.74 g/m*3 5.6 C 0 km/h
1433 07-03-2007 22:39:02 5.6 C 4.74 g/m*3 5.6 C 0 km/h
1434 07-03-2007 22:51:03 5.8 C 4.8 g/m*3 5.8 C 0 km/h
1435 07-03-2007 23:03:02 5.9 C 4.69 g/m*3 5.9 C 0 km/h
1436 07-03-2007 23:15:02 5.9 C 4.76 g/m*3 5.9 C 0 km/h
1437 07-03-2007 23:27:02 5.6 C 4.67 g/m*3 5.6 C 0 km/h
1438 07-03-2007 23:39:03 5 C 4.55 g/m*3 5 C 0 km/h
1439 07-03-2007 23:51:02 4.8 C 4.76 g/m*3 4.8 C 0 km/h
1440 08-03-2007 00:03:02 5.3 C 4.85 g/m*3 5.3 C 0 km/h
1441 08-03-2007 00:15:03 5.3 C 4.78 g/m*3 5.3 C 0 km/h
1442 08-03-2007 00:27:03 4.9 C 4.73 g/m*3 4.9 C 0 km/h
1443 08-03-2007 00:39:03 4.5 C 4.67 g/m*3 4.5 C 0 km/h
1444 08-03-2007 00:51:02 4.2 C 4.64 g/m*3 4.2 C 0 km/h
1445 08-03-2007 01:03:02 3.9 C 4.67 g/m*3 3.9 C 0 km/h
1446 08-03-2007 01:15:02 3.7 C 4.67 g/m*3 3.7 C 0 km/h
1447 08-03-2007 01:27:02 3.6 C 4.64 g/m*3 3.6 C 0 km/h
1448 08-03-2007 01:39:02 3.6 C 4.7 g/m*3 3.6 C 0 km/h
1449 08-03-2007 01:51:02 3.7 C 4.8 g/m*3 3.7 C 0 km/h
1450 08-03-2007 02:03:02 3.8 C 4.77 g/m*3 3.8 C 0 km/h
Sensor: Nr:Datum:Temp:Abs-Feuchte:Windchill:Wind:
Aussen-T/F 1451 08-03-2007 02:15:01 3.7 C 4.67 g/m*3 3.7 C 0 km/h
1452 08-03-2007 02:27:01 3.6 C 4.64 g/m*3 3.6 C 0 km/h
1453 08-03-2007 02:39:02 3.6 C 4.64 g/m*3 3.6 C 0 km/h
1454 08-03-2007 02:52:04 3.8 C 4.71 g/m*3 3.8 C 0 km/h
1455 08-03-2007 03:04:04 4.1 C 4.67 g/m*3 4.1 C 0 km/h
1456 08-03-2007 03:16:04 3.8 C 4.58 g/m*3 3.8 C 0 km/h
1457 08-03-2007 03:28:04 3.6 C 4.58 g/m*3 3.6 C 0 km/h
1458 08-03-2007 03:40:02 3.6 C 4.58 g/m*3 3.6 C 0 km/h
1459 08-03-2007 03:52:02 3.5 C 4.61 g/m*3 3.5 C 0 km/h
1460 08-03-2007 04:04:02 3.3 C 4.55 g/m*3 3.3 C 0 km/h
1461 08-03-2007 04:16:03 3 C 4.46 g/m*3 3 C 0 km/h
1462 08-03-2007 04:28:03 2.7 C 4.54 g/m*3 2.7 C 0 km/h
1463 08-03-2007 04:40:02 2.7 C 4.66 g/m*3 2.7 C 0 km/h
1464 08-03-2007 04:52:03 2.7 C 4.66 g/m*3 2.7 C 0 km/h
1465 08-03-2007 05:04:03 2.8 C 4.69 g/m*3 2.8 C 0 km/h
1466 08-03-2007 05:16:02 3 C 4.7 g/m*3 3 C 0 km/h
1467 08-03-2007 05:28:03 3 C 4.64 g/m*3 3 C 0 km/h
1468 08-03-2007 05:40:03 3 C 4.52 g/m*3 3 C 0 km/h
1469 08-03-2007 05:52:03 3 C 4.52 g/m*3 3 C 0 km/h
1470 08-03-2007 06:04:02 2.9 C 4.55 g/m*3 2.9 C 0 km/h
1471 08-03-2007 06:16:02 2.8 C 4.52 g/m*3 2.8 C 0 km/h
1472 08-03-2007 06:28:02 2.7 C 4.49 g/m*3 2.7 C 0 km/h
1473 08-03-2007 06:40:02 2.6 C 4.46 g/m*3 2.6 C 0 km/h
1474 08-03-2007 06:52:02 2.7 C 4.49 g/m*3 2.7 C 0 km/h
1475 08-03-2007 07:04:02 2.8 C 4.52 g/m*3 2.8 C 0 km/h
Sensor: Nr:Datum:Temp:Abs-Feuchte:Windchill:Wind:
Aussen-T/F 1476 08-03-2007 07:16:02 2.8 C 4.46 g/m*3 2.8 C 0 km/h
1477 08-03-2007 07:28:02 3 C 4.46 g/m*3 3 C 0 km/h
1478 08-03-2007 07:40:02 3.1 C 4.49 g/m*3 3.1 C 0 km/h
1479 08-03-2007 07:52:03 3.2 C 4.46 g/m*3 3.2 C 0 km/h
1480 08-03-2007 08:04:02 3.3 C 4.49 g/m*3 3.3 C 0 km/h
1481 08-03-2007 08:16:02 3.4 C 4.52 g/m*3 3.4 C 0 km/h
1482 08-03-2007 08:28:02 3.5 C 4.55 g/m*3 3.5 C 0 km/h
1483 08-03-2007 08:40:02 3.6 C 4.52 g/m*3 3.6 C 0 km/h
1484 08-03-2007 08:52:01 3.7 C 4.55 g/m*3 3.7 C 0 km/h
1485 08-03-2007 09:04:02 3.9 C 4.61 g/m*3 3.9 C 0 km/h
1486 08-03-2007 09:16:02 4.1 C 4.54 g/m*3 4.1 C 0 km/h
1487 08-03-2007 09:28:02 4.2 C 4.57 g/m*3 4.2 C 0 km/h
1488 08-03-2007 09:40:01 4.5 C 4.6 g/m*3 4.5 C 0 km/h
1489 08-03-2007 09:52:02 4.8 C 4.63 g/m*3 4.8 C 0 km/h
1490 08-03-2007 10:04:02 5.3 C 4.64 g/m*3 5.3 C 0 km/h
1491 08-03-2007 10:16:02 5.7 C 4.77 g/m*3 5.7 C 0 km/h
1492 08-03-2007 10:28:02 5.8 C 4.8 g/m*3 5.8 C 0 km/h
1493 08-03-2007 10:40:01 5.9 C 4.76 g/m*3 5.9 C 0 km/h
1494 08-03-2007 10:52:02 5.7 C 4.91 g/m*3 5.7 C 0 km/h
1495 08-03-2007 11:04:02 5.8 C 5.09 g/m*3 5.8 C 0 km/h
1496 08-03-2007 11:16:01 6.3 C 5.11 g/m*3 6.3 C 0 km/h
1497 08-03-2007 11:28:01 6.8 C 5.05 g/m*3 6.8 C 0 km/h
1498 08-03-2007 11:40:02 7.3 C 4.98 g/m*3 7.3 C 0 km/h
1499 08-03-2007 11:52:02 8.5 C 5.04 g/m*3 8.5 C 0 km/h
1500 08-03-2007 12:04:02 9 C 4.94 g/m*3 9 C 0 km/h
Sensor: Nr:Datum:Temp:Abs-Feuchte:Windchill:Wind:
Aussen-T/F 1501 08-03-2007 12:16:02 9.2 C 4.91 g/m*3 9.2 C 0 km/h
1502 08-03-2007 12:28:02 10.1 C 4.92 g/m*3 10.1 C 0 km/h
1503 08-03-2007 12:40:03 10 C 4.79 g/m*3 10 C 0 km/h
1504 08-03-2007 12:52:02 10.4 C 4.63 g/m*3 10.4 C 0 km/h
1505 08-03-2007 13:04:02 10.2 C 4.57 g/m*3 10.2 C 0 km/h
1506 08-03-2007 13:16:02 11.2 C 4.56 g/m*3 11.2 C 0 km/h
1507 08-03-2007 13:28:02 12.2 C 4.32 g/m*3 12.2 C 0 km/h
1508 08-03-2007 13:40:02 11.9 C 3.92 g/m*3 11.9 C 0 km/h
1509 08-03-2007 13:52:02 12.4 C 3.82 g/m*3 12.4 C 0 km/h
1510 08-03-2007 14:04:02 11.9 C 3.81 g/m*3 11.9 C 0 km/h
1511 08-03-2007 14:16:02 12 C 3.52 g/m*3 12 C 0 km/h
1512 08-03-2007 14:28:02 11.7 C 3.77 g/m*3 11.7 C 0 km/h
1513 08-03-2007 14:40:02 12 C 3.62 g/m*3 12 C 0 km/h
1514 08-03-2007 14:52:02 12.5 C 3.19 g/m*3 12.5 C 0 km/h
1515 08-03-2007 15:04:02 13.1 C 2.85 g/m*3 13.1 C 0 km/h
1516 08-03-2007 15:16:01 14.2 C 2.81 g/m*3 14.2 C 0 km/h
1517 08-03-2007 15:28:01 13.7 C 3.08 g/m*3 13.7 C 0 km/h
1518 08-03-2007 15:40:02 13 C 3.18 g/m*3 13 C 0 km/h
1519 08-03-2007 15:52:02 13 C 3.06 g/m*3 13 C 0 km/h
1520 08-03-2007 16:04:03 13.7 C 2.96 g/m*3 13.7 C 0 km/h
1521 08-03-2007 16:16:02 12.6 C 3.32 g/m*3 12.6 C 0 km/h
1522 08-03-2007 16:28:02 12.5 C 3.3 g/m*3 12.5 C 0 km/h
1523 08-03-2007 16:40:02 12.3 C 3.26 g/m*3 12.3 C 0 km/h
1524 08-03-2007 16:52:02 12.7 C 3.45 g/m*3 12.7 C 0 km/h
1525 08-03-2007 17:04:01 12.5 C 3.52 g/m*3 12.5 C 0 km/h
Sensor: Nr:Datum:Temp:Abs-Feuchte:Windchill:Wind:
Aussen-T/F 1526 08-03-2007 17:16:01 12.6 C 3.54 g/m*3 12.6 C 0 km/h
1527 08-03-2007 17:28:01 12.8 C 3.58 g/m*3 12.8 C 0 km/h
1528 08-03-2007 17:40:02 12.7 C 3.56 g/m*3 12.7 C 0 km/h
1529 08-03-2007 17:52:01 12.1 C 3.54 g/m*3 12.1 C 0 km/h
1530 08-03-2007 18:04:01 11.4 C 3.8 g/m*3 11.4 C 0 km/h
1531 08-03-2007 18:16:02 10.8 C 3.76 g/m*3 10.8 C 0 km/h
1532 08-03-2007 18:28:02 10.3 C 3.93 g/m*3 10.3 C 0 km/h
1533 08-03-2007 18:40:02 9.8 C 3.99 g/m*3 9.8 C 0 km/h
1534 08-03-2007 18:52:02 9.7 C 4.06 g/m*3 9.7 C 0 km/h
1535 08-03-2007 19:04:02 9.7 C 4.15 g/m*3 9.7 C 0 km/h
1536 08-03-2007 19:16:02 9.8 C 4.27 g/m*3 9.8 C 0 km/h
1537 08-03-2007 19:28:02 9.7 C 4.24 g/m*3 9.7 C 0 km/h
1538 08-03-2007 19:40:02 9.4 C 4.34 g/m*3 9.4 C 0 km/h
1539 08-03-2007 19:52:02 9.2 C 4.29 g/m*3 9.2 C 0 km/h
1540 08-03-2007 20:04:02 9.2 C 4.38 g/m*3 9.2 C 0 km/h
1541 08-03-2007 20:16:02 9.2 C 4.38 g/m*3 9.2 C 0 km/h
1542 08-03-2007 20:28:02 9 C 4.41 g/m*3 9 C 0 km/h
1543 08-03-2007 20:40:02 9 C 4.32 g/m*3 9 C 0 km/h
1544 08-03-2007 20:52:02 8.9 C 4.38 g/m*3 8.9 C 0 km/h
1545 08-03-2007 21:04:02 8.5 C 4.44 g/m*3 8.5 C 0 km/h
1546 08-03-2007 21:16:03 8.1 C 4.33 g/m*3 8.1 C 0 km/h
1547 08-03-2007 21:28:03 7.9 C 4.44 g/m*3 7.9 C 0 km/h
1548 08-03-2007 21:40:02 7.5 C 4.4 g/m*3 7.5 C 0 km/h
1549 08-03-2007 21:52:01 7.1 C 4.29 g/m*3 7.1 C 0 km/h
1550 08-03-2007 22:04:02 7 C 4.34 g/m*3 7 C 0 km/h
Sensor: Nr:Datum:Temp:Abs-Feuchte:Windchill:Wind:
Aussen-T/F 1551 08-03-2007 22:16:02 6.8 C 4.36 g/m*3 6.8 C 0 km/h
1552 08-03-2007 22:28:02 6.6 C 4.38 g/m*3 6.6 C 0 km/h
1553 08-03-2007 22:40:01 6.4 C 4.4 g/m*3 6.4 C 0 km/h
1554 08-03-2007 22:52:01 6.2 C 4.34 g/m*3 6.2 C 0 km/h
1555 08-03-2007 23:04:01 5.8 C 4.37 g/m*3 5.8 C 0 km/h
1556 08-03-2007 23:16:02 5.6 C 4.38 g/m*3 5.6 C 0 km/h
1557 08-03-2007 23:28:02 5.4 C 4.33 g/m*3 5.4 C 0 km/h
1558 08-03-2007 23:40:01 5.2 C 4.34 g/m*3 5.2 C 0 km/h
1559 08-03-2007 23:52:02 5.1 C 4.31 g/m*3 5.1 C 0 km/h
1560 09-03-2007 00:04:02 5 C 4.28 g/m*3 5 C 0 km/h
1561 09-03-2007 00:16:02 4.8 C 4.36 g/m*3 4.8 C 0 km/h
1562 09-03-2007 00:28:02 4.8 C 4.36 g/m*3 4.8 C 0 km/h
1563 09-03-2007 00:40:03 4.4 C 4.24 g/m*3 4.4 C 0 km/h
1564 09-03-2007 00:52:02 4.4 C 4.31 g/m*3 4.4 C 0 km/h
1565 09-03-2007 01:04:02 4.6 C 4.43 g/m*3 4.6 C 0 km/h
1566 09-03-2007 01:16:02 4.4 C 4.31 g/m*3 4.4 C 0 km/h
1567 09-03-2007 01:28:02 4.1 C 4.22 g/m*3 4.1 C 0 km/h
1568 09-03-2007 01:40:01 3.9 C 4.29 g/m*3 3.9 C 0 km/h
1569 09-03-2007 01:52:02 3.7 C 4.3 g/m*3 3.7 C 0 km/h
1570 09-03-2007 02:04:02 3.7 C 4.36 g/m*3 3.7 C 0 km/h
1571 09-03-2007 02:16:02 3.5 C 4.3 g/m*3 3.5 C 0 km/h
1572 09-03-2007 02:28:02 3.3 C 4.25 g/m*3 3.3 C 0 km/h
1573 09-03-2007 02:40:02 3.1 C 4.25 g/m*3 3.1 C 0 km/h
1574 09-03-2007 02:52:02 3 C 4.22 g/m*3 3 C 0 km/h
1575 09-03-2007 03:04:02 3.1 C 4.31 g/m*3 3.1 C 0 km/h
Sensor: Nr:Datum:Temp:Abs-Feuchte:Windchill:Wind:
Aussen-T/F 1576 09-03-2007 03:16:02 3 C 4.34 g/m*3 3 C 0 km/h
1577 09-03-2007 03:28:02 2.9 C 4.37 g/m*3 2.9 C 0 km/h
1578 09-03-2007 03:40:02 2.8 C 4.34 g/m*3 2.8 C 0 km/h
1579 09-03-2007 03:52:02 2.8 C 4.4 g/m*3 2.8 C 0 km/h
1580 09-03-2007 04:04:02 2.8 C 4.4 g/m*3 2.8 C 0 km/h
1581 09-03-2007 04:16:01 2.6 C 4.34 g/m*3 2.6 C 0 km/h
1582 09-03-2007 04:28:01 2.7 C 4.43 g/m*3 2.7 C 0 km/h
1583 09-03-2007 04:40:01 2.6 C 4.34 g/m*3 2.6 C 0 km/h
1584 09-03-2007 04:52:02 2.6 C 4.4 g/m*3 2.6 C 0 km/h
1585 09-03-2007 05:04:02 2.6 C 4.4 g/m*3 2.6 C 0 km/h
1586 09-03-2007 05:16:01 2.5 C 4.37 g/m*3 2.5 C 0 km/h
1587 09-03-2007 05:28:02 2.5 C 4.37 g/m*3 2.5 C 0 km/h
1588 09-03-2007 05:40:01 2.5 C 4.37 g/m*3 2.5 C 0 km/h
1589 09-03-2007 05:52:01 2.3 C 4.31 g/m*3 2.3 C 0 km/h
1590 09-03-2007 06:04:01 2.2 C 4.28 g/m*3 2.2 C 0 km/h
1591 09-03-2007 06:16:02 2.1 C 4.2 g/m*3 2.1 C 0 km/h
1592 09-03-2007 06:28:02 2.3 C 4.31 g/m*3 2.3 C 0 km/h
1593 09-03-2007 06:40:01 2.3 C 4.31 g/m*3 2.3 C 0 km/h
1594 09-03-2007 06:52:02 2.3 C 4.31 g/m*3 2.3 C 0 km/h
1595 09-03-2007 07:04:01 2.4 C 4.34 g/m*3 2.4 C 0 km/h
1596 09-03-2007 07:16:01 2.4 C 4.34 g/m*3 2.4 C 0 km/h
1597 09-03-2007 07:28:02 2.4 C 4.34 g/m*3 2.4 C 0 km/h
1598 09-03-2007 07:40:01 2.6 C 4.4 g/m*3 2.6 C 0 km/h
1599 09-03-2007 07:52:02 2.6 C 4.4 g/m*3 2.6 C 0 km/h
1600 09-03-2007 08:04:02 3 C 4.4 g/m*3 3 C 0 km/h
Sensor: Nr:Datum:Temp:Abs-Feuchte:Windchill:Wind:
Aussen-T/F 1601 09-03-2007 08:16:01 3.4 C 4.52 g/m*3 3.4 C 0 km/h
1602 09-03-2007 08:28:01 3.9 C 4.48 g/m*3 3.9 C 0 km/h
1603 09-03-2007 08:40:02 4.1 C 4.35 g/m*3 4.1 C 0 km/h
1604 09-03-2007 08:52:01 4.2 C 4.32 g/m*3 4.2 C 0 km/h
1605 09-03-2007 09:04:02 4 C 4.26 g/m*3 4 C 0 km/h
1606 09-03-2007 09:16:02 4.2 C 4.38 g/m*3 4.2 C 0 km/h
1607 09-03-2007 09:28:02 4.9 C 4.46 g/m*3 4.9 C 0 km/h
1608 09-03-2007 09:40:01 5.5 C 4.42 g/m*3 5.5 C 0 km/h
1609 09-03-2007 09:52:02 6 C 4.43 g/m*3 6 C 0 km/h
1610 09-03-2007 10:04:01 6.1 C 4.38 g/m*3 6.1 C 0 km/h
1611 09-03-2007 10:16:01 6.3 C 4.44 g/m*3 6.3 C 0 km/h
1612 09-03-2007 10:28:01 6.8 C 4.51 g/m*3 6.8 C 0 km/h
1613 09-03-2007 10:40:02 7.9 C 4.52 g/m*3 7.9 C 0 km/h
1614 09-03-2007 10:52:01 8.3 C 4.38 g/m*3 8.3 C 0 km/h
1615 09-03-2007 11:04:02 8.8 C 4.44 g/m*3 8.8 C 0 km/h
1616 09-03-2007 11:16:01 9.3 C 4.4 g/m*3 9.3 C 0 km/h
1617 09-03-2007 11:28:01 10 C 4.32 g/m*3 10 C 0 km/h
1618 09-03-2007 11:40:01 10.2 C 4.28 g/m*3 10.2 C 0 km/h
1619 09-03-2007 11:52:01 10.6 C 4.29 g/m*3 10.6 C 0 km/h
1620 09-03-2007 12:04:01 10.7 C 4.22 g/m*3 10.7 C 0 km/h
1621 09-03-2007 12:16:02 11.1 C 4.13 g/m*3 11.1 C 0 km/h
1622 09-03-2007 12:28:02 11.3 C 4.18 g/m*3 11.3 C 0 km/h
1623 09-03-2007 12:40:01 11.2 C 4.16 g/m*3 11.2 C 0 km/h
1624 09-03-2007 12:52:02 11.6 C 4.16 g/m*3 11.6 C 0 km/h
1625 09-03-2007 13:04:01 11.7 C 4.18 g/m*3 11.7 C 0 km/h
Sensor: Nr:Datum:Temp:Abs-Feuchte:Windchill:Wind:
Aussen-T/F 1626 09-03-2007 13:16:01 12.2 C 4.1 g/m*3 12.2 C 0 km/h
1627 09-03-2007 13:28:01 12 C 4.05 g/m*3 12 C 0 km/h
1628 09-03-2007 13:40:02 11.8 C 4.1 g/m*3 11.8 C 0 km/h
1629 09-03-2007 13:52:01 11.8 C 4.21 g/m*3 11.8 C 0 km/h
1630 09-03-2007 14:04:02 12 C 4.05 g/m*3 12 C 0 km/h
1631 09-03-2007 14:16:01 12.1 C 3.97 g/m*3 12.1 C 0 km/h
1632 09-03-2007 14:28:02 12.3 C 4.02 g/m*3 12.3 C 0 km/h
1633 09-03-2007 14:40:01 12.1 C 3.97 g/m*3 12.1 C 0 km/h
1634 09-03-2007 14:52:01 12 C 4.05 g/m*3 12 C 0 km/h
1635 09-03-2007 15:04:01 11.5 C 4.23 g/m*3 11.5 C 0 km/h
1636 09-03-2007 15:16:02 11.1 C 4.43 g/m*3 11.1 C 0 km/h
1637 09-03-2007 15:28:02 10.4 C 4.82 g/m*3 10.4 C 0 km/h
1638 09-03-2007 15:40:02 10.4 C 4.63 g/m*3 10.4 C 0 km/h
1639 09-03-2007 15:52:01 10.3 C 4.69 g/m*3 10.3 C 0 km/h
1640 09-03-2007 16:04:02 10.4 C 4.63 g/m*3 10.4 C 0 km/h
1641 09-03-2007 16:16:03 10.3 C 4.6 g/m*3 10.3 C 0 km/h
1642 09-03-2007 16:28:03 9.5 C 4.92 g/m*3 9.5 C 0 km/h
1643 09-03-2007 16:40:01 8.7 C 5.45 g/m*3 8.7 C 0 km/h
1644 09-03-2007 16:52:02 8.5 C 5.98 g/m*3 8.5 C 0 km/h
1645 09-03-2007 17:04:01 8.3 C 6.15 g/m*3 8.3 C 0 km/h
1646 09-03-2007 17:16:01 8.3 C 6.32 g/m*3 8.3 C 0 km/h
1647 09-03-2007 17:28:01 7.8 C 6.12 g/m*3 7.8 C 0 km/h
1648 09-03-2007 17:40:02 7.5 C 6.08 g/m*3 7.5 C 0 km/h
1649 09-03-2007 17:52:01 7.3 C 6.08 g/m*3 7.3 C 0 km/h
1650 09-03-2007 18:04:01 7.3 C 6.16 g/m*3 7.3 C 0 km/h
Sensor: Nr:Datum:Temp:Abs-Feuchte:Windchill:Wind:
Aussen-T/F 1651 09-03-2007 18:16:02 7.3 C 6.24 g/m*3 7.3 C 0 km/h
1652 09-03-2007 18:28:02 7.3 C 6.4 g/m*3 7.3 C 0 km/h
1653 09-03-2007 18:40:01 7.3 C 6.48 g/m*3 7.3 C 0 km/h
1654 09-03-2007 18:52:02 7.3 C 6.56 g/m*3 7.3 C 0 km/h
1655 09-03-2007 19:04:01 7.1 C 6.47 g/m*3 7.1 C 0 km/h
1656 09-03-2007 19:16:01 7.1 C 6.55 g/m*3 7.1 C 0 km/h
1657 09-03-2007 19:28:01 7 C 6.59 g/m*3 7 C 0 km/h
1658 09-03-2007 19:40:02 6.7 C 6.46 g/m*3 6.7 C 0 km/h
1659 09-03-2007 19:52:01 6.2 C 5.96 g/m*3 6.2 C 0 km/h
1660 09-03-2007 20:04:02 6 C 5.73 g/m*3 6 C 0 km/h
1661 09-03-2007 20:16:02 5.9 C 5.77 g/m*3 5.9 C 0 km/h
1662 09-03-2007 20:28:02 5.8 C 5.66 g/m*3 5.8 C 0 km/h
1663 09-03-2007 20:40:01 5.7 C 5.55 g/m*3 5.7 C 0 km/h
1664 09-03-2007 20:52:02 6 C 5.52 g/m*3 6 C 0 km/h
1665 09-03-2007 21:04:01 6.1 C 5.33 g/m*3 6.1 C 0 km/h
1666 09-03-2007 21:16:02 6 C 5.37 g/m*3 6 C 0 km/h
1667 09-03-2007 21:28:02 5.9 C 5.48 g/m*3 5.9 C 0 km/h
1668 09-03-2007 21:40:02 5.8 C 5.52 g/m*3 5.8 C 0 km/h
1669 09-03-2007 21:52:02 5.8 C 5.44 g/m*3 5.8 C 0 km/h
1670 09-03-2007 22:04:01 5.9 C 5.48 g/m*3 5.9 C 0 km/h
1671 09-03-2007 22:16:01 6 C 5.3 g/m*3 6 C 0 km/h
1672 09-03-2007 22:28:01 6.2 C 5.07 g/m*3 6.2 C 0 km/h
1673 09-03-2007 22:40:02 6.2 C 4.85 g/m*3 6.2 C 0 km/h
1674 09-03-2007 22:52:01 6.1 C 4.82 g/m*3 6.1 C 0 km/h
1675 09-03-2007 23:04:02 6 C 4.72 g/m*3 6 C 0 km/h
Sensor: Nr:Datum:Temp:Abs-Feuchte:Windchill:Wind:
Aussen-T/F 1676 09-03-2007 23:16:02 6 C 4.72 g/m*3 6 C 0 km/h
1677 09-03-2007 23:28:02 6.1 C 4.6 g/m*3 6.1 C 0 km/h
1678 09-03-2007 23:40:01 5.9 C 4.76 g/m*3 5.9 C 0 km/h
1679 09-03-2007 23:52:01 5.8 C 4.8 g/m*3 5.8 C 0 km/h
1680 10-03-2007 00:04:01 5.8 C 4.8 g/m*3 5.8 C 0 km/h
1681 10-03-2007 00:16:02 5.7 C 4.84 g/m*3 5.7 C 0 km/h
1682 10-03-2007 00:28:02 5.9 C 4.83 g/m*3 5.9 C 0 km/h
1683 10-03-2007 00:41:01 5.8 C 4.94 g/m*3 5.8 C 0 km/h
1684 10-03-2007 00:52:01 5.9 C 4.9 g/m*3 5.9 C 0 km/h
1685 10-03-2007 01:04:02 5.6 C 4.81 g/m*3 5.6 C 0 km/h
1686 10-03-2007 01:16:02 5.2 C 4.75 g/m*3 5.2 C 0 km/h
1687 10-03-2007 01:28:02 5.1 C 4.79 g/m*3 5.1 C 0 km/h
1688 10-03-2007 01:41:01 4.8 C 4.83 g/m*3 4.8 C 0 km/h
1689 10-03-2007 01:52:02 4.9 C 4.86 g/m*3 4.9 C 0 km/h
1690 10-03-2007 02:04:02 4.4 C 4.77 g/m*3 4.4 C 0 km/h
1691 10-03-2007 02:17:01 4.1 C 4.67 g/m*3 4.1 C 0 km/h
1692 10-03-2007 02:29:01 4 C 4.7 g/m*3 4 C 0 km/h
1693 10-03-2007 02:41:01 3.7 C 4.67 g/m*3 3.7 C 0 km/h
1694 10-03-2007 02:52:02 3.5 C 4.61 g/m*3 3.5 C 0 km/h
1695 10-03-2007 03:04:02 3.4 C 4.64 g/m*3 3.4 C 0 km/h
1696 10-03-2007 03:17:02 3.3 C 4.67 g/m*3 3.3 C 0 km/h
1697 10-03-2007 03:29:02 3.4 C 4.76 g/m*3 3.4 C 0 km/h
1698 10-03-2007 03:41:02 3.4 C 4.76 g/m*3 3.4 C 0 km/h
1699 10-03-2007 03:53:02 3.4 C 4.83 g/m*3 3.4 C 0 km/h
1700 10-03-2007 04:04:02 3.5 C 4.86 g/m*3 3.5 C 0 km/h
Sensor: Nr:Datum:Temp:Abs-Feuchte:Windchill:Wind:
Aussen-T/F 1701 10-03-2007 04:17:01 3.2 C 4.7 g/m*3 3.2 C 0 km/h
1702 10-03-2007 04:29:02 3 C 4.64 g/m*3 3 C 0 km/h
1703 10-03-2007 04:41:02 2.8 C 4.69 g/m*3 2.8 C 0 km/h
1704 10-03-2007 04:53:02 2.6 C 4.63 g/m*3 2.6 C 0 km/h
1705 10-03-2007 05:05:02 2.4 C 4.62 g/m*3 2.4 C 0 km/h
1706 10-03-2007 05:17:01 2.4 C 4.62 g/m*3 2.4 C 0 km/h
1707 10-03-2007 05:29:01 2.6 C 4.69 g/m*3 2.6 C 0 km/h
1708 10-03-2007 05:41:01 2.4 C 4.51 g/m*3 2.4 C 0 km/h
1709 10-03-2007 05:53:01 2.2 C 4.45 g/m*3 2.2 C 0 km/h
1710 10-03-2007 06:05:02 2.1 C 4.42 g/m*3 2.1 C 0 km/h
1711 10-03-2007 06:17:01 2.1 C 4.48 g/m*3 2.1 C 0 km/h
1712 10-03-2007 06:29:01 2.4 C 4.57 g/m*3 2.4 C 0 km/h
1713 10-03-2007 06:41:01 2.3 C 4.54 g/m*3 2.3 C 0 km/h
1714 10-03-2007 06:53:01 2.2 C 4.45 g/m*3 2.2 C 0 km/h
1715 10-03-2007 07:05:01 2.3 C 4.54 g/m*3 2.3 C 0 km/h
1716 10-03-2007 07:17:02 2.7 C 4.66 g/m*3 2.7 C 0 km/h
1717 10-03-2007 07:29:02 2.7 C 4.6 g/m*3 2.7 C 0 km/h
1718 10-03-2007 07:41:01 2.8 C 4.63 g/m*3 2.8 C 0 km/h
1719 10-03-2007 07:53:02 3 C 4.64 g/m*3 3 C 0 km/h
1720 10-03-2007 08:05:01 3.2 C 4.7 g/m*3 3.2 C 0 km/h
1721 10-03-2007 08:17:01 3.4 C 4.7 g/m*3 3.4 C 0 km/h
1722 10-03-2007 08:29:01 3.7 C 4.74 g/m*3 3.7 C 0 km/h
1723 10-03-2007 08:41:02 3.9 C 4.74 g/m*3 3.9 C 0 km/h
1724 10-03-2007 08:53:01 3.8 C 4.64 g/m*3 3.8 C 0 km/h
1725 10-03-2007 09:05:02 3.5 C 4.61 g/m*3 3.5 C 0 km/h
Sensor: Nr:Datum:Temp:Abs-Feuchte:Windchill:Wind:
Aussen-T/F 1726 10-03-2007 09:17:01 3.4 C 4.64 g/m*3 3.4 C 0 km/h
1727 10-03-2007 09:29:01 3.9 C 4.93 g/m*3 3.9 C 0 km/h
1728 10-03-2007 09:41:01 4.5 C 5.13 g/m*3 4.5 C 0 km/h
1729 10-03-2007 09:53:01 5.6 C 5.23 g/m*3 5.6 C 0 km/h
1730 10-03-2007 10:05:01 6 C 4.79 g/m*3 6 C 0 km/h
1731 10-03-2007 10:17:02 6.5 C 4.57 g/m*3 6.5 C 0 km/h
1732 10-03-2007 10:29:02 6.9 C 4.54 g/m*3 6.9 C 0 km/h
1733 10-03-2007 10:41:01 7.2 C 4.55 g/m*3 7.2 C 0 km/h
1734 10-03-2007 10:53:02 7.4 C 4.53 g/m*3 7.4 C 0 km/h
1735 10-03-2007 11:05:01 7.5 C 4.32 g/m*3 7.5 C 0 km/h
1736 10-03-2007 11:17:01 7.9 C 4.35 g/m*3 7.9 C 0 km/h
1737 10-03-2007 11:29:01 8.2 C 4.27 g/m*3 8.2 C 0 km/h
1738 10-03-2007 11:41:02 8.6 C 4.38 g/m*3 8.6 C 0 km/h
1739 10-03-2007 11:53:01 8.7 C 4.15 g/m*3 8.7 C 0 km/h
1740 10-03-2007 12:05:02 9 C 4.06 g/m*3 9 C 0 km/h
1741 10-03-2007 12:17:01 9.2 C 3.84 g/m*3 9.2 C 0 km/h
1742 10-03-2007 12:29:01 9.6 C 3.48 g/m*3 9.6 C 0 km/h
1743 10-03-2007 12:41:01 10.1 C 3.4 g/m*3 10.1 C 0 km/h
1744 10-03-2007 12:53:01 10.5 C 3.3 g/m*3 10.5 C 0 km/h
1745 10-03-2007 13:05:01 10.9 C 3.38 g/m*3 10.9 C 0 km/h
1746 10-03-2007 13:17:02 11.5 C 3.2 g/m*3 11.5 C 0 km/h
1747 10-03-2007 13:29:02 11 C 3.1 g/m*3 11 C 0 km/h
1748 10-03-2007 13:41:01 11 C 3.1 g/m*3 11 C 0 km/h
1749 10-03-2007 13:53:02 11.1 C 3.12 g/m*3 11.1 C 0 km/h
1750 10-03-2007 14:05:01 12.4 C 2.62 g/m*3 12.4 C 0 km/h
Sensor: Nr:Datum:Temp:Abs-Feuchte:Windchill:Wind:
Aussen-T/F 1751 10-03-2007 14:17:01 12.1 C 2.79 g/m*3 12.1 C 0 km/h
1752 10-03-2007 14:29:01 12 C 2.77 g/m*3 12 C 0 km/h
1753 10-03-2007 14:41:02 13 C 2.84 g/m*3 13 C 0 km/h
1754 10-03-2007 14:53:02 13.9 C 2.4 g/m*3 13.9 C 0 km/h
1755 10-03-2007 15:05:01 13.4 C 2.32 g/m*3 13.4 C 0 km/h
1756 10-03-2007 15:17:02 13.5 C 2.46 g/m*3 13.5 C 0 km/h
1757 10-03-2007 15:29:02 13.8 C 2.5 g/m*3 13.8 C 0 km/h
1758 10-03-2007 15:41:02 14.5 C 2.49 g/m*3 14.5 C 0 km/h
1759 10-03-2007 15:53:02 14.5 C 2.49 g/m*3 14.5 C 0 km/h
1760 10-03-2007 16:05:01 14.7 C 2.52 g/m*3 14.7 C 0 km/h
1761 10-03-2007 16:17:01 15.2 C 2.73 g/m*3 15.2 C 0 km/h
1762 10-03-2007 16:29:01 15.6 C 2.66 g/m*3 15.6 C 0 km/h
1763 10-03-2007 16:41:02 15.7 C 2.68 g/m*3 15.7 C 0 km/h
1764 10-03-2007 16:53:01 15.1 C 2.58 g/m*3 15.1 C 0 km/h
1765 10-03-2007 17:05:02 14.7 C 2.52 g/m*3 14.7 C 0 km/h
1766 10-03-2007 17:17:01 15.1 C 2.71 g/m*3 15.1 C 0 km/h
1767 10-03-2007 17:29:01 14.7 C 3.53 g/m*3 14.7 C 0 km/h
1768 10-03-2007 17:41:01 13.8 C 3.69 g/m*3 13.8 C 0 km/h
1769 10-03-2007 17:53:01 12.5 C 3.74 g/m*3 12.5 C 0 km/h
1770 10-03-2007 18:05:01 11.9 C 3.6 g/m*3 11.9 C 0 km/h
1771 10-03-2007 18:17:02 10.9 C 3.58 g/m*3 10.9 C 0 km/h
1772 10-03-2007 18:29:02 10 C 3.66 g/m*3 10 C 0 km/h
1773 10-03-2007 18:41:01 9.5 C 3.73 g/m*3 9.5 C 0 km/h
1774 10-03-2007 18:53:01 9.2 C 3.84 g/m*3 9.2 C 0 km/h
1775 10-03-2007 19:05:02 8.8 C 3.83 g/m*3 8.8 C 0 km/h
Sensor: Nr:Datum:Temp:Abs-Feuchte:Windchill:Wind:
Aussen-T/F 1776 10-03-2007 19:17:01 8.6 C 3.87 g/m*3 8.6 C 0 km/h
1777 10-03-2007 19:29:01 8.4 C 3.99 g/m*3 8.4 C 0 km/h
1778 10-03-2007 19:41:01 8.2 C 4.02 g/m*3 8.2 C 0 km/h
1779 10-03-2007 19:53:01 8.2 C 4.19 g/m*3 8.2 C 0 km/h
1780 10-03-2007 20:05:01 8.1 C 4.08 g/m*3 8.1 C 0 km/h
1781 10-03-2007 20:17:02 8 C 4.13 g/m*3 8 C 0 km/h
1782 10-03-2007 20:29:02 8 C 3.89 g/m*3 8 C 0 km/h
1783 10-03-2007 20:41:01 7.9 C 3.94 g/m*3 7.9 C 0 km/h
1784 10-03-2007 20:53:02 7.5 C 4.08 g/m*3 7.5 C 0 km/h
1785 10-03-2007 21:05:01 7.1 C 4.06 g/m*3 7.1 C 0 km/h
1786 10-03-2007 21:17:01 6.8 C 4.13 g/m*3 6.8 C 0 km/h
1787 10-03-2007 21:29:01 6.4 C 4.02 g/m*3 6.4 C 0 km/h
1788 10-03-2007 21:41:02 6.1 C 4.02 g/m*3 6.1 C 0 km/h
1789 10-03-2007 21:53:01 5.8 C 4.08 g/m*3 5.8 C 0 km/h
1790 10-03-2007 22:05:02 5.8 C 4.08 g/m*3 5.8 C 0 km/h
1791 10-03-2007 22:17:01 5.6 C 4.03 g/m*3 5.6 C 0 km/h
1792 10-03-2007 22:29:01 5.5 C 4 g/m*3 5.5 C 0 km/h
1793 10-03-2007 22:41:02 5.3 C 4.02 g/m*3 5.3 C 0 km/h
1794 10-03-2007 22:53:01 5.2 C 4.06 g/m*3 5.2 C 0 km/h
1795 10-03-2007 23:05:01 5.2 C 4.06 g/m*3 5.2 C 0 km/h
1796 10-03-2007 23:17:02 5.1 C 4.04 g/m*3 5.1 C 0 km/h
1797 10-03-2007 23:29:02 5 C 4.01 g/m*3 5 C 0 km/h
1798 10-03-2007 23:41:01 4.8 C 4.09 g/m*3 4.8 C 0 km/h
1799 10-03-2007 23:53:02 4.8 C 4.09 g/m*3 4.8 C 0 km/h
1800 11-03-2007 00:05:01 4.5 C 4.08 g/m*3 4.5 C 0 km/h
Sensor: Nr:Datum:Temp:Abs-Feuchte:Windchill:Wind:
Aussen-T/F 1801 11-03-2007 00:17:02 4.2 C 3.99 g/m*3 4.2 C 0 km/h
1802 11-03-2007 00:29:02 3.9 C 4.04 g/m*3 3.9 C 0 km/h
1803 11-03-2007 00:41:02 3.7 C 4.11 g/m*3 3.7 C 0 km/h
1804 11-03-2007 00:53:01 3.6 C 4.09 g/m*3 3.6 C 0 km/h
1805 11-03-2007 01:05:01 3.5 C 4.06 g/m*3 3.5 C 0 km/h
1806 11-03-2007 01:17:01 3.4 C 4.09 g/m*3 3.4 C 0 km/h
1807 11-03-2007 01:29:01 3.2 C 4.04 g/m*3 3.2 C 0 km/h
1808 11-03-2007 01:41:01 3.1 C 4.07 g/m*3 3.1 C 0 km/h
1809 11-03-2007 01:53:02 3 C 4.04 g/m*3 3 C 0 km/h
1810 11-03-2007 02:05:02 2.8 C 4.05 g/m*3 2.8 C 0 km/h
1811 11-03-2007 02:17:02 2.7 C 4.08 g/m*3 2.7 C 0 km/h
1812 11-03-2007 02:29:02 2.6 C 4.11 g/m*3 2.6 C 0 km/h
1813 11-03-2007 02:41:02 2.5 C 4.14 g/m*3 2.5 C 0 km/h
1814 11-03-2007 02:53:01 2.4 C 4.11 g/m*3 2.4 C 0 km/h
1815 11-03-2007 03:05:01 2.2 C 4.06 g/m*3 2.2 C 0 km/h
1816 11-03-2007 03:17:02 2 C 4 g/m*3 2 C 0 km/h
1817 11-03-2007 03:29:02 2 C 4.06 g/m*3 2 C 0 km/h
1818 11-03-2007 03:41:02 2 C 4.11 g/m*3 2 C 0 km/h
1819 11-03-2007 03:53:02 1.8 C 4.06 g/m*3 1.8 C 0 km/h
1820 11-03-2007 04:05:02 1.6 C 4 g/m*3 1.6 C 0 km/h
1821 11-03-2007 04:17:02 1.5 C 3.97 g/m*3 1.5 C 0 km/h
1822 11-03-2007 04:29:02 1.4 C 4 g/m*3 1.4 C 0 km/h
1823 11-03-2007 04:41:02 1.3 C 3.97 g/m*3 1.3 C 0 km/h
1824 11-03-2007 04:53:02 1.3 C 3.97 g/m*3 1.3 C 0 km/h
1825 11-03-2007 05:05:02 1.2 C 4 g/m*3 1.2 C 0 km/h
Sensor: Nr:Datum:Temp:Abs-Feuchte:Windchill:Wind:
Aussen-T/F 1826 11-03-2007 05:17:02 1.1 C 4.02 g/m*3 1.1 C 0 km/h
1827 11-03-2007 05:29:02 1 C 4 g/m*3 1 C 0 km/h
1828 11-03-2007 05:41:02 0.9 C 4.02 g/m*3 0.9 C 0 km/h
1829 11-03-2007 05:53:01 0.8 C 3.99 g/m*3 0.8 C 0 km/h
1830 11-03-2007 06:05:02 0.7 C 3.97 g/m*3 0.7 C 0 km/h
1831 11-03-2007 06:17:02 0.6 C 3.94 g/m*3 0.6 C 0 km/h
1832 11-03-2007 06:29:02 0.6 C 3.99 g/m*3 0.6 C 0 km/h
1833 11-03-2007 06:41:01 0.6 C 3.99 g/m*3 0.6 C 0 km/h
1834 11-03-2007 06:53:02 0.5 C 4.01 g/m*3 0.5 C 0 km/h
1835 11-03-2007 07:05:01 0.3 C 3.91 g/m*3 0.3 C 0 km/h
1836 11-03-2007 07:17:01 0.3 C 3.96 g/m*3 0.3 C 0 km/h
1837 11-03-2007 07:29:01 0.3 C 3.96 g/m*3 0.3 C 0 km/h
1838 11-03-2007 07:41:02 0.5 C 4.01 g/m*3 0.5 C 0 km/h
1839 11-03-2007 07:53:01 0.6 C 4.09 g/m*3 0.6 C 0 km/h
1840 11-03-2007 08:05:02 0.6 C 4.09 g/m*3 0.6 C 0 km/h
1841 11-03-2007 08:17:01 0.6 C 4.09 g/m*3 0.6 C 0 km/h
1842 11-03-2007 08:29:01 0.7 C 4.12 g/m*3 0.7 C 0 km/h
1843 11-03-2007 08:41:01 0.9 C 4.18 g/m*3 0.9 C 0 km/h
1844 11-03-2007 08:53:01 1 C 4.2 g/m*3 1 C 0 km/h
1845 11-03-2007 09:05:01 1.1 C 4.23 g/m*3 1.1 C 0 km/h
1846 11-03-2007 09:17:02 1.3 C 4.29 g/m*3 1.3 C 0 km/h
1847 11-03-2007 09:29:02 1.7 C 4.41 g/m*3 1.7 C 0 km/h
1848 11-03-2007 09:41:01 2.2 C 4.56 g/m*3 2.2 C 0 km/h
1849 11-03-2007 09:53:02 2.7 C 4.78 g/m*3 2.7 C 0 km/h
1850 11-03-2007 10:05:01 3.3 C 4.91 g/m*3 3.3 C 0 km/h
Sensor: Nr:Datum:Temp:Abs-Feuchte:Windchill:Wind:
Aussen-T/F 1851 11-03-2007 10:17:01 3.9 C 5.05 g/m*3 3.9 C 0 km/h
1852 11-03-2007 10:29:01 4.4 C 5.16 g/m*3 4.4 C 0 km/h
1853 11-03-2007 10:41:02 5.2 C 5.1 g/m*3 5.2 C 0 km/h
1854 11-03-2007 10:53:01 6 C 4.94 g/m*3 6 C 0 km/h
1855 11-03-2007 11:05:01 6.7 C 4.64 g/m*3 6.7 C 0 km/h
1856 11-03-2007 11:17:02 7.2 C 4.47 g/m*3 7.2 C 0 km/h
1857 11-03-2007 11:29:02 8.2 C 4.35 g/m*3 8.2 C 0 km/h
1858 11-03-2007 11:41:02 8.4 C 4.33 g/m*3 8.4 C 0 km/h
1859 11-03-2007 11:53:02 8.8 C 4.35 g/m*3 8.8 C 0 km/h
1860 11-03-2007 12:05:02 9.6 C 4.21 g/m*3 9.6 C 0 km/h
1861 11-03-2007 12:17:01 10 C 4.04 g/m*3 10 C 0 km/h
1862 11-03-2007 12:29:01 10.6 C 4.2 g/m*3 10.6 C 0 km/h
1863 11-03-2007 12:41:01 11.4 C 4.11 g/m*3 11.4 C 0 km/h
1864 11-03-2007 12:53:01 12.1 C 3.86 g/m*3 12.1 C 0 km/h
1865 11-03-2007 13:05:01 12.6 C 3.65 g/m*3 12.6 C 0 km/h
1866 11-03-2007 13:17:02 12.8 C 3.58 g/m*3 12.8 C 0 km/h
1867 11-03-2007 13:29:02 13.5 C 3.51 g/m*3 13.5 C 0 km/h
1868 11-03-2007 13:41:02 13.8 C 3.46 g/m*3 13.8 C 0 km/h
1869 11-03-2007 13:53:01 14.3 C 3.32 g/m*3 14.3 C 0 km/h
1870 11-03-2007 14:05:02 14.9 C 3.44 g/m*3 14.9 C 0 km/h
1871 11-03-2007 14:17:01 15 C 3.33 g/m*3 15 C 0 km/h
1872 11-03-2007 14:29:01 15.6 C 3.32 g/m*3 15.6 C 0 km/h
1873 11-03-2007 14:41:02 15.4 C 3.28 g/m*3 15.4 C 0 km/h
1874 11-03-2007 14:53:01 16.5 C 3.51 g/m*3 16.5 C 0 km/h
1875 11-03-2007 15:05:02 17.1 C 3.35 g/m*3 17.1 C 0 km/h
Sensor: Nr:Datum:Temp:Abs-Feuchte:Windchill:Wind:
Aussen-T/F 1876 11-03-2007 15:17:02 17.4 C 3.11 g/m*3 17.4 C 0 km/h
1877 11-03-2007 15:29:02 16.7 C 2.98 g/m*3 16.7 C 0 km/h
1878 11-03-2007 15:41:01 18.1 C 3.24 g/m*3 18.1 C 0 km/h
1879 11-03-2007 15:53:02 18.1 C 3.09 g/m*3 18.1 C 0 km/h
1880 11-03-2007 16:05:01 18.5 C 3.16 g/m*3 18.5 C 0 km/h
1881 11-03-2007 16:17:01 18.5 C 3.32 g/m*3 18.5 C 0 km/h
1882 11-03-2007 16:29:01 18.1 C 3.24 g/m*3 18.1 C 0 km/h
1883 11-03-2007 16:41:02 18.5 C 3.8 g/m*3 18.5 C 0 km/h
1884 11-03-2007 16:53:02 18.8 C 3.87 g/m*3 18.8 C 0 km/h
1885 11-03-2007 17:05:02 18.3 C 3.75 g/m*3 18.3 C 0 km/h
1886 11-03-2007 17:17:02 18.2 C 4.2 g/m*3 18.2 C 0 km/h
1887 11-03-2007 17:29:02 17.9 C 4.12 g/m*3 17.9 C 0 km/h
1888 11-03-2007 17:41:01 17.2 C 4.25 g/m*3 17.2 C 0 km/h
1889 11-03-2007 17:53:01 16.1 C 4.11 g/m*3 16.1 C 0 km/h
1890 11-03-2007 18:05:01 14.4 C 4.08 g/m*3 14.4 C 0 km/h
1891 11-03-2007 18:17:02 13.4 C 3.95 g/m*3 13.4 C 0 km/h
1892 11-03-2007 18:29:02 12.4 C 3.93 g/m*3 12.4 C 0 km/h
1893 11-03-2007 18:41:01 11.7 C 3.97 g/m*3 11.7 C 0 km/h
1894 11-03-2007 18:53:02 11.2 C 4.05 g/m*3 11.2 C 0 km/h
1895 11-03-2007 19:05:01 10.8 C 4.05 g/m*3 10.8 C 0 km/h
1896 11-03-2007 19:17:01 10.7 C 4.03 g/m*3 10.7 C 0 km/h
1897 11-03-2007 19:29:01 10.6 C 4 g/m*3 10.6 C 0 km/h
1898 11-03-2007 19:41:02 10.5 C 3.98 g/m*3 10.5 C 0 km/h
1899 11-03-2007 19:53:01 10.4 C 3.95 g/m*3 10.4 C 0 km/h
1900 11-03-2007 20:05:01 10 C 4.23 g/m*3 10 C 0 km/h
Sensor: Nr:Datum:Temp:Abs-Feuchte:Windchill:Wind:
Aussen-T/F 1901 11-03-2007 20:17:02 9.5 C 4.28 g/m*3 9.5 C 0 km/h
1902 11-03-2007 20:29:02 9 C 4.32 g/m*3 9 C 0 km/h
1903 11-03-2007 20:41:01 8.8 C 4.44 g/m*3 8.8 C 0 km/h
1904 11-03-2007 20:53:02 8.5 C 4.44 g/m*3 8.5 C 0 km/h
1905 11-03-2007 21:05:01 8.2 C 4.44 g/m*3 8.2 C 0 km/h
1906 11-03-2007 21:17:01 7.9 C 4.44 g/m*3 7.9 C 0 km/h
1907 11-03-2007 21:29:01 7.7 C 4.46 g/m*3 7.7 C 0 km/h
1908 11-03-2007 21:41:02 7.4 C 4.45 g/m*3 7.4 C 0 km/h
1909 11-03-2007 21:53:01 7.3 C 4.5 g/m*3 7.3 C 0 km/h
1910 11-03-2007 22:05:02 7 C 4.42 g/m*3 7 C 0 km/h
1911 11-03-2007 22:17:01 6.8 C 4.51 g/m*3 6.8 C 0 km/h
1912 11-03-2007 22:29:01 6.7 C 4.56 g/m*3 6.7 C 0 km/h
1913 11-03-2007 22:41:01 6.4 C 4.47 g/m*3 6.4 C 0 km/h
1914 11-03-2007 22:53:01 6.2 C 4.41 g/m*3 6.2 C 0 km/h
1915 11-03-2007 23:05:01 6.1 C 4.46 g/m*3 6.1 C 0 km/h
1916 11-03-2007 23:17:02 5.8 C 4.44 g/m*3 5.8 C 0 km/h
1917 11-03-2007 23:29:02 5.6 C 4.38 g/m*3 5.6 C 0 km/h
1918 11-03-2007 23:41:01 5.4 C 4.47 g/m*3 5.4 C 0 km/h
1919 11-03-2007 23:53:02 5 C 4.35 g/m*3 5 C 0 km/h
1920 12-03-2007 00:05:02 4.8 C 4.43 g/m*3 4.8 C 0 km/h
1921 12-03-2007 00:17:02 4.8 C 4.49 g/m*3 4.8 C 0 km/h
1922 12-03-2007 00:29:02 4.6 C 4.43 g/m*3 4.6 C 0 km/h
1923 12-03-2007 00:41:01 4.4 C 4.44 g/m*3 4.4 C 0 km/h
1924 12-03-2007 00:53:01 4.3 C 4.41 g/m*3 4.3 C 0 km/h
1925 12-03-2007 01:05:01 4.1 C 4.42 g/m*3 4.1 C 0 km/h
Sensor: Nr:Datum:Temp:Abs-Feuchte:Windchill:Wind:
Aussen-T/F 1926 12-03-2007 01:17:01 4 C 4.45 g/m*3 4 C 0 km/h
1927 12-03-2007 01:29:01 3.9 C 4.48 g/m*3 3.9 C 0 km/h
1928 12-03-2007 01:41:01 3.7 C 4.42 g/m*3 3.7 C 0 km/h
1929 12-03-2007 01:53:02 3.5 C 4.37 g/m*3 3.5 C 0 km/h
1930 12-03-2007 02:05:02 3.4 C 4.34 g/m*3 3.4 C 0 km/h
1931 12-03-2007 02:17:01 3.3 C 4.31 g/m*3 3.3 C 0 km/h
1932 12-03-2007 02:29:01 3.3 C 4.43 g/m*3 3.3 C 0 km/h
1933 12-03-2007 02:41:02 3.1 C 4.37 g/m*3 3.1 C 0 km/h
1934 12-03-2007 02:53:02 2.9 C 4.37 g/m*3 2.9 C 0 km/h
1935 12-03-2007 03:05:02 2.9 C 4.37 g/m*3 2.9 C 0 km/h
1936 12-03-2007 03:17:02 2.7 C 4.31 g/m*3 2.7 C 0 km/h
1937 12-03-2007 03:29:02 2.6 C 4.28 g/m*3 2.6 C 0 km/h
1938 12-03-2007 03:41:02 2.6 C 4.34 g/m*3 2.6 C 0 km/h
1939 12-03-2007 03:53:02 2.2 C 4.22 g/m*3 2.2 C 0 km/h
1940 12-03-2007 04:05:02 2.2 C 4.22 g/m*3 2.2 C 0 km/h
1941 12-03-2007 04:17:02 2.1 C 4.2 g/m*3 2.1 C 0 km/h
1942 12-03-2007 04:29:02 2 C 4.17 g/m*3 2 C 0 km/h
1943 12-03-2007 04:41:01 1.9 C 4.19 g/m*3 1.9 C 0 km/h
1944 12-03-2007 04:53:02 1.7 C 4.19 g/m*3 1.7 C 0 km/h
1945 12-03-2007 05:05:02 1.6 C 4.16 g/m*3 1.6 C 0 km/h
1946 12-03-2007 05:17:01 1.5 C 4.24 g/m*3 1.5 C 0 km/h
1947 12-03-2007 05:29:02 1.4 C 4.21 g/m*3 1.4 C 0 km/h
1948 12-03-2007 05:41:01 1.1 C 4.13 g/m*3 1.1 C 0 km/h
1949 12-03-2007 05:53:02 0.9 C 4.12 g/m*3 0.9 C 0 km/h
1950 12-03-2007 06:05:02 0.8 C 4.04 g/m*3 0.8 C 0 km/h
Sensor: Nr:Datum:Temp:Abs-Feuchte:Windchill:Wind:
Aussen-T/F 1951 12-03-2007 06:17:01 0.8 C 4.1 g/m*3 0.8 C 0 km/h
1952 12-03-2007 06:29:01 0.8 C 4.1 g/m*3 0.8 C 0 km/h
1953 12-03-2007 06:41:02 0.7 C 4.07 g/m*3 0.7 C 0 km/h
1954 12-03-2007 06:53:01 0.5 C 4.01 g/m*3 0.5 C 0 km/h
1955 12-03-2007 07:05:02 0.6 C 4.09 g/m*3 0.6 C 0 km/h
1956 12-03-2007 07:17:02 0.5 C 4.06 g/m*3 0.5 C 0 km/h
1957 12-03-2007 07:29:02 0.4 C 4.03 g/m*3 0.4 C 0 km/h
1958 12-03-2007 07:41:01 0.5 C 4.06 g/m*3 0.5 C 0 km/h
1959 12-03-2007 07:53:02 0.4 C 4.08 g/m*3 0.4 C 0 km/h
1960 12-03-2007 08:05:01 0.4 C 4.13 g/m*3 0.4 C 0 km/h
1961 12-03-2007 08:17:01 0.5 C 4.16 g/m*3 0.5 C 0 km/h
1962 12-03-2007 08:29:01 0.6 C 4.19 g/m*3 0.6 C 0 km/h
1963 12-03-2007 08:41:02 0.8 C 4.25 g/m*3 0.8 C 0 km/h
1964 12-03-2007 08:53:02 0.9 C 4.28 g/m*3 0.9 C 0 km/h
1965 12-03-2007 09:05:01 1 C 4.26 g/m*3 1 C 0 km/h
1966 12-03-2007 09:17:01 1.2 C 4.31 g/m*3 1.2 C 0 km/h
1967 12-03-2007 09:29:01 1.6 C 4.49 g/m*3 1.6 C 0 km/h
1968 12-03-2007 09:41:02 2 C 4.61 g/m*3 2 C 0 km/h
1969 12-03-2007 09:53:01 2.9 C 4.96 g/m*3 2.9 C 0 km/h
1970 12-03-2007 10:05:01 3.8 C 5.14 g/m*3 3.8 C 0 km/h
1971 12-03-2007 10:17:02 4.3 C 5.19 g/m*3 4.3 C 0 km/h
1972 12-03-2007 10:29:02 5.1 C 5.34 g/m*3 5.1 C 0 km/h
1973 12-03-2007 10:41:01 5.5 C 5.06 g/m*3 5.5 C 0 km/h
1974 12-03-2007 10:53:02 6.3 C 5.18 g/m*3 6.3 C 0 km/h
1975 12-03-2007 11:05:01 7 C 5.04 g/m*3 7 C 0 km/h
Sensor: Nr:Datum:Temp:Abs-Feuchte:Windchill:Wind:
Aussen-T/F 1976 12-03-2007 11:17:02 7.6 C 4.83 g/m*3 7.6 C 0 km/h
1977 12-03-2007 11:29:02 8 C 4.96 g/m*3 8 C 0 km/h
1978 12-03-2007 11:41:01 9 C 4.85 g/m*3 9 C 0 km/h
1979 12-03-2007 11:53:02 9.5 C 4.73 g/m*3 9.5 C 0 km/h
1980 12-03-2007 12:05:01 10 C 4.79 g/m*3 10 C 0 km/h
1981 12-03-2007 12:17:01 11.1 C 4.63 g/m*3 11.1 C 0 km/h
1982 12-03-2007 12:29:01 11.8 C 4.42 g/m*3 11.8 C 0 km/h
1983 12-03-2007 12:41:02 12.8 C 4.48 g/m*3 12.8 C 0 km/h
1984 12-03-2007 12:53:01 13.6 C 4.35 g/m*3 13.6 C 0 km/h
1985 12-03-2007 13:05:02 14.6 C 4.25 g/m*3 14.6 C 0 km/h
1986 12-03-2007 13:17:01 15.6 C 3.99 g/m*3 15.6 C 0 km/h
1987 12-03-2007 13:29:01 16.4 C 3.63 g/m*3 16.4 C 0 km/h
1988 12-03-2007 13:41:01 17.2 C 3.66 g/m*3 17.2 C 0 km/h
1989 12-03-2007 13:53:01 17.7 C 3.02 g/m*3 17.7 C 0 km/h
1990 12-03-2007 14:05:01 18.2 C 3.11 g/m*3 18.2 C 0 km/h
1991 12-03-2007 14:17:02 18.5 C 3.16 g/m*3 18.5 C 0 km/h
1992 12-03-2007 14:29:02 18.9 C 3.24 g/m*3 18.9 C 0 km/h
1993 12-03-2007 14:41:01 19.5 C 3.36 g/m*3 19.5 C 0 km/h
1994 12-03-2007 14:53:02 19.7 C 3.4 g/m*3 19.7 C 0 km/h
1995 12-03-2007 15:05:01 20.2 C 3.5 g/m*3 20.2 C 0 km/h
1996 12-03-2007 15:17:01 20.5 C 3.56 g/m*3 20.5 C 0 km/h
1997 12-03-2007 15:29:01 20.9 C 3.64 g/m*3 20.9 C 0 km/h
1998 12-03-2007 15:41:02 21.6 C 3.79 g/m*3 21.6 C 0 km/h
1999 12-03-2007 15:53:01 21.7 C 3.82 g/m*3 21.7 C 0 km/h
2000 12-03-2007 16:05:02 21.5 C 3.77 g/m*3 21.5 C 0 km/h
Sensor: Nr:Datum:Temp:Abs-Feuchte:Windchill:Wind:
Aussen-T/F 2001 12-03-2007 16:17:01 21.4 C 3.75 g/m*3 21.4 C 0 km/h
2002 12-03-2007 16:29:01 21.2 C 3.71 g/m*3 21.2 C 0 km/h
2003 12-03-2007 16:41:01 21.5 C 3.77 g/m*3 21.5 C 0 km/h
2004 12-03-2007 16:53:01 21.2 C 3.71 g/m*3 21.2 C 0 km/h
2005 12-03-2007 17:05:01 21 C 3.66 g/m*3 21 C 0 km/h
2006 12-03-2007 17:17:02 20.8 C 3.62 g/m*3 20.8 C 0 km/h
2007 12-03-2007 17:29:02 19.7 C 3.4 g/m*3 19.7 C 0 km/h
2008 12-03-2007 17:41:02 18.9 C 3.24 g/m*3 18.9 C 0 km/h
2009 12-03-2007 17:53:01 18.3 C 3.28 g/m*3 18.3 C 0 km/h
2010 12-03-2007 18:05:02 17.6 C 3.45 g/m*3 17.6 C 0 km/h
2011 12-03-2007 18:17:02 16.4 C 3.63 g/m*3 16.4 C 0 km/h
2012 12-03-2007 18:29:02 15.5 C 3.83 g/m*3 15.5 C 0 km/h
2013 12-03-2007 18:41:01 14.2 C 3.79 g/m*3 14.2 C 0 km/h
2014 12-03-2007 18:53:01 13.2 C 3.79 g/m*3 13.2 C 0 km/h
2015 12-03-2007 19:05:02 12.8 C 4.03 g/m*3 12.8 C 0 km/h
2016 12-03-2007 19:17:01 12.3 C 3.91 g/m*3 12.3 C 0 km/h
2017 12-03-2007 19:29:01 11.8 C 4.1 g/m*3 11.8 C 0 km/h
2018 12-03-2007 19:41:01 11.4 C 4.11 g/m*3 11.4 C 0 km/h
2019 12-03-2007 19:53:01 11.1 C 4.23 g/m*3 11.1 C 0 km/h
2020 12-03-2007 20:05:02 10.7 C 4.42 g/m*3 10.7 C 0 km/h
2021 12-03-2007 20:17:02 10.4 C 4.43 g/m*3 10.4 C 0 km/h
2022 12-03-2007 20:29:02 10.2 C 4.47 g/m*3 10.2 C 0 km/h
2023 12-03-2007 20:41:01 10 C 4.51 g/m*3 10 C 0 km/h
2024 12-03-2007 20:53:01 9.6 C 4.58 g/m*3 9.6 C 0 km/h
2025 12-03-2007 21:05:02 9.3 C 4.49 g/m*3 9.3 C 0 km/h
Sensor: Nr:Datum:Temp:Abs-Feuchte:Windchill:Wind:
Aussen-T/F 2026 12-03-2007 21:17:02 9.2 C 4.55 g/m*3 9.2 C 0 km/h
2027 12-03-2007 21:29:02 9 C 4.5 g/m*3 9 C 0 km/h
2028 12-03-2007 21:41:01 8.7 C 4.58 g/m*3 8.7 C 0 km/h
2029 12-03-2007 21:53:01 8.6 C 4.55 g/m*3 8.6 C 0 km/h
2030 12-03-2007 22:05:02 8.4 C 4.58 g/m*3 8.4 C 0 km/h
2031 12-03-2007 22:17:01 8.2 C 4.52 g/m*3 8.2 C 0 km/h
2032 12-03-2007 22:29:01 7.9 C 4.6 g/m*3 7.9 C 0 km/h
2033 12-03-2007 22:41:01 7.8 C 4.65 g/m*3 7.8 C 0 km/h
2034 12-03-2007 22:53:02 7.5 C 4.64 g/m*3 7.5 C 0 km/h
2035 12-03-2007 23:05:01 7.2 C 4.63 g/m*3 7.2 C 0 km/h
2036 12-03-2007 23:17:01 7.1 C 4.68 g/m*3 7.1 C 0 km/h
2037 12-03-2007 23:29:01 6.8 C 4.67 g/m*3 6.8 C 0 km/h
2038 12-03-2007 23:41:02 6.7 C 4.71 g/m*3 6.7 C 0 km/h
2039 12-03-2007 23:53:02 6.3 C 4.59 g/m*3 6.3 C 0 km/h
2040 13-03-2007 00:05:02 6.1 C 4.75 g/m*3 6.1 C 0 km/h
2041 13-03-2007 00:17:02 6.1 C 4.75 g/m*3 6.1 C 0 km/h
2042 13-03-2007 00:29:02 6.1 C 4.75 g/m*3 6.1 C 0 km/h
2043 13-03-2007 00:41:02 6 C 4.72 g/m*3 6 C 0 km/h
2044 13-03-2007 00:53:02 5.8 C 4.8 g/m*3 5.8 C 0 km/h
2045 13-03-2007 01:05:02 5.6 C 4.81 g/m*3 5.6 C 0 km/h
2046 13-03-2007 01:17:02 5.3 C 4.71 g/m*3 5.3 C 0 km/h
2047 13-03-2007 01:29:02 5.1 C 4.72 g/m*3 5.1 C 0 km/h
2048 13-03-2007 01:41:01 4.8 C 4.76 g/m*3 4.8 C 0 km/h
2049 13-03-2007 01:53:02 4.8 C 4.76 g/m*3 4.8 C 0 km/h
2050 13-03-2007 02:05:02 4.8 C 4.83 g/m*3 4.8 C 0 km/h
Sensor: Nr:Datum:Temp:Abs-Feuchte:Windchill:Wind:
Aussen-T/F 2051 13-03-2007 02:17:02 4.6 C 4.83 g/m*3 4.6 C 0 km/h
2052 13-03-2007 02:29:02 4.4 C 4.83 g/m*3 4.4 C 0 km/h
2053 13-03-2007 02:41:01 4.3 C 4.8 g/m*3 4.3 C 0 km/h
2054 13-03-2007 02:53:02 4.1 C 4.74 g/m*3 4.1 C 0 km/h
2055 13-03-2007 03:05:02 4 C 4.7 g/m*3 4 C 0 km/h
2056 13-03-2007 03:17:02 3.7 C 4.74 g/m*3 3.7 C 0 km/h
2057 13-03-2007 03:29:02 3.6 C 4.77 g/m*3 3.6 C 0 km/h
2058 13-03-2007 03:41:02 3.3 C 4.67 g/m*3 3.3 C 0 km/h
2059 13-03-2007 03:53:02 3.1 C 4.61 g/m*3 3.1 C 0 km/h
2060 13-03-2007 04:05:02 3.1 C 4.73 g/m*3 3.1 C 0 km/h
2061 13-03-2007 04:17:02 3 C 4.7 g/m*3 3 C 0 km/h
2062 13-03-2007 04:29:02 2.8 C 4.69 g/m*3 2.8 C 0 km/h
2063 13-03-2007 04:41:01 2.8 C 4.75 g/m*3 2.8 C 0 km/h
2064 13-03-2007 04:53:02 2.7 C 4.78 g/m*3 2.7 C 0 km/h
2065 13-03-2007 05:05:02 2.6 C 4.75 g/m*3 2.6 C 0 km/h
2066 13-03-2007 05:17:02 2.6 C 4.8 g/m*3 2.6 C 0 km/h
2067 13-03-2007 05:29:02 2.2 C 4.68 g/m*3 2.2 C 0 km/h
2068 13-03-2007 05:41:02 2.2 C 4.68 g/m*3 2.2 C 0 km/h
2069 13-03-2007 05:53:02 2.1 C 4.7 g/m*3 2.1 C 0 km/h
2070 13-03-2007 06:05:01 2 C 4.67 g/m*3 2 C 0 km/h
2071 13-03-2007 06:17:01 1.8 C 4.66 g/m*3 1.8 C 0 km/h
2072 13-03-2007 06:29:01 2 C 4.72 g/m*3 2 C 0 km/h
2073 13-03-2007 06:41:02 1.7 C 4.68 g/m*3 1.7 C 0 km/h
2074 13-03-2007 06:53:01 1.5 C 4.62 g/m*3 1.5 C 0 km/h
2075 13-03-2007 07:05:02 1.5 C 4.62 g/m*3 1.5 C 0 km/h
Sensor: Nr:Datum:Temp:Abs-Feuchte:Windchill:Wind:
Aussen-T/F 2076 13-03-2007 07:17:01 1.5 C 4.62 g/m*3 1.5 C 0 km/h
2077 13-03-2007 07:29:01 1.5 C 4.62 g/m*3 1.5 C 0 km/h
2078 13-03-2007 07:41:01 1.7 C 4.74 g/m*3 1.7 C 0 km/h
2079 13-03-2007 07:53:02 1.7 C 4.74 g/m*3 1.7 C 0 km/h
2080 13-03-2007 08:05:01 1.8 C 4.77 g/m*3 1.8 C 0 km/h
2081 13-03-2007 08:17:01 1.8 C 4.77 g/m*3 1.8 C 0 km/h
2082 13-03-2007 08:29:01 2.1 C 4.87 g/m*3 2.1 C 0 km/h
2083 13-03-2007 08:41:02 2.2 C 4.9 g/m*3 2.2 C 0 km/h
2084 13-03-2007 08:53:01 2.3 C 4.93 g/m*3 2.3 C 0 km/h
2085 13-03-2007 09:05:02 2.6 C 5.03 g/m*3 2.6 C 0 km/h
2086 13-03-2007 09:17:01 3 C 5.17 g/m*3 3 C 0 km/h
2087 13-03-2007 09:29:01 3.7 C 5.48 g/m*3 3.7 C 0 km/h
2088 13-03-2007 09:41:01 4.4 C 5.75 g/m*3 4.4 C 0 km/h
2089 13-03-2007 09:53:01 5.2 C 5.78 g/m*3 5.2 C 0 km/h
2090 13-03-2007 10:05:02 5.9 C 5.84 g/m*3 5.9 C 0 km/h
2091 13-03-2007 10:17:02 6.5 C 5.85 g/m*3 6.5 C 0 km/h
2092 13-03-2007 10:29:02 7 C 5.73 g/m*3 7 C 0 km/h
2093 13-03-2007 10:41:01 7.7 C 5.68 g/m*3 7.7 C 0 km/h
2094 13-03-2007 10:53:02 8.6 C 5.76 g/m*3 8.6 C 0 km/h
2095 13-03-2007 11:05:01 9.2 C 5.27 g/m*3 9.2 C 0 km/h
2096 13-03-2007 11:17:01 10.1 C 5.3 g/m*3 10.1 C 0 km/h
2097 13-03-2007 11:29:01 10.8 C 5.24 g/m*3 10.8 C 0 km/h
2098 13-03-2007 11:41:02 11.4 C 5.23 g/m*3 11.4 C 0 km/h
2099 13-03-2007 11:53:01 11.8 C 5.16 g/m*3 11.8 C 0 km/h
2100 13-03-2007 12:05:02 12.2 C 5.07 g/m*3 12.2 C 0 km/h
Sensor: Nr:Datum:Temp:Abs-Feuchte:Windchill:Wind:
Aussen-T/F 2101 13-03-2007 12:17:01 12.6 C 4.98 g/m*3 12.6 C 0 km/h
2102 13-03-2007 12:29:01 13 C 4.88 g/m*3 13 C 0 km/h
2103 13-03-2007 12:41:01 13.7 C 4.86 g/m*3 13.7 C 0 km/h
2104 13-03-2007 12:53:01 14.3 C 4.79 g/m*3 14.3 C 0 km/h
2105 13-03-2007 13:05:02 14.7 C 4.53 g/m*3 14.7 C 0 km/h
2106 13-03-2007 13:17:02 15.4 C 4.34 g/m*3 15.4 C 0 km/h
2107 13-03-2007 13:29:02 15.8 C 4.31 g/m*3 15.8 C 0 km/h
2108 13-03-2007 13:41:01 16.3 C 4.3 g/m*3 16.3 C 0 km/h
2109 13-03-2007 13:53:02 16.7 C 4.26 g/m*3 16.7 C 0 km/h
2110 13-03-2007 14:05:02 16.8 C 4.58 g/m*3 16.8 C 0 km/h
2111 13-03-2007 14:17:01 17.3 C 4.71 g/m*3 17.3 C 0 km/h
2112 13-03-2007 14:29:01 17.4 C 4.59 g/m*3 17.4 C 0 km/h
2113 13-03-2007 14:41:01 17.8 C 4.71 g/m*3 17.8 C 0 km/h
2114 13-03-2007 14:53:01 18 C 4.76 g/m*3 18 C 0 km/h
2115 13-03-2007 15:05:01 19 C 4.89 g/m*3 19 C 0 km/h
2116 13-03-2007 15:17:02 19.3 C 4.81 g/m*3 19.3 C 0 km/h
2117 13-03-2007 15:29:02 19.5 C 5.03 g/m*3 19.5 C 0 km/h
2118 13-03-2007 15:41:01 19.4 C 5.01 g/m*3 19.4 C 0 km/h
2119 13-03-2007 15:53:02 19.6 C 5.06 g/m*3 19.6 C 0 km/h
2120 13-03-2007 16:05:01 19.6 C 5.06 g/m*3 19.6 C 0 km/h
2121 13-03-2007 16:17:01 18.5 C 4.9 g/m*3 18.5 C 0 km/h
2122 13-03-2007 16:29:01 17.9 C 5.04 g/m*3 17.9 C 0 km/h
2123 13-03-2007 16:41:02 17.6 C 5.1 g/m*3 17.6 C 0 km/h
2124 13-03-2007 16:53:01 17.3 C 4.71 g/m*3 17.3 C 0 km/h
2125 13-03-2007 17:05:02 16.9 C 4.89 g/m*3 16.9 C 0 km/h
Sensor: Nr:Datum:Temp:Abs-Feuchte:Windchill:Wind:
Aussen-T/F 2126 13-03-2007 17:17:02 16.5 C 4.63 g/m*3 16.5 C 0 km/h
2127 13-03-2007 17:29:02 16.3 C 4.58 g/m*3 16.3 C 0 km/h
2128 13-03-2007 17:41:01 16.3 C 4.72 g/m*3 16.3 C 0 km/h
2129 13-03-2007 17:53:01 15.1 C 4.52 g/m*3 15.1 C 0 km/h
2130 13-03-2007 18:05:01 14.6 C 4.63 g/m*3 14.6 C 0 km/h
2131 13-03-2007 18:17:02 14.2 C 4.76 g/m*3 14.2 C 0 km/h
2132 13-03-2007 18:29:02 13.8 C 5 g/m*3 13.8 C 0 km/h
2133 13-03-2007 18:41:01 13.5 C 5.03 g/m*3 13.5 C 0 km/h
2134 13-03-2007 18:53:02 13.2 C 5.05 g/m*3 13.2 C 0 km/h
2135 13-03-2007 19:05:01 12.9 C 5.18 g/m*3 12.9 C 0 km/h
2136 13-03-2007 19:17:01 12.8 C 5.38 g/m*3 12.8 C 0 km/h
2137 13-03-2007 19:29:01 12.4 C 5.46 g/m*3 12.4 C 0 km/h
2138 13-03-2007 19:41:02 12.2 C 5.5 g/m*3 12.2 C 0 km/h
2139 13-03-2007 19:53:01 12 C 5.54 g/m*3 12 C 0 km/h
2140 13-03-2007 20:05:02 11.9 C 5.61 g/m*3 11.9 C 0 km/h
2141 13-03-2007 20:17:01 11.9 C 5.61 g/m*3 11.9 C 0 km/h
2142 13-03-2007 20:29:01 11.7 C 5.54 g/m*3 11.7 C 0 km/h
2143 13-03-2007 20:41:01 11.4 C 5.65 g/m*3 11.4 C 0 km/h
2144 13-03-2007 20:53:01 11.1 C 5.64 g/m*3 11.1 C 0 km/h
2145 13-03-2007 21:05:01 10.8 C 5.73 g/m*3 10.8 C 0 km/h
2146 13-03-2007 21:17:02 10.5 C 5.72 g/m*3 10.5 C 0 km/h
2147 13-03-2007 21:29:02 10.4 C 5.78 g/m*3 10.4 C 0 km/h
2148 13-03-2007 21:41:01 10.2 C 5.8 g/m*3 10.2 C 0 km/h
2149 13-03-2007 21:53:02 9.8 C 5.85 g/m*3 9.8 C 0 km/h
2150 13-03-2007 22:05:01 9.4 C 5.79 g/m*3 9.4 C 0 km/h
Sensor: Nr:Datum:Temp:Abs-Feuchte:Windchill:Wind:
Aussen-T/F 2151 13-03-2007 22:17:01 9.4 C 5.88 g/m*3 9.4 C 0 km/h
2152 13-03-2007 22:29:01 9 C 5.91 g/m*3 9 C 0 km/h
2153 13-03-2007 22:41:02 8.9 C 5.96 g/m*3 8.9 C 0 km/h
2154 13-03-2007 22:53:01 8.6 C 5.84 g/m*3 8.6 C 0 km/h
2155 13-03-2007 23:05:02 8.5 C 5.98 g/m*3 8.5 C 0 km/h
2156 13-03-2007 23:17:01 8.4 C 5.94 g/m*3 8.4 C 0 km/h
2157 13-03-2007 23:29:02 8.1 C 5.82 g/m*3 8.1 C 0 km/h
2158 13-03-2007 23:41:01 8.2 C 6.11 g/m*3 8.2 C 0 km/h
2159 13-03-2007 23:53:01 8.4 C 6.11 g/m*3 8.4 C 0 km/h
2160 14-03-2007 00:05:01 8.5 C 6.32 g/m*3 8.5 C 0 km/h
2161 14-03-2007 00:17:02 8.2 C 6.03 g/m*3 8.2 C 0 km/h
2162 14-03-2007 00:29:02 8.1 C 6.07 g/m*3 8.1 C 0 km/h
2163 14-03-2007 00:41:01 8.2 C 6.36 g/m*3 8.2 C 0 km/h
2164 14-03-2007 00:53:01 8.2 C 6.36 g/m*3 8.2 C 0 km/h
2165 14-03-2007 01:05:01 8.1 C 6.41 g/m*3 8.1 C 0 km/h
2166 14-03-2007 01:17:02 7.9 C 6.41 g/m*3 7.9 C 0 km/h
2167 14-03-2007 01:29:02 7.7 C 6.32 g/m*3 7.7 C 0 km/h
2168 14-03-2007 01:41:02 7.2 C 6.12 g/m*3 7.2 C 0 km/h
2169 14-03-2007 01:53:01 6.8 C 6.12 g/m*3 6.8 C 0 km/h
2170 14-03-2007 02:05:01 6.7 C 6.15 g/m*3 6.7 C 0 km/h
2171 14-03-2007 02:17:02 6.6 C 6.19 g/m*3 6.6 C 0 km/h
2172 14-03-2007 02:29:02 6.9 C 6.31 g/m*3 6.9 C 0 km/h
2173 14-03-2007 02:41:02 6.9 C 6.24 g/m*3 6.9 C 0 km/h
2174 14-03-2007 02:53:51 7 C 6.2 g/m*3 7 C 0 km/h
2175 14-03-2007 03:05:51 7.3 C 6.24 g/m*3 7.3 C 0 km/h
Sensor: Nr:Datum:Temp:Abs-Feuchte:Windchill:Wind:
Aussen-T/F 2176 14-03-2007 03:17:51 7.3 C 6.24 g/m*3 7.3 C 0 km/h
2177 14-03-2007 03:29:51 7.4 C 6.28 g/m*3 7.4 C 0 km/h
2178 14-03-2007 03:41:02 7.7 C 6.49 g/m*3 7.7 C 0 km/h
2179 14-03-2007 03:53:02 7.7 C 6.41 g/m*3 7.7 C 0 km/h
2180 14-03-2007 04:05:02 7.9 C 6.57 g/m*3 7.9 C 0 km/h
2181 14-03-2007 04:17:02 8.2 C 6.78 g/m*3 8.2 C 0 km/h
2182 14-03-2007 04:29:02 8.4 C 6.87 g/m*3 8.4 C 0 km/h
2183 14-03-2007 04:41:02 8.4 C 6.79 g/m*3 8.4 C 0 km/h
2184 14-03-2007 04:53:02 8.5 C 6.83 g/m*3 8.5 C 0 km/h
2185 14-03-2007 05:05:02 8.5 C 6.83 g/m*3 8.5 C 0 km/h
2186 14-03-2007 05:17:02 8.5 C 6.74 g/m*3 8.5 C 0 km/h
2187 14-03-2007 05:29:02 8.5 C 6.74 g/m*3 8.5 C 0 km/h
2188 14-03-2007 05:41:02 8.5 C 6.66 g/m*3 8.5 C 0 km/h
2189 14-03-2007 05:53:01 8.4 C 6.62 g/m*3 8.4 C 0 km/h
2190 14-03-2007 06:05:02 8.3 C 6.66 g/m*3 8.3 C 0 km/h
2191 14-03-2007 06:17:02 8.2 C 6.62 g/m*3 8.2 C 0 km/h
2192 14-03-2007 06:29:03 8.2 C 6.62 g/m*3 8.2 C 0 km/h
2193 14-03-2007 06:41:01 8.3 C 6.66 g/m*3 8.3 C 0 km/h
2194 14-03-2007 06:53:02 8.2 C 6.62 g/m*3 8.2 C 0 km/h
2195 14-03-2007 07:05:01 8.3 C 6.66 g/m*3 8.3 C 0 km/h
2196 14-03-2007 07:17:02 8.4 C 6.62 g/m*3 8.4 C 0 km/h
2197 14-03-2007 07:29:02 8.5 C 6.66 g/m*3 8.5 C 0 km/h
2198 14-03-2007 07:41:01 8.5 C 6.66 g/m*3 8.5 C 0 km/h
2199 14-03-2007 07:53:02 8.5 C 6.66 g/m*3 8.5 C 0 km/h
2200 14-03-2007 08:05:02 8.5 C 6.57 g/m*3 8.5 C 0 km/h
Sensor: Nr:Datum:Temp:Abs-Feuchte:Windchill:Wind:
Aussen-T/F 2201 14-03-2007 08:17:02 8.6 C 6.62 g/m*3 8.6 C 0 km/h
2202 14-03-2007 08:29:02 8.9 C 6.57 g/m*3 8.9 C 0 km/h
2203 14-03-2007 08:41:02 9.2 C 6.43 g/m*3 9.2 C 0 km/h
2204 14-03-2007 08:53:02 9.5 C 6.37 g/m*3 9.5 C 0 km/h
2205 14-03-2007 09:05:02 9.6 C 6.32 g/m*3 9.6 C 0 km/h
2206 14-03-2007 09:17:02 9.6 C 6.14 g/m*3 9.6 C 0 km/h
2207 14-03-2007 09:29:03 9.7 C 6.18 g/m*3 9.7 C 0 km/h
2208 14-03-2007 09:41:02 10.1 C 6.15 g/m*3 10.1 C 0 km/h
2209 14-03-2007 09:53:02 11 C 6.31 g/m*3 11 C 0 km/h
2210 14-03-2007 10:05:02 11.3 C 6.02 g/m*3 11.3 C 0 km/h
2211 14-03-2007 10:17:02 11.4 C 5.95 g/m*3 11.4 C 0 km/h
2212 14-03-2007 10:29:02 11 C 5.91 g/m*3 11 C 0 km/h
2213 14-03-2007 10:41:02 10.9 C 6.07 g/m*3 10.9 C 0 km/h
2214 14-03-2007 10:53:02 11.2 C 6.18 g/m*3 11.2 C 0 km/h
2215 14-03-2007 11:05:01 11.4 C 6.26 g/m*3 11.4 C 0 km/h
2216 14-03-2007 11:17:01 11.5 C 6.3 g/m*3 11.5 C 0 km/h
2217 14-03-2007 11:29:01 11.8 C 6.21 g/m*3 11.8 C 0 km/h
2218 14-03-2007 11:41:02 12 C 6.18 g/m*3 12 C 0 km/h
2219 14-03-2007 11:53:16 13.1 C 6.28 g/m*3 13.1 C 0 km/h
2220 14-03-2007 11:56:02 13.4 C 6.16 g/m*3 13.4 C 0 km/h
2221 14-03-2007 12:08:03 13 C 5.78 g/m*3 13 C 0 km/h
2222 14-03-2007 12:18:02 12.8 C 5.94 g/m*3 12.8 C 0 km/h
2223 14-03-2007 12:30:02 13.7 C 6.04 g/m*3 13.7 C 0 km/h
2224 14-03-2007 12:42:02 14.1 C 5.83 g/m*3 14.1 C 0 km/h
2225 14-03-2007 12:54:01 14.5 C 5.72 g/m*3 14.5 C 0 km/h
Sensor: Nr:Datum:Temp:Abs-Feuchte:Windchill:Wind:
Aussen-T/F 2226 14-03-2007 13:05:01 14.1 C 5.7 g/m*3 14.1 C 0 km/h
2227 14-03-2007 13:17:02 14.4 C 5.69 g/m*3 14.4 C 0 km/h
2228 14-03-2007 13:29:02 14.9 C 5.74 g/m*3 14.9 C 0 km/h
2229 14-03-2007 13:41:01 15 C 5.51 g/m*3 15 C 0 km/h
2230 14-03-2007 13:53:02 14.7 C 5.41 g/m*3 14.7 C 0 km/h
2231 14-03-2007 14:05:02 15.3 C 5.35 g/m*3 15.3 C 0 km/h
2232 14-03-2007 14:17:02 16 C 5.18 g/m*3 16 C 0 km/h
2233 14-03-2007 14:29:02 15.4 C 5.26 g/m*3 15.4 C 0 km/h
2234 14-03-2007 14:41:02 15.6 C 5.19 g/m*3 15.6 C 0 km/h
2235 14-03-2007 14:53:01 15.8 C 5.12 g/m*3 15.8 C 0 km/h
2236 14-03-2007 15:05:02 17.1 C 5.09 g/m*3 17.1 C 0 km/h
2237 14-03-2007 15:17:02 17.1 C 4.66 g/m*3 17.1 C 0 km/h
2238 14-03-2007 15:29:03 17.3 C 4.71 g/m*3 17.3 C 0 km/h
2239 14-03-2007 15:41:01 17 C 4.49 g/m*3 17 C 0 km/h
2240 14-03-2007 15:53:02 17 C 4.63 g/m*3 17 C 0 km/h
2241 14-03-2007 16:05:02 16.8 C 4.86 g/m*3 16.8 C 0 km/h
2242 14-03-2007 16:17:02 17 C 4.63 g/m*3 17 C 0 km/h
2243 14-03-2007 16:29:02 16.2 C 4.41 g/m*3 16.2 C 0 km/h
2244 14-03-2007 16:41:02 16.2 C 4.27 g/m*3 16.2 C 0 km/h
2245 14-03-2007 16:53:03 16.7 C 4.41 g/m*3 16.7 C 0 km/h
2246 14-03-2007 17:05:02 16.2 C 4.14 g/m*3 16.2 C 0 km/h
2247 14-03-2007 17:17:02 15.8 C 4.04 g/m*3 15.8 C 0 km/h
2248 14-03-2007 17:29:02 15.8 C 4.17 g/m*3 15.8 C 0 km/h
2249 14-03-2007 17:41:03 15.6 C 4.12 g/m*3 15.6 C 0 km/h
2250 14-03-2007 17:53:02 15.4 C 4.2 g/m*3 15.4 C 0 km/h
Sensor: Nr:Datum:Temp:Abs-Feuchte:Windchill:Wind:
Aussen-T/F 2251 14-03-2007 18:05:03 15 C 4.23 g/m*3 15 C 0 km/h
2252 14-03-2007 18:25:02 13.9 C 4.32 g/m*3 13.9 C 0 km/h
2253 14-03-2007 18:37:02 12.8 C 4.26 g/m*3 12.8 C 0 km/h
2254 14-03-2007 18:49:02 12.2 C 4.42 g/m*3 12.2 C 0 km/h
2255 14-03-2007 19:11:02 11.2 C 4.26 g/m*3 11.2 C 0 km/h
2256 14-03-2007 19:23:03 10.9 C 4.28 g/m*3 10.9 C 0 km/h
2257 14-03-2007 19:44:02 10.4 C 4.14 g/m*3 10.4 C 0 km/h
2258 14-03-2007 19:55:02 10.2 C 4.28 g/m*3 10.2 C 0 km/h
2259 14-03-2007 20:07:02 10 C 4.23 g/m*3 10 C 0 km/h
2260 14-03-2007 20:19:01 9.7 C 4.33 g/m*3 9.7 C 0 km/h
2261 14-03-2007 20:31:02 9.5 C 4.1 g/m*3 9.5 C 0 km/h
2262 14-03-2007 20:43:02 9.4 C 4.25 g/m*3 9.4 C 0 km/h
2263 14-03-2007 20:55:01 9.1 C 4.08 g/m*3 9.1 C 0 km/h
2264 14-03-2007 21:07:02 9 C 4.14 g/m*3 9 C 0 km/h
2265 14-03-2007 21:19:01 8.6 C 4.38 g/m*3 8.6 C 0 km/h
2266 14-03-2007 21:31:01 8.4 C 4.5 g/m*3 8.4 C 0 km/h
2267 14-03-2007 21:43:01 8 C 4.38 g/m*3 8 C 0 km/h
2268 14-03-2007 21:55:01 7.8 C 4.49 g/m*3 7.8 C 0 km/h
2269 14-03-2007 22:07:01 7.5 C 4.48 g/m*3 7.5 C 0 km/h
2270 14-03-2007 22:19:02 7.2 C 4.47 g/m*3 7.2 C 0 km/h
2271 14-03-2007 22:31:01 7.1 C 4.52 g/m*3 7.1 C 0 km/h
2272 14-03-2007 22:43:01 6.7 C 4.56 g/m*3 6.7 C 0 km/h
2273 14-03-2007 22:55:02 6.4 C 4.55 g/m*3 6.4 C 0 km/h
2274 14-03-2007 23:07:02 6.3 C 4.52 g/m*3 6.3 C 0 km/h
2275 14-03-2007 23:19:02 6 C 4.57 g/m*3 6 C 0 km/h
Sensor: Nr:Datum:Temp:Abs-Feuchte:Windchill:Wind:
Aussen-T/F 2276 14-03-2007 23:31:02 5.8 C 4.66 g/m*3 5.8 C 0 km/h
2277 14-03-2007 23:43:02 5.7 C 4.55 g/m*3 5.7 C 0 km/h
2278 14-03-2007 23:55:02 5.7 C 4.63 g/m*3 5.7 C 0 km/h
2279 15-03-2007 00:07:03 5.6 C 4.6 g/m*3 5.6 C 0 km/h
2280 15-03-2007 00:19:02 5.2 C 4.54 g/m*3 5.2 C 0 km/h
2281 15-03-2007 00:31:02 5.1 C 4.58 g/m*3 5.1 C 0 km/h
2282 15-03-2007 00:43:02 4.9 C 4.59 g/m*3 4.9 C 0 km/h
2283 15-03-2007 00:55:02 4.7 C 4.6 g/m*3 4.7 C 0 km/h
2284 15-03-2007 01:07:02 4.5 C 4.6 g/m*3 4.5 C 0 km/h
2285 15-03-2007 01:19:02 4.4 C 4.57 g/m*3 4.4 C 0 km/h
2286 15-03-2007 01:31:02 4.3 C 4.61 g/m*3 4.3 C 0 km/h
2287 15-03-2007 01:43:02 4.1 C 4.54 g/m*3 4.1 C 0 km/h
2288 15-03-2007 01:55:02 3.9 C 4.61 g/m*3 3.9 C 0 km/h
2289 15-03-2007 02:07:02 3.8 C 4.64 g/m*3 3.8 C 0 km/h
2290 15-03-2007 02:19:02 3.6 C 4.58 g/m*3 3.6 C 0 km/h
2291 15-03-2007 02:31:02 3.4 C 4.52 g/m*3 3.4 C 0 km/h
2292 15-03-2007 02:43:02 3.3 C 4.49 g/m*3 3.3 C 0 km/h
2293 15-03-2007 02:56:04 3.3 C 4.55 g/m*3 3.3 C 0 km/h
2294 15-03-2007 03:08:04 3.1 C 4.49 g/m*3 3.1 C 0 km/h
2295 15-03-2007 03:20:04 3 C 4.52 g/m*3 3 C 0 km/h
2296 15-03-2007 03:32:02 2.9 C 4.61 g/m*3 2.9 C 0 km/h
2297 15-03-2007 03:44:02 2.7 C 4.54 g/m*3 2.7 C 0 km/h
2298 15-03-2007 03:56:02 2.6 C 4.51 g/m*3 2.6 C 0 km/h
2299 15-03-2007 04:08:03 2.3 C 4.42 g/m*3 2.3 C 0 km/h
2300 15-03-2007 04:20:03 2.3 C 4.48 g/m*3 2.3 C 0 km/h
Sensor: Nr:Datum:Temp:Abs-Feuchte:Windchill:Wind:
Aussen-T/F 2301 15-03-2007 04:32:02 2.1 C 4.48 g/m*3 2.1 C 0 km/h
2302 15-03-2007 04:44:02 2 C 4.5 g/m*3 2 C 0 km/h
2303 15-03-2007 04:56:03 1.9 C 4.53 g/m*3 1.9 C 0 km/h
2304 15-03-2007 05:08:03 1.7 C 4.46 g/m*3 1.7 C 0 km/h
2305 15-03-2007 05:20:02 1.7 C 4.46 g/m*3 1.7 C 0 km/h
2306 15-03-2007 05:32:02 1.6 C 4.49 g/m*3 1.6 C 0 km/h
2307 15-03-2007 05:44:02 1.5 C 4.46 g/m*3 1.5 C 0 km/h
2308 15-03-2007 05:56:02 1.4 C 4.48 g/m*3 1.4 C 0 km/h
2309 15-03-2007 06:08:01 1.2 C 4.42 g/m*3 1.2 C 0 km/h
2310 15-03-2007 06:20:01 1.1 C 4.39 g/m*3 1.1 C 0 km/h
2311 15-03-2007 06:32:02 0.8 C 4.3 g/m*3 0.8 C 0 km/h
2312 15-03-2007 06:44:02 0.8 C 4.35 g/m*3 0.8 C 0 km/h
2313 15-03-2007 06:56:02 0.8 C 4.35 g/m*3 0.8 C 0 km/h
2314 15-03-2007 07:08:02 0.8 C 4.35 g/m*3 0.8 C 0 km/h
2315 15-03-2007 07:20:02 0.9 C 4.43 g/m*3 0.9 C 0 km/h
2316 15-03-2007 07:32:02 1 C 4.46 g/m*3 1 C 0 km/h
2317 15-03-2007 07:44:02 1 C 4.46 g/m*3 1 C 0 km/h
2318 15-03-2007 07:56:02 1 C 4.46 g/m*3 1 C 0 km/h
2319 15-03-2007 08:08:02 1.2 C 4.53 g/m*3 1.2 C 0 km/h
2320 15-03-2007 08:20:02 1.3 C 4.56 g/m*3 1.3 C 0 km/h
2321 15-03-2007 08:32:02 1.4 C 4.59 g/m*3 1.4 C 0 km/h
2322 15-03-2007 08:44:02 1.6 C 4.65 g/m*3 1.6 C 0 km/h
2323 15-03-2007 08:56:02 1.8 C 4.71 g/m*3 1.8 C 0 km/h
2324 15-03-2007 09:08:01 2 C 4.72 g/m*3 2 C 0 km/h
2325 15-03-2007 09:20:01 2.4 C 4.91 g/m*3 2.4 C 0 km/h
Sensor: Nr:Datum:Temp:Abs-Feuchte:Windchill:Wind:
Aussen-T/F 2326 15-03-2007 09:32:02 2.8 C 4.99 g/m*3 2.8 C 0 km/h
2327 15-03-2007 09:44:02 3.6 C 5.2 g/m*3 3.6 C 0 km/h
2328 15-03-2007 09:56:02 4.2 C 5.35 g/m*3 4.2 C 0 km/h
2329 15-03-2007 10:08:02 5 C 5.37 g/m*3 5 C 0 km/h
2330 15-03-2007 10:20:02 5.5 C 5.41 g/m*3 5.5 C 0 km/h
2331 15-03-2007 10:32:02 6.1 C 5.33 g/m*3 6.1 C 0 km/h
2332 15-03-2007 10:44:02 6.8 C 5.43 g/m*3 6.8 C 0 km/h
2333 15-03-2007 10:56:02 7.6 C 5.32 g/m*3 7.6 C 0 km/h
2334 15-03-2007 11:08:02 8.5 C 5.21 g/m*3 8.5 C 0 km/h
2335 15-03-2007 11:20:02 9.2 C 5.18 g/m*3 9.2 C 0 km/h
2336 15-03-2007 11:32:02 10 C 5.17 g/m*3 10 C 0 km/h
2337 15-03-2007 11:44:02 10.2 C 5.14 g/m*3 10.2 C 0 km/h
2338 15-03-2007 11:56:02 10.5 C 5.33 g/m*3 10.5 C 0 km/h
2339 15-03-2007 12:08:01 11.1 C 5.34 g/m*3 11.1 C 0 km/h
2340 15-03-2007 12:20:01 11.6 C 5.2 g/m*3 11.6 C 0 km/h
2341 15-03-2007 12:32:02 12.5 C 5.28 g/m*3 12.5 C 0 km/h
2342 15-03-2007 12:44:02 13.1 C 4.91 g/m*3 13.1 C 0 km/h
2343 15-03-2007 12:56:02 13.8 C 4.89 g/m*3 13.8 C 0 km/h
2344 15-03-2007 13:08:02 14.6 C 4.88 g/m*3 14.6 C 0 km/h
2345 15-03-2007 13:20:02 15.3 C 4.7 g/m*3 15.3 C 0 km/h
2346 15-03-2007 13:32:02 15.7 C 4.55 g/m*3 15.7 C 0 km/h
2347 15-03-2007 13:44:02 16.3 C 4.44 g/m*3 16.3 C 0 km/h
2348 15-03-2007 13:56:02 16.6 C 4.38 g/m*3 16.6 C 0 km/h
2349 15-03-2007 14:08:02 17 C 4.49 g/m*3 17 C 0 km/h
2350 15-03-2007 14:20:02 16.9 C 4.46 g/m*3 16.9 C 0 km/h
Sensor: Nr:Datum:Temp:Abs-Feuchte:Windchill:Wind:
Aussen-T/F 2351 15-03-2007 14:32:02 17.3 C 4.42 g/m*3 17.3 C 0 km/h
2352 15-03-2007 14:44:02 18 C 4.45 g/m*3 18 C 0 km/h
2353 15-03-2007 14:56:02 18.1 C 4.17 g/m*3 18.1 C 0 km/h
2354 15-03-2007 15:08:01 18.7 C 4.32 g/m*3 18.7 C 0 km/h
2355 15-03-2007 15:20:01 18.4 C 4.56 g/m*3 18.4 C 0 km/h
2356 15-03-2007 15:32:02 18.9 C 4.54 g/m*3 18.9 C 0 km/h
2357 15-03-2007 15:44:02 18.7 C 4.48 g/m*3 18.7 C 0 km/h
2358 15-03-2007 15:56:02 18.3 C 4.53 g/m*3 18.3 C 0 km/h
2359 15-03-2007 16:08:02 18.5 C 4.59 g/m*3 18.5 C 0 km/h
2360 15-03-2007 16:20:02 18.4 C 4.4 g/m*3 18.4 C 0 km/h
2361 15-03-2007 16:32:02 18.4 C 4.56 g/m*3 18.4 C 0 km/h
2362 15-03-2007 16:44:02 18.7 C 4.8 g/m*3 18.7 C 0 km/h
2363 15-03-2007 16:56:02 18.5 C 4.75 g/m*3 18.5 C 0 km/h
2364 15-03-2007 17:08:02 18.7 C 4.8 g/m*3 18.7 C 0 km/h
2365 15-03-2007 17:20:59 18.6 C 4.93 g/m*3 18.6 C 0 km/h
2366 15-03-2007 17:29:02 18.2 C 5.13 g/m*3 18.2 C 0 km/h
2367 15-03-2007 17:41:02 17.7 C 5.13 g/m*3 17.7 C 0 km/h
2368 15-03-2007 17:53:01 16.6 C 5.09 g/m*3 16.6 C 0 km/h
2369 15-03-2007 18:05:02 15.2 C 4.8 g/m*3 15.2 C 0 km/h
2370 15-03-2007 18:17:01 14.4 C 4.94 g/m*3 14.4 C 0 km/h
2371 15-03-2007 18:29:01 13.7 C 4.97 g/m*3 13.7 C 0 km/h
2372 15-03-2007 18:41:01 13 C 4.99 g/m*3 13 C 0 km/h
2373 15-03-2007 18:53:02 12.4 C 5.03 g/m*3 12.4 C 0 km/h
2374 15-03-2007 19:05:01 12 C 5.01 g/m*3 12 C 0 km/h
2375 15-03-2007 19:17:02 11.6 C 5.2 g/m*3 11.6 C 0 km/h
Sensor: Nr:Datum:Temp:Abs-Feuchte:Windchill:Wind:
Aussen-T/F 2376 15-03-2007 19:29:02 11.1 C 5.14 g/m*3 11.1 C 0 km/h
2377 15-03-2007 19:41:02 10.8 C 5.24 g/m*3 10.8 C 0 km/h
2378 15-03-2007 19:53:02 10.6 C 5.27 g/m*3 10.6 C 0 km/h
2379 15-03-2007 20:05:02 10.4 C 5.3 g/m*3 10.4 C 0 km/h
2380 15-03-2007 20:17:02 10.6 C 5.37 g/m*3 10.6 C 0 km/h
2381 15-03-2007 20:29:02 10.6 C 5.27 g/m*3 10.6 C 0 km/h
2382 15-03-2007 20:41:03 10.6 C 5.08 g/m*3 10.6 C 0 km/h
2383 15-03-2007 20:53:02 10.5 C 5.14 g/m*3 10.5 C 0 km/h
2384 15-03-2007 21:05:02 10.3 C 5.17 g/m*3 10.3 C 0 km/h
2385 15-03-2007 21:17:02 10.1 C 5.2 g/m*3 10.1 C 0 km/h
2386 15-03-2007 21:29:02 9.7 C 5.25 g/m*3 9.7 C 0 km/h
2387 15-03-2007 21:41:02 9.4 C 5.25 g/m*3 9.4 C 0 km/h
2388 15-03-2007 21:53:02 9.1 C 5.32 g/m*3 9.1 C 0 km/h
2389 15-03-2007 22:05:02 8.8 C 5.4 g/m*3 8.8 C 0 km/h
2390 15-03-2007 22:17:02 8.5 C 5.29 g/m*3 8.5 C 0 km/h
2391 15-03-2007 22:29:02 8.4 C 5.34 g/m*3 8.4 C 0 km/h
2392 15-03-2007 22:41:02 8 C 5.29 g/m*3 8 C 0 km/h
2393 15-03-2007 22:53:01 7.5 C 5.36 g/m*3 7.5 C 0 km/h
2394 15-03-2007 23:05:02 7.2 C 5.42 g/m*3 7.2 C 0 km/h
2395 15-03-2007 23:17:02 7.1 C 5.46 g/m*3 7.1 C 0 km/h
2396 15-03-2007 23:29:02 7.1 C 5.46 g/m*3 7.1 C 0 km/h
2397 15-03-2007 23:41:01 6.8 C 5.43 g/m*3 6.8 C 0 km/h
2398 15-03-2007 23:53:02 6.5 C 5.4 g/m*3 6.5 C 0 km/h
2399 16-03-2007 00:05:03 6.3 C 5.4 g/m*3 6.3 C 0 km/h
2400 16-03-2007 00:17:03 6.4 C 5.44 g/m*3 6.4 C 0 km/h
Sensor: Nr:Datum:Temp:Abs-Feuchte:Windchill:Wind:
Aussen-T/F 2401 16-03-2007 00:29:03 6.2 C 5.44 g/m*3 6.2 C 0 km/h
2402 16-03-2007 00:41:02 6 C 5.37 g/m*3 6 C 0 km/h
2403 16-03-2007 00:53:02 5.8 C 5.37 g/m*3 5.8 C 0 km/h
2404 16-03-2007 01:05:02 5.7 C 5.41 g/m*3 5.7 C 0 km/h
2405 16-03-2007 01:17:02 5.5 C 5.41 g/m*3 5.5 C 0 km/h
2406 16-03-2007 01:29:02 5.4 C 5.37 g/m*3 5.4 C 0 km/h
2407 16-03-2007 01:41:02 5.3 C 5.34 g/m*3 5.3 C 0 km/h
2408 16-03-2007 01:53:02 4.9 C 5.33 g/m*3 4.9 C 0 km/h
2409 16-03-2007 02:05:02 4.8 C 5.3 g/m*3 4.8 C 0 km/h
2410 16-03-2007 02:17:02 4.7 C 5.33 g/m*3 4.7 C 0 km/h
2411 16-03-2007 02:29:02 4.6 C 5.29 g/m*3 4.6 C 0 km/h
2412 16-03-2007 02:41:03 4.4 C 5.22 g/m*3 4.4 C 0 km/h
2413 16-03-2007 02:54:03 4.3 C 5.25 g/m*3 4.3 C 0 km/h
2414 16-03-2007 03:06:03 4.1 C 5.18 g/m*3 4.1 C 0 km/h
2415 16-03-2007 03:18:03 4 C 5.15 g/m*3 4 C 0 km/h
2416 16-03-2007 03:30:03 3.9 C 5.24 g/m*3 3.9 C 0 km/h
2417 16-03-2007 03:42:03 3.7 C 5.17 g/m*3 3.7 C 0 km/h
2418 16-03-2007 03:54:03 3.5 C 5.1 g/m*3 3.5 C 0 km/h
2419 16-03-2007 04:06:03 3.3 C 5.1 g/m*3 3.3 C 0 km/h
2420 16-03-2007 04:18:02 3.2 C 5.06 g/m*3 3.2 C 0 km/h
2421 16-03-2007 04:30:03 3.1 C 5.09 g/m*3 3.1 C 0 km/h
2422 16-03-2007 04:42:03 3 C 5.05 g/m*3 3 C 0 km/h
2423 16-03-2007 04:54:02 2.8 C 5.04 g/m*3 2.8 C 0 km/h
2424 16-03-2007 05:06:03 2.7 C 5.01 g/m*3 2.7 C 0 km/h
2425 16-03-2007 05:18:03 2.6 C 5.03 g/m*3 2.6 C 0 km/h
Sensor: Nr:Datum:Temp:Abs-Feuchte:Windchill:Wind:
Aussen-T/F 2426 16-03-2007 05:30:03 2.6 C 5.03 g/m*3 2.6 C 0 km/h
2427 16-03-2007 05:42:02 2.4 C 4.97 g/m*3 2.4 C 0 km/h
2428 16-03-2007 05:54:02 2.3 C 4.93 g/m*3 2.3 C 0 km/h
2429 16-03-2007 06:06:03 2.1 C 4.87 g/m*3 2.1 C 0 km/h
2430 16-03-2007 06:18:02 2 C 4.89 g/m*3 2 C 0 km/h
2431 16-03-2007 06:30:02 2 C 4.89 g/m*3 2 C 0 km/h
2432 16-03-2007 06:42:02 1.9 C 4.91 g/m*3 1.9 C 0 km/h
2433 16-03-2007 06:54:02 1.8 C 4.88 g/m*3 1.8 C 0 km/h
2434 16-03-2007 07:06:01 1.7 C 4.85 g/m*3 1.7 C 0 km/h
2435 16-03-2007 07:18:01 1.6 C 4.81 g/m*3 1.6 C 0 km/h
2436 16-03-2007 07:30:01 1.6 C 4.81 g/m*3 1.6 C 0 km/h
2437 16-03-2007 07:42:02 1.8 C 4.88 g/m*3 1.8 C 0 km/h
2438 16-03-2007 07:54:02 2 C 4.95 g/m*3 2 C 0 km/h
2439 16-03-2007 08:06:02 2.2 C 5.01 g/m*3 2.2 C 0 km/h
2440 16-03-2007 08:18:02 2.2 C 4.96 g/m*3 2.2 C 0 km/h
2441 16-03-2007 08:30:02 2.3 C 4.99 g/m*3 2.3 C 0 km/h
2442 16-03-2007 08:42:02 2.7 C 5.13 g/m*3 2.7 C 0 km/h
2443 16-03-2007 08:54:02 2.9 C 5.14 g/m*3 2.9 C 0 km/h
2444 16-03-2007 09:06:02 3.2 C 5.12 g/m*3 3.2 C 0 km/h
2445 16-03-2007 09:18:02 3.6 C 5.2 g/m*3 3.6 C 0 km/h
2446 16-03-2007 09:30:02 4.1 C 5.25 g/m*3 4.1 C 0 km/h
2447 16-03-2007 09:42:02 4.6 C 5.29 g/m*3 4.6 C 0 km/h
2448 16-03-2007 09:54:03 5.2 C 5.3 g/m*3 5.2 C 0 km/h
2449 16-03-2007 10:06:02 5.7 C 5.34 g/m*3 5.7 C 0 km/h
2450 16-03-2007 10:18:02 6 C 5.3 g/m*3 6 C 0 km/h
Sensor: Nr:Datum:Temp:Abs-Feuchte:Windchill:Wind:
Aussen-T/F 2451 16-03-2007 10:30:02 6.5 C 5.47 g/m*3 6.5 C 0 km/h
2452 16-03-2007 10:42:03 7.1 C 5.46 g/m*3 7.1 C 0 km/h
2453 16-03-2007 10:54:02 7.5 C 5.52 g/m*3 7.5 C 0 km/h
2454 16-03-2007 11:06:02 7.8 C 5.55 g/m*3 7.8 C 0 km/h
2455 16-03-2007 11:18:02 8.5 C 5.81 g/m*3 8.5 C 0 km/h
2456 16-03-2007 11:30:03 9.5 C 5.55 g/m*3 9.5 C 0 km/h
2457 16-03-2007 11:42:01 10.1 C 5.01 g/m*3 10.1 C 0 km/h
2458 16-03-2007 11:54:02 10.7 C 4.91 g/m*3 10.7 C 0 km/h
2459 16-03-2007 12:06:01 11.2 C 4.56 g/m*3 11.2 C 0 km/h
2460 16-03-2007 12:18:02 11.3 C 4.28 g/m*3 11.3 C 0 km/h
2461 16-03-2007 12:30:02 11.8 C 4.32 g/m*3 11.8 C 0 km/h
2462 16-03-2007 12:42:02 12.4 C 4.37 g/m*3 12.4 C 0 km/h
2463 16-03-2007 12:54:03 12.2 C 4.21 g/m*3 12.2 C 0 km/h
2464 16-03-2007 13:06:02 12.9 C 4.28 g/m*3 12.9 C 0 km/h
2465 16-03-2007 13:18:02 12.4 C 4.04 g/m*3 12.4 C 0 km/h
2466 16-03-2007 13:30:02 13 C 4.2 g/m*3 13 C 0 km/h
2467 16-03-2007 13:42:03 13.8 C 4.29 g/m*3 13.8 C 0 km/h
2468 16-03-2007 13:54:02 14.6 C 4.13 g/m*3 14.6 C 0 km/h
2469 16-03-2007 14:06:02 14.6 C 4.13 g/m*3 14.6 C 0 km/h
2470 16-03-2007 14:18:02 15.6 C 4.26 g/m*3 15.6 C 0 km/h
2471 16-03-2007 14:30:02 16 C 4.22 g/m*3 16 C 0 km/h
2472 16-03-2007 14:42:02 15.8 C 4.04 g/m*3 15.8 C 0 km/h
2473 16-03-2007 14:49:02 14.8 C 4.05 g/m*3 14.8 C 0 km/h
2474 16-03-2007 15:01:02 14.1 C 4.13 g/m*3 14.1 C 0 km/h
2475 16-03-2007 15:13:02 14.5 C 4.23 g/m*3 14.5 C 0 km/h
Sensor: Nr:Datum:Temp:Abs-Feuchte:Windchill:Wind:
Aussen-T/F 2476 16-03-2007 15:30:02 14.7 C 4.41 g/m*3 14.7 C 0 km/h
2477 16-03-2007 15:43:02 15.4 C 4.2 g/m*3 15.4 C 0 km/h
2478 16-03-2007 15:55:01 16.1 C 4.25 g/m*3 16.1 C 0 km/h
2479 16-03-2007 16:07:02 16.1 C 4.11 g/m*3 16.1 C 0 km/h
2480 16-03-2007 16:19:02 16 C 4.09 g/m*3 16 C 0 km/h
2481 16-03-2007 16:31:01 16.5 C 4.21 g/m*3 16.5 C 0 km/h
2482 16-03-2007 16:43:01 15.5 C 3.97 g/m*3 15.5 C 0 km/h
2483 16-03-2007 16:55:02 15.6 C 4.12 g/m*3 15.6 C 0 km/h
2484 16-03-2007 17:07:02 14.8 C 4.05 g/m*3 14.8 C 0 km/h
2485 16-03-2007 17:19:02 14.4 C 4.2 g/m*3 14.4 C 0 km/h
2486 16-03-2007 17:31:02 14.2 C 4.27 g/m*3 14.2 C 0 km/h
2487 16-03-2007 17:43:02 13.7 C 4.38 g/m*3 13.7 C 0 km/h
2488 16-03-2007 17:55:03 13.1 C 4.22 g/m*3 13.1 C 0 km/h
2489 16-03-2007 18:07:02 12.7 C 4.45 g/m*3 12.7 C 0 km/h
2490 16-03-2007 18:19:02 12.3 C 4.45 g/m*3 12.3 C 0 km/h
2491 16-03-2007 18:31:03 11.9 C 4.55 g/m*3 11.9 C 0 km/h
2492 16-03-2007 18:43:03 11.4 C 4.62 g/m*3 11.4 C 0 km/h
2493 16-03-2007 18:55:02 10.4 C 4.82 g/m*3 10.4 C 0 km/h
2494 16-03-2007 19:07:03 10 C 4.7 g/m*3 10 C 0 km/h
2495 16-03-2007 19:19:02 9.5 C 4.73 g/m*3 9.5 C 0 km/h
2496 16-03-2007 19:31:02 9.1 C 4.88 g/m*3 9.1 C 0 km/h
2497 16-03-2007 19:43:02 8.8 C 4.96 g/m*3 8.8 C 0 km/h
2498 16-03-2007 19:55:02 8.5 C 4.95 g/m*3 8.5 C 0 km/h
2499 16-03-2007 20:07:02 8.4 C 4.92 g/m*3 8.4 C 0 km/h
2500 16-03-2007 20:19:03 8.3 C 4.97 g/m*3 8.3 C 0 km/h
Sensor: Nr:Datum:Temp:Abs-Feuchte:Windchill:Wind:
Aussen-T/F 2501 16-03-2007 20:31:02 8.3 C 4.97 g/m*3 8.3 C 0 km/h
2502 16-03-2007 20:43:02 8.4 C 5.01 g/m*3 8.4 C 0 km/h
2503 16-03-2007 20:55:01 8.2 C 4.94 g/m*3 8.2 C 0 km/h
2504 16-03-2007 21:07:02 7.8 C 4.98 g/m*3 7.8 C 0 km/h
2505 16-03-2007 21:19:02 7.4 C 4.93 g/m*3 7.4 C 0 km/h
2506 16-03-2007 21:31:02 7.1 C 4.99 g/m*3 7.1 C 0 km/h
2507 16-03-2007 21:43:02 7.1 C 5.07 g/m*3 7.1 C 0 km/h
2508 16-03-2007 21:55:02 7 C 5.04 g/m*3 7 C 0 km/h
2509 16-03-2007 22:07:01 6.9 C 5.08 g/m*3 6.9 C 0 km/h
2510 16-03-2007 22:19:02 7.3 C 5.06 g/m*3 7.3 C 0 km/h
2511 16-03-2007 22:31:02 7.4 C 5.01 g/m*3 7.4 C 0 km/h
2512 16-03-2007 22:43:02 6.9 C 5.16 g/m*3 6.9 C 0 km/h
2513 16-03-2007 22:55:02 7 C 5.04 g/m*3 7 C 0 km/h
2514 16-03-2007 23:07:02 7 C 5.04 g/m*3 7 C 0 km/h
2515 16-03-2007 23:19:02 6.8 C 5.05 g/m*3 6.8 C 0 km/h
2516 16-03-2007 23:31:02 6.6 C 5.13 g/m*3 6.6 C 0 km/h
2517 16-03-2007 23:43:02 6.8 C 5.12 g/m*3 6.8 C 0 km/h
2518 16-03-2007 23:55:01 7.3 C 5.06 g/m*3 7.3 C 0 km/h
2519 17-03-2007 00:07:02 7 C 4.96 g/m*3 7 C 0 km/h
2520 17-03-2007 00:19:02 6.5 C 5.02 g/m*3 6.5 C 0 km/h
2521 17-03-2007 00:31:02 6.4 C 5.07 g/m*3 6.4 C 0 km/h
2522 17-03-2007 00:43:02 6.6 C 5.13 g/m*3 6.6 C 0 km/h
2523 17-03-2007 00:55:01 6.5 C 5.1 g/m*3 6.5 C 0 km/h
2524 17-03-2007 01:07:02 6.8 C 5.12 g/m*3 6.8 C 0 km/h
2525 17-03-2007 01:19:02 6.6 C 5.06 g/m*3 6.6 C 0 km/h
Sensor: Nr:Datum:Temp:Abs-Feuchte:Windchill:Wind:
Aussen-T/F 2526 17-03-2007 01:31:02 6.7 C 5.17 g/m*3 6.7 C 0 km/h
2527 17-03-2007 01:43:02 6.5 C 5.17 g/m*3 6.5 C 0 km/h
2528 17-03-2007 01:55:02 6.4 C 5.22 g/m*3 6.4 C 0 km/h
2529 17-03-2007 02:07:02 6.7 C 5.32 g/m*3 6.7 C 0 km/h
2530 17-03-2007 02:19:02 6.9 C 5.23 g/m*3 6.9 C 0 km/h
2531 17-03-2007 02:31:02 7 C 5.19 g/m*3 7 C 0 km/h
2532 17-03-2007 02:43:02 6.9 C 5.23 g/m*3 6.9 C 0 km/h
2533 17-03-2007 02:56:04 6.7 C 5.17 g/m*3 6.7 C 0 km/h
2534 17-03-2007 03:08:04 6.7 C 5.32 g/m*3 6.7 C 0 km/h
2535 17-03-2007 03:20:04 6.6 C 5.28 g/m*3 6.6 C 0 km/h
2536 17-03-2007 03:32:02 6.5 C 5.4 g/m*3 6.5 C 0 km/h
2537 17-03-2007 03:44:02 6.9 C 5.54 g/m*3 6.9 C 0 km/h
2538 17-03-2007 03:56:02 7.5 C 5.44 g/m*3 7.5 C 0 km/h
2539 17-03-2007 04:08:02 7.8 C 5.39 g/m*3 7.8 C 0 km/h
2540 17-03-2007 04:20:02 8 C 5.29 g/m*3 8 C 0 km/h
2541 17-03-2007 04:32:02 8 C 5.29 g/m*3 8 C 0 km/h
2542 17-03-2007 04:44:02 7.9 C 5.42 g/m*3 7.9 C 0 km/h
2543 17-03-2007 04:56:03 7.9 C 5.5 g/m*3 7.9 C 0 km/h
2544 17-03-2007 05:08:03 7.8 C 5.55 g/m*3 7.8 C 0 km/h
2545 17-03-2007 05:20:02 7.8 C 5.55 g/m*3 7.8 C 0 km/h
2546 17-03-2007 05:32:02 7.8 C 5.55 g/m*3 7.8 C 0 km/h
2547 17-03-2007 05:44:02 7.9 C 5.59 g/m*3 7.9 C 0 km/h
2548 17-03-2007 05:56:02 8 C 5.54 g/m*3 8 C 0 km/h
2549 17-03-2007 06:08:02 7.9 C 5.67 g/m*3 7.9 C 0 km/h
2550 17-03-2007 06:20:01 7.9 C 5.67 g/m*3 7.9 C 0 km/h
Sensor: Nr:Datum:Temp:Abs-Feuchte:Windchill:Wind:
Aussen-T/F 2551 17-03-2007 06:32:02 8 C 5.62 g/m*3 8 C 0 km/h
2552 17-03-2007 06:44:02 8 C 5.62 g/m*3 8 C 0 km/h
2553 17-03-2007 06:56:01 7.9 C 5.75 g/m*3 7.9 C 0 km/h
2554 17-03-2007 07:08:02 8 C 5.7 g/m*3 8 C 0 km/h
2555 17-03-2007 07:20:01 8.1 C 5.66 g/m*3 8.1 C 0 km/h
2556 17-03-2007 07:32:01 8.2 C 5.69 g/m*3 8.2 C 0 km/h
2557 17-03-2007 07:44:01 8.3 C 5.56 g/m*3 8.3 C 0 km/h
2558 17-03-2007 07:56:02 8.5 C 5.55 g/m*3 8.5 C 0 km/h
2559 17-03-2007 08:08:02 8.5 C 5.55 g/m*3 8.5 C 0 km/h
2560 17-03-2007 08:20:03 8.5 C 5.72 g/m*3 8.5 C 0 km/h
2561 17-03-2007 08:32:02 8.3 C 5.9 g/m*3 8.3 C 0 km/h
2562 17-03-2007 08:44:02 8.4 C 5.94 g/m*3 8.4 C 0 km/h
2563 17-03-2007 08:56:02 8.5 C 5.89 g/m*3 8.5 C 0 km/h
2564 17-03-2007 09:08:02 8.7 C 5.88 g/m*3 8.7 C 0 km/h
2565 17-03-2007 09:20:01 8.6 C 5.93 g/m*3 8.6 C 0 km/h
2566 17-03-2007 09:32:02 8.6 C 6.02 g/m*3 8.6 C 0 km/h
2567 17-03-2007 09:44:02 8.6 C 6.1 g/m*3 8.6 C 0 km/h
2568 17-03-2007 09:56:02 8.8 C 6.09 g/m*3 8.8 C 0 km/h
2569 17-03-2007 10:08:03 8.9 C 6.13 g/m*3 8.9 C 0 km/h
2570 17-03-2007 10:20:02 9.1 C 6.21 g/m*3 9.1 C 0 km/h
2571 17-03-2007 10:32:02 8.6 C 6.44 g/m*3 8.6 C 0 km/h
2572 17-03-2007 10:44:02 8.5 C 6.49 g/m*3 8.5 C 0 km/h
2573 17-03-2007 10:56:02 8.6 C 6.44 g/m*3 8.6 C 0 km/h
2574 17-03-2007 11:08:02 8.7 C 6.49 g/m*3 8.7 C 0 km/h
2575 17-03-2007 11:20:03 9 C 6.44 g/m*3 9 C 0 km/h
Sensor: Nr:Datum:Temp:Abs-Feuchte:Windchill:Wind:
Aussen-T/F 2576 17-03-2007 11:32:02 9.1 C 6.39 g/m*3 9.1 C 0 km/h
2577 17-03-2007 11:44:02 9.2 C 6.43 g/m*3 9.2 C 0 km/h
2578 17-03-2007 11:56:02 9.2 C 6.34 g/m*3 9.2 C 0 km/h
2579 17-03-2007 12:08:02 9.5 C 6.46 g/m*3 9.5 C 0 km/h
2580 17-03-2007 12:20:01 9.5 C 6.46 g/m*3 9.5 C 0 km/h
2581 17-03-2007 12:32:02 9.5 C 6.55 g/m*3 9.5 C 0 km/h
2582 17-03-2007 12:44:02 8.9 C 6.92 g/m*3 8.9 C 0 km/h
2583 17-03-2007 12:56:02 8.7 C 7.01 g/m*3 8.7 C 0 km/h
2584 17-03-2007 13:08:03 8.6 C 7.22 g/m*3 8.6 C 0 km/h
2585 17-03-2007 13:20:02 8.6 C 7.3 g/m*3 8.6 C 0 km/h
2586 17-03-2007 13:32:03 8.6 C 7.3 g/m*3 8.6 C 0 km/h
2587 17-03-2007 13:44:03 8.8 C 7.4 g/m*3 8.8 C 0 km/h
2588 17-03-2007 13:56:02 8.9 C 7.45 g/m*3 8.9 C 0 km/h
2589 17-03-2007 14:08:02 9 C 7.41 g/m*3 9 C 0 km/h
2590 17-03-2007 14:20:02 9.2 C 7.41 g/m*3 9.2 C 0 km/h
2591 17-03-2007 14:32:02 9.3 C 7.46 g/m*3 9.3 C 0 km/h
2592 17-03-2007 14:44:02 9.5 C 7.46 g/m*3 9.5 C 0 km/h
2593 17-03-2007 14:56:03 9.7 C 7.38 g/m*3 9.7 C 0 km/h
2594 17-03-2007 15:08:03 9.9 C 7.28 g/m*3 9.9 C 0 km/h
2595 17-03-2007 15:20:02 10.1 C 7.19 g/m*3 10.1 C 0 km/h
2596 17-03-2007 15:32:04 10 C 7.05 g/m*3 10 C 0 km/h
2597 17-03-2007 15:44:04 9.9 C 7.19 g/m*3 9.9 C 0 km/h
2598 17-03-2007 15:56:02 9.9 C 7.19 g/m*3 9.9 C 0 km/h
2599 17-03-2007 16:08:03 9.9 C 7.19 g/m*3 9.9 C 0 km/h
2600 17-03-2007 16:20:02 9.9 C 7.19 g/m*3 9.9 C 0 km/h
Sensor: Nr:Datum:Temp:Abs-Feuchte:Windchill:Wind:
Aussen-T/F 2601 17-03-2007 16:32:03 10 C 7.14 g/m*3 10 C 0 km/h
2602 17-03-2007 16:44:03 10.1 C 7.09 g/m*3 10.1 C 0 km/h
2603 17-03-2007 16:56:02 10 C 7.05 g/m*3 10 C 0 km/h
2604 17-03-2007 17:08:03 9.9 C 7.19 g/m*3 9.9 C 0 km/h
2605 17-03-2007 17:20:02 10 C 7.14 g/m*3 10 C 0 km/h
2606 17-03-2007 17:32:02 10 C 7.14 g/m*3 10 C 0 km/h
2607 17-03-2007 17:44:02 9.8 C 7.24 g/m*3 9.8 C 0 km/h
2608 17-03-2007 17:56:02 9.8 C 7.24 g/m*3 9.8 C 0 km/h
2609 17-03-2007 18:08:01 9.8 C 7.14 g/m*3 9.8 C 0 km/h
2610 17-03-2007 18:20:02 9.8 C 7.14 g/m*3 9.8 C 0 km/h
2611 17-03-2007 18:32:02 9.8 C 7.14 g/m*3 9.8 C 0 km/h
2612 17-03-2007 18:44:02 9.7 C 7.1 g/m*3 9.7 C 0 km/h
2613 17-03-2007 18:56:03 9.8 C 7.14 g/m*3 9.8 C 0 km/h
2614 17-03-2007 19:08:02 9.8 C 7.14 g/m*3 9.8 C 0 km/h
2615 17-03-2007 19:20:02 9.8 C 7.14 g/m*3 9.8 C 0 km/h
2616 17-03-2007 19:32:03 9.9 C 7.19 g/m*3 9.9 C 0 km/h
2617 17-03-2007 19:44:03 9.8 C 7.14 g/m*3 9.8 C 0 km/h
2618 17-03-2007 19:56:02 9.8 C 7.14 g/m*3 9.8 C 0 km/h
2619 17-03-2007 20:08:03 9.8 C 7.14 g/m*3 9.8 C 0 km/h
2620 17-03-2007 20:20:02 9.7 C 7.19 g/m*3 9.7 C 0 km/h
2621 17-03-2007 20:32:02 9.6 C 7.24 g/m*3 9.6 C 0 km/h
2622 17-03-2007 20:44:02 9.7 C 7.28 g/m*3 9.7 C 0 km/h
2623 17-03-2007 20:56:02 9.7 C 7.28 g/m*3 9.7 C 0 km/h
2624 17-03-2007 21:08:02 9.7 C 7.28 g/m*3 9.7 C 0 km/h
2625 17-03-2007 21:20:01 9.5 C 7.28 g/m*3 9.5 C 0 km/h
Sensor: Nr:Datum:Temp:Abs-Feuchte:Windchill:Wind:
Aussen-T/F 2626 17-03-2007 21:32:02 9.5 C 7.46 g/m*3 9.5 C 0 km/h
2627 17-03-2007 21:44:02 9.3 C 7.46 g/m*3 9.3 C 0 km/h
2628 17-03-2007 21:56:01 9.5 C 7.55 g/m*3 9.5 C 0 km/h
2629 17-03-2007 22:08:02 9.5 C 7.55 g/m*3 9.5 C 0 km/h
2630 17-03-2007 22:20:01 9.3 C 7.46 g/m*3 9.3 C 0 km/h
2631 17-03-2007 22:32:01 9.5 C 7.46 g/m*3 9.5 C 0 km/h
2632 17-03-2007 22:44:01 9.7 C 7.47 g/m*3 9.7 C 0 km/h
2633 17-03-2007 22:56:02 9.7 C 7.28 g/m*3 9.7 C 0 km/h
2634 17-03-2007 23:08:01 9.8 C 7.24 g/m*3 9.8 C 0 km/h
2635 17-03-2007 23:20:02 9.8 C 7.24 g/m*3 9.8 C 0 km/h
2636 17-03-2007 23:32:02 9.9 C 7.1 g/m*3 9.9 C 0 km/h
2637 17-03-2007 23:44:02 9.9 C 7 g/m*3 9.9 C 0 km/h
2638 17-03-2007 23:56:02 9.9 C 7 g/m*3 9.9 C 0 km/h
2639 18-03-2007 00:08:03 9.8 C 6.96 g/m*3 9.8 C 0 km/h
2640 18-03-2007 00:20:02 9.8 C 6.87 g/m*3 9.8 C 0 km/h
2641 18-03-2007 00:32:02 9.6 C 6.78 g/m*3 9.6 C 0 km/h
2642 18-03-2007 00:44:02 9.5 C 6.74 g/m*3 9.5 C 0 km/h
2643 18-03-2007 00:56:03 9.5 C 6.55 g/m*3 9.5 C 0 km/h
2644 18-03-2007 01:08:02 9.5 C 6.46 g/m*3 9.5 C 0 km/h
2645 18-03-2007 01:20:03 9.5 C 6.55 g/m*3 9.5 C 0 km/h
2646 18-03-2007 01:32:02 9.3 C 6.38 g/m*3 9.3 C 0 km/h
2647 18-03-2007 01:44:02 9.6 C 6.5 g/m*3 9.6 C 0 km/h
2648 18-03-2007 01:56:02 9.5 C 6.19 g/m*3 9.5 C 0 km/h
2649 18-03-2007 02:08:02 9.5 C 6.1 g/m*3 9.5 C 0 km/h
2650 18-03-2007 02:20:02 9.7 C 5.99 g/m*3 9.7 C 0 km/h
Sensor: Nr:Datum:Temp:Abs-Feuchte:Windchill:Wind:
Aussen-T/F 2651 18-03-2007 02:32:03 9.8 C 5.94 g/m*3 9.8 C 0 km/h
2652 18-03-2007 02:44:03 9.7 C 5.81 g/m*3 9.7 C 0 km/h
2653 18-03-2007 02:57:05 9.7 C 5.81 g/m*3 9.7 C 0 km/h
2654 18-03-2007 03:09:05 9.6 C 5.77 g/m*3 9.6 C 0 km/h
2655 18-03-2007 03:21:05 9.6 C 5.77 g/m*3 9.6 C 0 km/h
2656 18-03-2007 03:33:02 9.5 C 5.83 g/m*3 9.5 C 0 km/h
2657 18-03-2007 03:45:02 9.5 C 5.83 g/m*3 9.5 C 0 km/h
2658 18-03-2007 03:57:02 9.6 C 5.86 g/m*3 9.6 C 0 km/h
2659 18-03-2007 04:09:02 9.6 C 5.95 g/m*3 9.6 C 0 km/h
2660 18-03-2007 04:21:02 9.6 C 5.86 g/m*3 9.6 C 0 km/h
2661 18-03-2007 04:33:02 9.7 C 5.53 g/m*3 9.7 C 0 km/h
2662 18-03-2007 04:45:03 9.7 C 5.35 g/m*3 9.7 C 0 km/h
2663 18-03-2007 04:57:03 9.7 C 5.53 g/m*3 9.7 C 0 km/h
2664 18-03-2007 05:09:03 9.7 C 5.53 g/m*3 9.7 C 0 km/h
2665 18-03-2007 05:21:03 9.7 C 5.44 g/m*3 9.7 C 0 km/h
2666 18-03-2007 05:33:03 9.6 C 5.5 g/m*3 9.6 C 0 km/h
2667 18-03-2007 05:45:02 9.5 C 5.55 g/m*3 9.5 C 0 km/h
2668 18-03-2007 05:57:02 9.6 C 5.5 g/m*3 9.6 C 0 km/h
2669 18-03-2007 06:09:02 9.6 C 5.31 g/m*3 9.6 C 0 km/h
2670 18-03-2007 06:21:01 9.6 C 5.4 g/m*3 9.6 C 0 km/h
2671 18-03-2007 06:33:02 9.7 C 5.44 g/m*3 9.7 C 0 km/h
2672 18-03-2007 06:45:01 9.7 C 5.35 g/m*3 9.7 C 0 km/h
2673 18-03-2007 06:57:01 9.7 C 5.44 g/m*3 9.7 C 0 km/h
2674 18-03-2007 07:09:02 9.7 C 5.44 g/m*3 9.7 C 0 km/h
2675 18-03-2007 07:21:01 9.8 C 5.57 g/m*3 9.8 C 0 km/h
Sensor: Nr:Datum:Temp:Abs-Feuchte:Windchill:Wind:
Aussen-T/F 2676 18-03-2007 07:33:01 9.8 C 5.57 g/m*3 9.8 C 0 km/h
2677 18-03-2007 07:45:01 9.8 C 5.66 g/m*3 9.8 C 0 km/h
2678 18-03-2007 07:57:01 9.9 C 5.7 g/m*3 9.9 C 0 km/h
2679 18-03-2007 08:09:01 10 C 5.64 g/m*3 10 C 0 km/h
2680 18-03-2007 08:21:02 10.1 C 5.67 g/m*3 10.1 C 0 km/h
2681 18-03-2007 08:33:01 10.2 C 5.61 g/m*3 10.2 C 0 km/h
2682 18-03-2007 08:45:01 10.4 C 5.69 g/m*3 10.4 C 0 km/h
2683 18-03-2007 08:57:01 10.5 C 5.72 g/m*3 10.5 C 0 km/h
2684 18-03-2007 09:09:02 10.5 C 5.72 g/m*3 10.5 C 0 km/h
2685 18-03-2007 09:21:02 9.8 C 6.31 g/m*3 9.8 C 0 km/h
2686 18-03-2007 09:33:02 9.5 C 6.74 g/m*3 9.5 C 0 km/h
2687 18-03-2007 09:45:01 9.6 C 6.87 g/m*3 9.6 C 0 km/h
2688 18-03-2007 09:57:01 9.7 C 6.91 g/m*3 9.7 C 0 km/h
2689 18-03-2007 10:09:01 9.8 C 6.87 g/m*3 9.8 C 0 km/h
2690 18-03-2007 10:21:01 9.9 C 6.82 g/m*3 9.9 C 0 km/h
2691 18-03-2007 10:33:02 9.6 C 6.96 g/m*3 9.6 C 0 km/h
2692 18-03-2007 10:45:02 9.4 C 7.15 g/m*3 9.4 C 0 km/h
2693 18-03-2007 10:57:02 9.3 C 7.1 g/m*3 9.3 C 0 km/h
2694 18-03-2007 11:09:02 9.2 C 7.05 g/m*3 9.2 C 0 km/h
2695 18-03-2007 11:21:02 9.2 C 7.05 g/m*3 9.2 C 0 km/h
2696 18-03-2007 11:33:02 9.3 C 7.01 g/m*3 9.3 C 0 km/h
2697 18-03-2007 11:45:01 9.2 C 6.97 g/m*3 9.2 C 0 km/h
2698 18-03-2007 11:57:01 9.2 C 7.05 g/m*3 9.2 C 0 km/h
2699 18-03-2007 12:09:02 8.9 C 7.01 g/m*3 8.9 C 0 km/h
2700 18-03-2007 12:21:02 8.8 C 6.96 g/m*3 8.8 C 0 km/h
Sensor: Nr:Datum:Temp:Abs-Feuchte:Windchill:Wind:
Aussen-T/F 2701 18-03-2007 12:33:01 8.8 C 6.88 g/m*3 8.8 C 0 km/h
2702 18-03-2007 12:45:02 8.8 C 6.7 g/m*3 8.8 C 0 km/h
2703 18-03-2007 12:57:03 9 C 6.61 g/m*3 9 C 0 km/h
2704 18-03-2007 13:09:01 9.1 C 6.57 g/m*3 9.1 C 0 km/h
2705 18-03-2007 13:21:02 9.1 C 6.57 g/m*3 9.1 C 0 km/h
2706 18-03-2007 13:33:02 9 C 6.52 g/m*3 9 C 0 km/h
2707 18-03-2007 13:45:01 8.6 C 6.79 g/m*3 8.6 C 0 km/h
2708 18-03-2007 13:57:01 8.3 C 7 g/m*3 8.3 C 0 km/h
2709 18-03-2007 14:09:02 5.7 C 5.55 g/m*3 5.7 C 0 km/h
2710 18-03-2007 14:21:02 4.9 C 5.67 g/m*3 4.9 C 0 km/h
2711 18-03-2007 14:33:01 5 C 5.91 g/m*3 5 C 0 km/h
2712 18-03-2007 14:45:02 5.2 C 6.13 g/m*3 5.2 C 0 km/h
2713 18-03-2007 14:57:02 5.2 C 6.13 g/m*3 5.2 C 0 km/h
2714 18-03-2007 15:09:01 5.2 C 5.99 g/m*3 5.2 C 0 km/h
2715 18-03-2007 15:21:02 5.1 C 5.68 g/m*3 5.1 C 0 km/h
2716 18-03-2007 15:33:02 5.4 C 5.58 g/m*3 5.4 C 0 km/h
2717 18-03-2007 15:45:02 5.5 C 5.41 g/m*3 5.5 C 0 km/h
2718 18-03-2007 15:57:02 5.6 C 5.44 g/m*3 5.6 C 0 km/h
2719 18-03-2007 16:09:02 5.7 C 5.48 g/m*3 5.7 C 0 km/h
2720 18-03-2007 16:21:02 5.7 C 5.48 g/m*3 5.7 C 0 km/h
2721 18-03-2007 16:33:02 6 C 5.23 g/m*3 6 C 0 km/h
2722 18-03-2007 16:45:01 6 C 5.23 g/m*3 6 C 0 km/h
2723 18-03-2007 16:57:01 6.1 C 5.19 g/m*3 6.1 C 0 km/h
2724 18-03-2007 17:09:02 6.1 C 5.19 g/m*3 6.1 C 0 km/h
2725 18-03-2007 17:21:01 6.3 C 5.4 g/m*3 6.3 C 0 km/h
Sensor: Nr:Datum:Temp:Abs-Feuchte:Windchill:Wind:
Aussen-T/F 2726 18-03-2007 17:33:01 7.1 C 5.07 g/m*3 7.1 C 0 km/h
2727 18-03-2007 17:45:01 7.4 C 4.85 g/m*3 7.4 C 0 km/h
2728 18-03-2007 17:57:01 7.3 C 4.27 g/m*3 7.3 C 0 km/h
2729 18-03-2007 18:09:01 7.2 C 4.4 g/m*3 7.2 C 0 km/h
2730 18-03-2007 18:21:02 6.8 C 4.28 g/m*3 6.8 C 0 km/h
2731 18-03-2007 18:33:02 6.2 C 4.41 g/m*3 6.2 C 0 km/h
2732 18-03-2007 18:45:02 5.7 C 4.48 g/m*3 5.7 C 0 km/h
2733 18-03-2007 18:57:02 5.7 C 4.41 g/m*3 5.7 C 0 km/h
2734 18-03-2007 19:09:02 5.7 C 4.41 g/m*3 5.7 C 0 km/h
2735 18-03-2007 19:21:02 5.8 C 4.37 g/m*3 5.8 C 0 km/h
2736 18-03-2007 19:33:04 5.8 C 4.23 g/m*3 5.8 C 0 km/h
2737 18-03-2007 19:45:02 5.7 C 3.84 g/m*3 5.7 C 0 km/h
2738 18-03-2007 19:57:03 5.6 C 3.75 g/m*3 5.6 C 0 km/h
2739 18-03-2007 20:09:02 5.3 C 3.81 g/m*3 5.3 C 0 km/h
2740 18-03-2007 20:21:02 5.1 C 3.97 g/m*3 5.1 C 0 km/h
2741 18-03-2007 20:33:02 5 C 3.94 g/m*3 5 C 0 km/h
2742 18-03-2007 20:45:01 4.7 C 3.86 g/m*3 4.7 C 0 km/h
2743 18-03-2007 20:57:01 4.5 C 3.81 g/m*3 4.5 C 0 km/h
2744 18-03-2007 21:09:02 4.4 C 3.92 g/m*3 4.4 C 0 km/h
2745 18-03-2007 21:21:01 4.4 C 3.98 g/m*3 4.4 C 0 km/h
2746 18-03-2007 21:33:01 4.3 C 4.02 g/m*3 4.3 C 0 km/h
2747 18-03-2007 21:45:01 4.1 C 4.29 g/m*3 4.1 C 0 km/h
2748 18-03-2007 21:57:01 3.8 C 4.33 g/m*3 3.8 C 0 km/h
2749 18-03-2007 22:09:01 3.6 C 4.27 g/m*3 3.6 C 0 km/h
2750 18-03-2007 22:21:02 3.8 C 4.27 g/m*3 3.8 C 0 km/h
Sensor: Nr:Datum:Temp:Abs-Feuchte:Windchill:Wind:
Aussen-T/F 2751 18-03-2007 22:33:01 4 C 4.13 g/m*3 4 C 0 km/h
2752 18-03-2007 22:45:02 3.8 C 4.14 g/m*3 3.8 C 0 km/h
2753 18-03-2007 22:57:02 3.5 C 4.12 g/m*3 3.5 C 0 km/h
2754 18-03-2007 23:09:01 3.4 C 4.03 g/m*3 3.4 C 0 km/h
2755 18-03-2007 23:21:02 3.4 C 3.97 g/m*3 3.4 C 0 km/h
2756 18-03-2007 23:33:02 3.3 C 4 g/m*3 3.3 C 0 km/h
2757 18-03-2007 23:45:03 3.2 C 4.04 g/m*3 3.2 C 0 km/h
2758 18-03-2007 23:57:03 3.2 C 4.1 g/m*3 3.2 C 0 km/h
2759 19-03-2007 00:09:03 3.1 C 4.13 g/m*3 3.1 C 0 km/h
2760 19-03-2007 00:21:03 3 C 4.16 g/m*3 3 C 0 km/h
2761 19-03-2007 00:33:02 2.8 C 4.16 g/m*3 2.8 C 0 km/h
2762 19-03-2007 00:45:02 2.7 C 4.2 g/m*3 2.7 C 0 km/h
2763 19-03-2007 00:57:02 2.4 C 4.23 g/m*3 2.4 C 0 km/h
2764 19-03-2007 01:09:02 2.4 C 4.28 g/m*3 2.4 C 0 km/h
2765 19-03-2007 01:21:02 2.2 C 4.22 g/m*3 2.2 C 0 km/h
2766 19-03-2007 01:33:02 1.9 C 4.25 g/m*3 1.9 C 0 km/h
2767 19-03-2007 01:45:02 2.1 C 4.31 g/m*3 2.1 C 0 km/h
2768 19-03-2007 01:57:02 2.1 C 4.25 g/m*3 2.1 C 0 km/h
2769 19-03-2007 02:09:02 1.7 C 4.19 g/m*3 1.7 C 0 km/h
2770 19-03-2007 02:21:03 1.8 C 4.33 g/m*3 1.8 C 0 km/h
2771 19-03-2007 02:33:02 1.9 C 4.36 g/m*3 1.9 C 0 km/h
2772 19-03-2007 02:46:03 2 C 4.33 g/m*3 2 C 0 km/h
2773 19-03-2007 02:58:03 2.6 C 4.28 g/m*3 2.6 C 0 km/h
2774 19-03-2007 03:10:03 2.9 C 4.19 g/m*3 2.9 C 0 km/h
2775 19-03-2007 03:22:03 3 C 4.16 g/m*3 3 C 0 km/h
Sensor: Nr:Datum:Temp:Abs-Feuchte:Windchill:Wind:
Aussen-T/F 2776 19-03-2007 03:34:03 3.1 C 4.25 g/m*3 3.1 C 0 km/h
2777 19-03-2007 03:46:03 2.9 C 4.25 g/m*3 2.9 C 0 km/h
2778 19-03-2007 03:58:03 2.9 C 4.31 g/m*3 2.9 C 0 km/h
2779 19-03-2007 04:10:02 3.1 C 4.25 g/m*3 3.1 C 0 km/h
2780 19-03-2007 04:22:03 3.1 C 4.25 g/m*3 3.1 C 0 km/h
2781 19-03-2007 04:34:03 3 C 4.22 g/m*3 3 C 0 km/h
2782 19-03-2007 04:46:02 2.9 C 4.25 g/m*3 2.9 C 0 km/h
2783 19-03-2007 04:58:02 2.8 C 4.22 g/m*3 2.8 C 0 km/h
2784 19-03-2007 05:10:02 2.8 C 4.22 g/m*3 2.8 C 0 km/h
2785 19-03-2007 05:22:02 2.8 C 4.28 g/m*3 2.8 C 0 km/h
2786 19-03-2007 05:34:01 2.8 C 4.34 g/m*3 2.8 C 0 km/h
2787 19-03-2007 05:46:02 2.8 C 4.34 g/m*3 2.8 C 0 km/h
2788 19-03-2007 05:58:03 2.9 C 4.37 g/m*3 2.9 C 0 km/h
2789 19-03-2007 06:10:02 2.8 C 4.34 g/m*3 2.8 C 0 km/h
2790 19-03-2007 06:22:03 2.9 C 4.37 g/m*3 2.9 C 0 km/h
2791 19-03-2007 06:34:02 2.9 C 4.37 g/m*3 2.9 C 0 km/h
2792 19-03-2007 06:46:02 2.8 C 4.34 g/m*3 2.8 C 0 km/h
2793 19-03-2007 06:58:02 2.7 C 4.37 g/m*3 2.7 C 0 km/h
2794 19-03-2007 07:10:02 2.7 C 4.31 g/m*3 2.7 C 0 km/h
2795 19-03-2007 07:22:01 2.9 C 4.31 g/m*3 2.9 C 0 km/h
2796 19-03-2007 07:34:02 3 C 4.22 g/m*3 3 C 0 km/h
2797 19-03-2007 07:46:02 3 C 4.28 g/m*3 3 C 0 km/h
2798 19-03-2007 07:58:02 3 C 4.28 g/m*3 3 C 0 km/h
2799 19-03-2007 08:10:02 3 C 4.28 g/m*3 3 C 0 km/h
2800 19-03-2007 08:22:03 3.3 C 4.31 g/m*3 3.3 C 0 km/h
Sensor: Nr:Datum:Temp:Abs-Feuchte:Windchill:Wind:
Aussen-T/F 2801 19-03-2007 08:34:02 3.4 C 4.15 g/m*3 3.4 C 0 km/h
2802 19-03-2007 08:46:02 3.5 C 4.24 g/m*3 3.5 C 0 km/h
2803 19-03-2007 08:58:02 3.5 C 4.24 g/m*3 3.5 C 0 km/h
2804 19-03-2007 09:10:02 3.6 C 4.15 g/m*3 3.6 C 0 km/h
2805 19-03-2007 09:22:01 3.7 C 4.18 g/m*3 3.7 C 0 km/h
2806 19-03-2007 09:34:02 4 C 4.13 g/m*3 4 C 0 km/h
2807 19-03-2007 09:46:02 3.7 C 4.11 g/m*3 3.7 C 0 km/h
2808 19-03-2007 09:58:02 3.9 C 4.17 g/m*3 3.9 C 0 km/h
2809 19-03-2007 10:10:02 4.2 C 4.06 g/m*3 4.2 C 0 km/h
2810 19-03-2007 10:22:03 4.3 C 3.96 g/m*3 4.3 C 0 km/h
2811 19-03-2007 10:34:02 4.5 C 3.88 g/m*3 4.5 C 0 km/h
2812 19-03-2007 10:46:02 5 C 3.74 g/m*3 5 C 0 km/h
2813 19-03-2007 10:58:02 5.1 C 3.69 g/m*3 5.1 C 0 km/h
2814 19-03-2007 11:10:01 5.2 C 3.79 g/m*3 5.2 C 0 km/h
2815 19-03-2007 11:22:01 5.1 C 3.63 g/m*3 5.1 C 0 km/h
2816 19-03-2007 11:34:02 5.4 C 3.7 g/m*3 5.4 C 0 km/h
2817 19-03-2007 11:46:01 5.6 C 3.61 g/m*3 5.6 C 0 km/h
2818 19-03-2007 11:58:01 5.9 C 3.61 g/m*3 5.9 C 0 km/h
2819 19-03-2007 12:10:02 6.3 C 3.55 g/m*3 6.3 C 0 km/h
2820 19-03-2007 12:22:02 7.1 C 3.28 g/m*3 7.1 C 0 km/h
2821 19-03-2007 12:34:01 7.2 C 3.3 g/m*3 7.2 C 0 km/h
2822 19-03-2007 12:46:02 8.2 C 3.43 g/m*3 8.2 C 0 km/h
2823 19-03-2007 12:58:03 8.7 C 3.11 g/m*3 8.7 C 0 km/h
2824 19-03-2007 13:10:02 8.6 C 3.27 g/m*3 8.6 C 0 km/h
2825 19-03-2007 13:22:02 8.4 C 3.48 g/m*3 8.4 C 0 km/h
Sensor: Nr:Datum:Temp:Abs-Feuchte:Windchill:Wind:
Aussen-T/F 2826 19-03-2007 13:34:02 8.1 C 3.41 g/m*3 8.1 C 0 km/h
2827 19-03-2007 13:46:02 8.4 C 3.31 g/m*3 8.4 C 0 km/h
2828 19-03-2007 13:58:02 9 C 3.35 g/m*3 9 C 0 km/h
2829 19-03-2007 14:10:03 9.8 C 3.25 g/m*3 9.8 C 0 km/h
2830 19-03-2007 14:22:02 9.3 C 2.97 g/m*3 9.3 C 0 km/h
2831 19-03-2007 14:34:02 8.9 C 2.98 g/m*3 8.9 C 0 km/h
2832 19-03-2007 14:46:02 9 C 3.17 g/m*3 9 C 0 km/h
2833 19-03-2007 14:58:02 8.9 C 3.42 g/m*3 8.9 C 0 km/h
2834 19-03-2007 15:10:02 8.7 C 3.37 g/m*3 8.7 C 0 km/h
2835 19-03-2007 15:22:02 8.6 C 3.18 g/m*3 8.6 C 0 km/h
2836 19-03-2007 15:34:02 8.7 C 3.46 g/m*3 8.7 C 0 km/h
2837 19-03-2007 15:46:02 8.8 C 2.79 g/m*3 8.8 C 0 km/h
2838 19-03-2007 15:58:02 8.3 C 2.87 g/m*3 8.3 C 0 km/h
2839 19-03-2007 16:10:02 8.1 C 2.91 g/m*3 8.1 C 0 km/h
2840 19-03-2007 16:22:56 7.9 C 3.12 g/m*3 7.9 C 0 km/h
2841 19-03-2007 16:27:01 7.5 C 3.12 g/m*3 7.5 C 0 km/h
2842 19-03-2007 16:39:01 7 C 3.33 g/m*3 7 C 0 km/h
2843 19-03-2007 16:51:01 6.5 C 3.9 g/m*3 6.5 C 0 km/h
2844 19-03-2007 17:03:02 6.3 C 3.85 g/m*3 6.3 C 0 km/h
2845 19-03-2007 17:15:02 6.5 C 3.9 g/m*3 6.5 C 0 km/h
2846 19-03-2007 17:27:02 6.9 C 3.7 g/m*3 6.9 C 0 km/h
2847 19-03-2007 17:39:01 7 C 3.64 g/m*3 7 C 0 km/h
2848 19-03-2007 17:51:02 7.1 C 3.51 g/m*3 7.1 C 0 km/h
2849 19-03-2007 18:03:03 6.9 C 3.46 g/m*3 6.9 C 0 km/h
2850 19-03-2007 18:15:01 6.5 C 3.22 g/m*3 6.5 C 0 km/h
Sensor: Nr:Datum:Temp:Abs-Feuchte:Windchill:Wind:
Aussen-T/F 2851 19-03-2007 18:27:01 6.1 C 3.43 g/m*3 6.1 C 0 km/h
2852 19-03-2007 18:39:02 5.7 C 3.63 g/m*3 5.7 C 0 km/h
2853 19-03-2007 18:51:02 5.3 C 3.6 g/m*3 5.3 C 0 km/h
2854 19-03-2007 19:03:02 4.9 C 3.65 g/m*3 4.9 C 0 km/h
2855 19-03-2007 19:15:02 4.5 C 3.62 g/m*3 4.5 C 0 km/h
2856 19-03-2007 19:27:02 4.4 C 3.59 g/m*3 4.4 C 0 km/h
2857 19-03-2007 19:39:02 4.4 C 3.72 g/m*3 4.4 C 0 km/h
2858 19-03-2007 19:51:02 4.3 C 3.63 g/m*3 4.3 C 0 km/h
2859 19-03-2007 20:03:03 4.3 C 3.44 g/m*3 4.3 C 0 km/h
2860 19-03-2007 20:15:02 4.5 C 3.22 g/m*3 4.5 C 0 km/h
2861 19-03-2007 20:27:02 4.4 C 3.4 g/m*3 4.4 C 0 km/h
2862 19-03-2007 20:39:02 4.1 C 3.65 g/m*3 4.1 C 0 km/h
2863 19-03-2007 20:51:02 3.8 C 3.83 g/m*3 3.8 C 0 km/h
2864 19-03-2007 21:03:02 3.6 C 4.02 g/m*3 3.6 C 0 km/h
2865 19-03-2007 21:15:03 3.4 C 4.15 g/m*3 3.4 C 0 km/h
2866 19-03-2007 21:27:03 3.2 C 4.22 g/m*3 3.2 C 0 km/h
2867 19-03-2007 21:39:02 3 C 4.22 g/m*3 3 C 0 km/h
2868 19-03-2007 21:51:02 2.8 C 4.28 g/m*3 2.8 C 0 km/h
2869 19-03-2007 22:03:02 2.6 C 4.28 g/m*3 2.6 C 0 km/h
2870 19-03-2007 22:15:01 2.6 C 4.34 g/m*3 2.6 C 0 km/h
2871 19-03-2007 22:27:01 2.6 C 4.34 g/m*3 2.6 C 0 km/h
2872 19-03-2007 22:39:02 2.2 C 4.22 g/m*3 2.2 C 0 km/h
2873 19-03-2007 22:51:02 2.1 C 4.31 g/m*3 2.1 C 0 km/h
2874 19-03-2007 23:03:03 2.5 C 4.43 g/m*3 2.5 C 0 km/h
2875 19-03-2007 23:15:02 2.4 C 4.34 g/m*3 2.4 C 0 km/h
Sensor: Nr:Datum:Temp:Abs-Feuchte:Windchill:Wind:
Aussen-T/F 2876 19-03-2007 23:27:02 2.7 C 4.49 g/m*3 2.7 C 0 km/h
2877 19-03-2007 23:39:02 2.6 C 4.4 g/m*3 2.6 C 0 km/h
2878 19-03-2007 23:51:02 2.3 C 4.25 g/m*3 2.3 C 0 km/h
2879 20-03-2007 00:03:02 2 C 4.28 g/m*3 2 C 0 km/h
2880 20-03-2007 00:15:02 1.7 C 4.3 g/m*3 1.7 C 0 km/h
2881 20-03-2007 00:27:03 1.5 C 4.24 g/m*3 1.5 C 0 km/h
2882 20-03-2007 00:39:03 1.4 C 4.32 g/m*3 1.4 C 0 km/h
2883 20-03-2007 00:51:03 1.3 C 4.34 g/m*3 1.3 C 0 km/h
2884 20-03-2007 01:03:03 1.1 C 4.34 g/m*3 1.1 C 0 km/h
2885 20-03-2007 01:15:03 1.2 C 4.42 g/m*3 1.2 C 0 km/h
2886 20-03-2007 01:27:03 1.3 C 4.45 g/m*3 1.3 C 0 km/h
2887 20-03-2007 01:39:03 1.5 C 4.51 g/m*3 1.5 C 0 km/h
2888 20-03-2007 01:51:02 1.6 C 4.54 g/m*3 1.6 C 0 km/h
2889 20-03-2007 02:03:02 1.4 C 4.48 g/m*3 1.4 C 0 km/h
2890 20-03-2007 02:15:02 1.3 C 4.45 g/m*3 1.3 C 0 km/h
2891 20-03-2007 02:27:02 1.2 C 4.47 g/m*3 1.2 C 0 km/h
2892 20-03-2007 02:39:02 1 C 4.46 g/m*3 1 C 0 km/h
2893 20-03-2007 02:51:01 1.1 C 4.49 g/m*3 1.1 C 0 km/h
2894 20-03-2007 03:03:01 1 C 4.52 g/m*3 1 C 0 km/h
2895 20-03-2007 03:15:02 1.3 C 4.61 g/m*3 1.3 C 0 km/h
2896 20-03-2007 03:27:02 1.2 C 4.53 g/m*3 1.2 C 0 km/h
2897 20-03-2007 03:39:02 1.5 C 4.57 g/m*3 1.5 C 0 km/h
2898 20-03-2007 03:51:02 1.4 C 4.48 g/m*3 1.4 C 0 km/h
2899 20-03-2007 04:03:01 1.4 C 4.43 g/m*3 1.4 C 0 km/h
2900 20-03-2007 04:15:02 1.5 C 4.46 g/m*3 1.5 C 0 km/h
Sensor: Nr:Datum:Temp:Abs-Feuchte:Windchill:Wind:
Aussen-T/F 2901 20-03-2007 04:27:02 1.6 C 4.43 g/m*3 1.6 C 0 km/h
2902 20-03-2007 04:39:02 1.6 C 4.38 g/m*3 1.6 C 0 km/h
2903 20-03-2007 04:51:01 1.6 C 4.38 g/m*3 1.6 C 0 km/h
2904 20-03-2007 05:03:01 1.6 C 4.38 g/m*3 1.6 C 0 km/h
2905 20-03-2007 05:15:02 1.6 C 4.33 g/m*3 1.6 C 0 km/h
2906 20-03-2007 05:27:02 1.6 C 4.33 g/m*3 1.6 C 0 km/h
2907 20-03-2007 05:39:02 1.6 C 4.33 g/m*3 1.6 C 0 km/h
2908 20-03-2007 05:51:01 1.6 C 4.33 g/m*3 1.6 C 0 km/h
2909 20-03-2007 06:03:01 1.6 C 4.27 g/m*3 1.6 C 0 km/h
2910 20-03-2007 06:15:02 1.6 C 4.33 g/m*3 1.6 C 0 km/h
2911 20-03-2007 06:27:02 1.6 C 4.33 g/m*3 1.6 C 0 km/h
2912 20-03-2007 06:39:01 1.6 C 4.33 g/m*3 1.6 C 0 km/h
2913 20-03-2007 06:51:02 1.7 C 4.36 g/m*3 1.7 C 0 km/h
2914 20-03-2007 07:03:02 1.7 C 4.3 g/m*3 1.7 C 0 km/h
2915 20-03-2007 07:15:01 1.6 C 4.33 g/m*3 1.6 C 0 km/h
2916 20-03-2007 07:27:01 1.6 C 4.33 g/m*3 1.6 C 0 km/h
2917 20-03-2007 07:39:02 1.7 C 4.36 g/m*3 1.7 C 0 km/h
2918 20-03-2007 07:51:01 1.9 C 4.42 g/m*3 1.9 C 0 km/h
2919 20-03-2007 08:03:02 2 C 4.28 g/m*3 2 C 0 km/h
2920 20-03-2007 08:15:02 2.1 C 4.31 g/m*3 2.1 C 0 km/h
2921 20-03-2007 08:27:02 2.6 C 4.46 g/m*3 2.6 C 0 km/h
2922 20-03-2007 08:39:01 3 C 4.46 g/m*3 3 C 0 km/h
2923 20-03-2007 08:51:02 3.1 C 4.31 g/m*3 3.1 C 0 km/h
2924 20-03-2007 09:03:01 3.3 C 4.31 g/m*3 3.3 C 0 km/h
2925 20-03-2007 09:15:01 3.3 C 4.31 g/m*3 3.3 C 0 km/h
Sensor: Nr:Datum:Temp:Abs-Feuchte:Windchill:Wind:
Aussen-T/F 2926 20-03-2007 09:27:01 3.5 C 4.37 g/m*3 3.5 C 0 km/h
2927 20-03-2007 09:39:02 4 C 4.26 g/m*3 4 C 0 km/h
2928 20-03-2007 09:51:01 3.5 C 4.24 g/m*3 3.5 C 0 km/h
2929 20-03-2007 10:03:02 3.3 C 4.25 g/m*3 3.3 C 0 km/h
2930 20-03-2007 10:15:01 3.3 C 4.37 g/m*3 3.3 C 0 km/h
2931 20-03-2007 10:27:01 3.4 C 4.4 g/m*3 3.4 C 0 km/h
2932 20-03-2007 10:39:01 3.5 C 4.37 g/m*3 3.5 C 0 km/h
2933 20-03-2007 10:51:01 3.8 C 4.45 g/m*3 3.8 C 0 km/h
2934 20-03-2007 11:03:01 4 C 4.45 g/m*3 4 C 0 km/h
2935 20-03-2007 11:15:02 3.9 C 4.42 g/m*3 3.9 C 0 km/h
2936 20-03-2007 11:27:02 4 C 4.45 g/m*3 4 C 0 km/h
2937 20-03-2007 11:39:01 4.1 C 4.42 g/m*3 4.1 C 0 km/h
2938 20-03-2007 11:51:02 4.2 C 4.45 g/m*3 4.2 C 0 km/h
2939 20-03-2007 12:03:01 4.5 C 4.47 g/m*3 4.5 C 0 km/h
2940 20-03-2007 12:15:01 5.3 C 4.51 g/m*3 5.3 C 0 km/h
2941 20-03-2007 12:27:01 5.6 C 4.31 g/m*3 5.6 C 0 km/h
2942 20-03-2007 12:39:02 6.3 C 4.37 g/m*3 6.3 C 0 km/h
2943 20-03-2007 12:51:01 6.4 C 4.32 g/m*3 6.4 C 0 km/h
2944 20-03-2007 13:03:02 7.1 C 4.13 g/m*3 7.1 C 0 km/h
2945 20-03-2007 13:15:01 7.6 C 3.95 g/m*3 7.6 C 0 km/h
2946 20-03-2007 13:27:02 7.1 C 3.82 g/m*3 7.1 C 0 km/h
2947 20-03-2007 13:39:01 6.5 C 3.82 g/m*3 6.5 C 0 km/h
2948 20-03-2007 13:51:02 7.3 C 3.95 g/m*3 7.3 C 0 km/h
2949 20-03-2007 14:03:01 8.2 C 3.85 g/m*3 8.2 C 0 km/h
2950 20-03-2007 14:15:02 8.6 C 3.61 g/m*3 8.6 C 0 km/h
Sensor: Nr:Datum:Temp:Abs-Feuchte:Windchill:Wind:
Aussen-T/F 2951 20-03-2007 14:27:02 9.7 C 3.69 g/m*3 9.7 C 0 km/h
2952 20-03-2007 14:39:02 10.4 C 3.66 g/m*3 10.4 C 0 km/h
2953 20-03-2007 14:51:01 10.3 C 3.16 g/m*3 10.3 C 0 km/h
2954 20-03-2007 15:03:02 10.8 C 3.46 g/m*3 10.8 C 0 km/h
2955 20-03-2007 15:15:01 10.1 C 3.22 g/m*3 10.1 C 0 km/h
2956 20-03-2007 15:27:01 10.3 C 3.26 g/m*3 10.3 C 0 km/h
2957 20-03-2007 15:39:01 11.1 C 3.12 g/m*3 11.1 C 0 km/h
2958 20-03-2007 15:51:01 8.9 C 3.15 g/m*3 8.9 C 0 km/h
2959 20-03-2007 16:03:01 8.9 C 3.5 g/m*3 8.9 C 0 km/h
2960 20-03-2007 16:15:02 9.1 C 3.73 g/m*3 9.1 C 0 km/h
2961 20-03-2007 16:27:02 8.7 C 3.63 g/m*3 8.7 C 0 km/h
2962 20-03-2007 16:39:01 8.6 C 3.69 g/m*3 8.6 C 0 km/h
2963 20-03-2007 16:51:02 9 C 3.79 g/m*3 9 C 0 km/h
2964 20-03-2007 17:03:01 9.1 C 3.73 g/m*3 9.1 C 0 km/h
2965 20-03-2007 17:15:01 9.2 C 3.66 g/m*3 9.2 C 0 km/h
2966 20-03-2007 17:27:01 6.7 C 4.1 g/m*3 6.7 C 0 km/h
2967 20-03-2007 17:39:02 6.2 C 4.41 g/m*3 6.2 C 0 km/h
2968 20-03-2007 17:51:02 5.4 C 4.4 g/m*3 5.4 C 0 km/h
2969 20-03-2007 18:03:02 5 C 4.55 g/m*3 5 C 0 km/h
2970 20-03-2007 18:15:02 4.9 C 4.59 g/m*3 4.9 C 0 km/h
2971 20-03-2007 18:27:02 4.8 C 4.63 g/m*3 4.8 C 0 km/h
2972 20-03-2007 18:39:01 4.9 C 4.66 g/m*3 4.9 C 0 km/h
2973 20-03-2007 18:51:02 4.6 C 4.57 g/m*3 4.6 C 0 km/h
2974 20-03-2007 19:03:01 4.3 C 4.54 g/m*3 4.3 C 0 km/h
2975 20-03-2007 19:15:01 4.1 C 4.61 g/m*3 4.1 C 0 km/h
Sensor: Nr:Datum:Temp:Abs-Feuchte:Windchill:Wind:
Aussen-T/F 2976 20-03-2007 19:27:01 4 C 4.64 g/m*3 4 C 0 km/h
2977 20-03-2007 19:39:02 4.2 C 4.7 g/m*3 4.2 C 0 km/h
2978 20-03-2007 19:51:01 4.1 C 4.67 g/m*3 4.1 C 0 km/h
2979 20-03-2007 20:03:02 4.1 C 4.67 g/m*3 4.1 C 0 km/h
2980 20-03-2007 20:15:02 4.3 C 4.8 g/m*3 4.3 C 0 km/h
2981 20-03-2007 20:27:02 4.6 C 4.9 g/m*3 4.6 C 0 km/h
2982 20-03-2007 20:39:01 4.3 C 4.86 g/m*3 4.3 C 0 km/h
2983 20-03-2007 20:51:02 4 C 4.83 g/m*3 4 C 0 km/h
2984 20-03-2007 21:03:01 3.9 C 4.86 g/m*3 3.9 C 0 km/h
2985 20-03-2007 21:15:01 4.2 C 4.9 g/m*3 4.2 C 0 km/h
2986 20-03-2007 21:27:01 4.3 C 4.86 g/m*3 4.3 C 0 km/h
2987 20-03-2007 21:39:02 4.2 C 4.9 g/m*3 4.2 C 0 km/h
2988 20-03-2007 21:51:01 4 C 4.9 g/m*3 4 C 0 km/h
2989 20-03-2007 22:03:02 3.9 C 4.93 g/m*3 3.9 C 0 km/h
2990 20-03-2007 22:15:01 3.9 C 4.99 g/m*3 3.9 C 0 km/h
2991 20-03-2007 22:27:01 4 C 5.02 g/m*3 4 C 0 km/h
2992 20-03-2007 22:39:01 4.1 C 5.06 g/m*3 4.1 C 0 km/h
2993 20-03-2007 22:51:01 4.1 C 5.06 g/m*3 4.1 C 0 km/h
2994 20-03-2007 23:03:01 4.1 C 4.99 g/m*3 4.1 C 0 km/h
2995 20-03-2007 23:15:02 3.9 C 4.99 g/m*3 3.9 C 0 km/h
2996 20-03-2007 23:27:02 3.6 C 4.89 g/m*3 3.6 C 0 km/h
2997 20-03-2007 23:39:01 3.6 C 4.89 g/m*3 3.6 C 0 km/h
2998 20-03-2007 23:51:02 3.7 C 4.92 g/m*3 3.7 C 0 km/h
2999 21-03-2007 00:03:01 3.6 C 4.83 g/m*3 3.6 C 0 km/h
3000 21-03-2007 00:15:02 3.5 C 4.8 g/m*3 3.5 C 0 km/h
Sensor: Nr:Datum:Temp:Abs-Feuchte:Windchill:Wind:
Aussen-T/F 3001 21-03-2007 00:27:02 3.6 C 4.83 g/m*3 3.6 C 0 km/h
3002 21-03-2007 00:39:02 3.8 C 4.77 g/m*3 3.8 C 0 km/h
3003 21-03-2007 00:51:02 3.6 C 4.7 g/m*3 3.6 C 0 km/h
3004 21-03-2007 01:03:02 3.5 C 4.67 g/m*3 3.5 C 0 km/h
3005 21-03-2007 01:15:02 3.4 C 4.7 g/m*3 3.4 C 0 km/h
3006 21-03-2007 01:27:02 3.3 C 4.67 g/m*3 3.3 C 0 km/h
3007 21-03-2007 01:39:02 3.3 C 4.67 g/m*3 3.3 C 0 km/h
3008 21-03-2007 01:51:01 3.3 C 4.73 g/m*3 3.3 C 0 km/h
3009 21-03-2007 02:03:01 3.4 C 4.76 g/m*3 3.4 C 0 km/h
3010 21-03-2007 02:15:02 3.4 C 4.76 g/m*3 3.4 C 0 km/h
3011 21-03-2007 02:27:02 3.6 C 4.83 g/m*3 3.6 C 0 km/h
3012 21-03-2007 02:39:02 3.8 C 4.83 g/m*3 3.8 C 0 km/h
3013 21-03-2007 02:51:01 3.9 C 4.86 g/m*3 3.9 C 0 km/h
3014 21-03-2007 03:03:01 3.8 C 4.83 g/m*3 3.8 C 0 km/h
3015 21-03-2007 03:15:02 3.8 C 4.89 g/m*3 3.8 C 0 km/h
3016 21-03-2007 03:27:02 3.8 C 4.89 g/m*3 3.8 C 0 km/h
3017 21-03-2007 03:39:01 3.7 C 4.86 g/m*3 3.7 C 0 km/h
3018 21-03-2007 03:51:01 3.7 C 4.86 g/m*3 3.7 C 0 km/h
3019 21-03-2007 04:03:01 3.6 C 4.77 g/m*3 3.6 C 0 km/h
3020 21-03-2007 04:15:02 3.5 C 4.73 g/m*3 3.5 C 0 km/h
3021 21-03-2007 04:27:02 3.5 C 4.73 g/m*3 3.5 C 0 km/h
3022 21-03-2007 04:39:02 3.5 C 4.8 g/m*3 3.5 C 0 km/h
3023 21-03-2007 04:51:01 3.4 C 4.76 g/m*3 3.4 C 0 km/h
3024 21-03-2007 05:03:02 3.4 C 4.76 g/m*3 3.4 C 0 km/h
3025 21-03-2007 05:15:02 3.3 C 4.73 g/m*3 3.3 C 0 km/h
Sensor: Nr:Datum:Temp:Abs-Feuchte:Windchill:Wind:
Aussen-T/F 3026 21-03-2007 05:27:02 3.4 C 4.76 g/m*3 3.4 C 0 km/h
3027 21-03-2007 05:39:02 3.3 C 4.73 g/m*3 3.3 C 0 km/h
3028 21-03-2007 05:51:01 3.3 C 4.73 g/m*3 3.3 C 0 km/h
3029 21-03-2007 06:03:01 3.3 C 4.73 g/m*3 3.3 C 0 km/h
3030 21-03-2007 06:15:02 3.1 C 4.73 g/m*3 3.1 C 0 km/h
3031 21-03-2007 06:27:02 3 C 4.76 g/m*3 3 C 0 km/h
3032 21-03-2007 06:39:01 3.1 C 4.79 g/m*3 3.1 C 0 km/h
3033 21-03-2007 06:51:02 3.1 C 4.79 g/m*3 3.1 C 0 km/h
3034 21-03-2007 07:03:01 3.1 C 4.73 g/m*3 3.1 C 0 km/h
3035 21-03-2007 07:15:01 3.2 C 4.7 g/m*3 3.2 C 0 km/h
3036 21-03-2007 07:27:01 3.3 C 4.73 g/m*3 3.3 C 0 km/h
3037 21-03-2007 07:39:02 3.2 C 4.58 g/m*3 3.2 C 0 km/h
3038 21-03-2007 07:51:01 3.3 C 4.61 g/m*3 3.3 C 0 km/h
3039 21-03-2007 08:03:02 3.3 C 4.55 g/m*3 3.3 C 0 km/h
3040 21-03-2007 08:15:02 2.7 C 4.6 g/m*3 2.7 C 0 km/h
3041 21-03-2007 08:27:02 2.5 C 4.77 g/m*3 2.5 C 0 km/h
3042 21-03-2007 08:39:01 2.7 C 4.95 g/m*3 2.7 C 0 km/h
3043 21-03-2007 08:51:02 2.9 C 5.02 g/m*3 2.9 C 0 km/h
3044 21-03-2007 09:03:01 2.9 C 5.02 g/m*3 2.9 C 0 km/h
3045 21-03-2007 09:15:02 3.1 C 4.91 g/m*3 3.1 C 0 km/h
3046 21-03-2007 09:27:02 3.4 C 4.95 g/m*3 3.4 C 0 km/h
3047 21-03-2007 09:39:02 3.8 C 4.71 g/m*3 3.8 C 0 km/h
3048 21-03-2007 09:51:01 3.9 C 4.55 g/m*3 3.9 C 0 km/h
3049 21-03-2007 10:03:02 4.3 C 4.41 g/m*3 4.3 C 0 km/h
3050 21-03-2007 10:15:01 4.4 C 4.18 g/m*3 4.4 C 0 km/h
Sensor: Nr:Datum:Temp:Abs-Feuchte:Windchill:Wind:
Aussen-T/F 3051 21-03-2007 10:27:01 5 C 4.14 g/m*3 5 C 0 km/h
3052 21-03-2007 10:39:01 4.8 C 3.96 g/m*3 4.8 C 0 km/h
3053 21-03-2007 10:51:01 4.2 C 4.06 g/m*3 4.2 C 0 km/h
3054 21-03-2007 11:03:01 3.8 C 4.2 g/m*3 3.8 C 0 km/h
3055 21-03-2007 11:15:02 4 C 4.07 g/m*3 4 C 0 km/h
3056 21-03-2007 11:27:02 4 C 4.2 g/m*3 4 C 0 km/h
3057 21-03-2007 11:39:01 4.5 C 4.54 g/m*3 4.5 C 0 km/h
3058 21-03-2007 11:51:02 5.6 C 4.6 g/m*3 5.6 C 0 km/h
3059 21-03-2007 12:03:01 5.7 C 4.2 g/m*3 5.7 C 0 km/h
3060 21-03-2007 12:15:01 6.4 C 3.87 g/m*3 6.4 C 0 km/h
3061 21-03-2007 12:27:01 7.2 C 3.61 g/m*3 7.2 C 0 km/h
3062 21-03-2007 12:39:02 4.1 C 4.42 g/m*3 4.1 C 0 km/h
3063 21-03-2007 12:51:01 4.7 C 4.8 g/m*3 4.7 C 0 km/h
3064 21-03-2007 13:03:02 6.4 C 4.84 g/m*3 6.4 C 0 km/h
3065 21-03-2007 13:15:01 8.3 C 4.38 g/m*3 8.3 C 0 km/h
3066 21-03-2007 13:27:01 8.2 C 3.77 g/m*3 8.2 C 0 km/h
3067 21-03-2007 13:39:01 8 C 3.72 g/m*3 8 C 0 km/h
3068 21-03-2007 13:51:01 7.1 C 3.43 g/m*3 7.1 C 0 km/h
3069 21-03-2007 14:03:01 7.1 C 3.51 g/m*3 7.1 C 0 km/h
3070 21-03-2007 14:15:02 7.4 C 3.58 g/m*3 7.4 C 0 km/h
3071 21-03-2007 14:27:02 7.8 C 3.59 g/m*3 7.8 C 0 km/h
3072 21-03-2007 14:39:01 7.9 C 3.53 g/m*3 7.9 C 0 km/h
3073 21-03-2007 14:51:02 7.7 C 2.92 g/m*3 7.7 C 0 km/h
3074 21-03-2007 15:03:01 7.7 C 2.84 g/m*3 7.7 C 0 km/h
3075 21-03-2007 15:15:01 8 C 2.89 g/m*3 8 C 0 km/h
Sensor: Nr:Datum:Temp:Abs-Feuchte:Windchill:Wind:
Aussen-T/F 3076 21-03-2007 15:27:01 8.1 C 2.91 g/m*3 8.1 C 0 km/h
3077 21-03-2007 15:39:02 7.3 C 2.84 g/m*3 7.3 C 0 km/h
3078 21-03-2007 15:51:01 7.4 C 3.1 g/m*3 7.4 C 0 km/h
3079 21-03-2007 16:03:02 7.1 C 3.04 g/m*3 7.1 C 0 km/h
3080 21-03-2007 16:15:01 7.2 C 3.22 g/m*3 7.2 C 0 km/h
3081 21-03-2007 16:27:02 7.4 C 3.18 g/m*3 7.4 C 0 km/h
3082 21-03-2007 16:39:01 7.5 C 3.2 g/m*3 7.5 C 0 km/h
3083 21-03-2007 16:51:01 7.3 C 3.32 g/m*3 7.3 C 0 km/h
3084 21-03-2007 17:03:01 7.2 C 3.3 g/m*3 7.2 C 0 km/h
3085 21-03-2007 17:15:02 7.7 C 3.32 g/m*3 7.7 C 0 km/h
3086 21-03-2007 17:27:02 7.7 C 3.32 g/m*3 7.7 C 0 km/h
3087 21-03-2007 17:39:01 7 C 3.18 g/m*3 7 C 0 km/h
3088 21-03-2007 17:51:02 6.8 C 3.37 g/m*3 6.8 C 0 km/h
3089 21-03-2007 18:03:01 6.6 C 3.47 g/m*3 6.6 C 0 km/h
3090 21-03-2007 18:15:01 6.4 C 3.5 g/m*3 6.4 C 0 km/h
3091 21-03-2007 18:27:01 5.7 C 3.91 g/m*3 5.7 C 0 km/h
3092 21-03-2007 18:39:02 4.5 C 4.67 g/m*3 4.5 C 0 km/h
3093 21-03-2007 18:51:01 4.2 C 4.96 g/m*3 4.2 C 0 km/h
3094 21-03-2007 19:03:02 4.1 C 5.12 g/m*3 4.1 C 0 km/h
3095 21-03-2007 19:15:02 4 C 5.15 g/m*3 4 C 0 km/h
3096 21-03-2007 19:27:02 3.9 C 5.12 g/m*3 3.9 C 0 km/h
3097 21-03-2007 19:39:02 3.7 C 5.11 g/m*3 3.7 C 0 km/h
3098 21-03-2007 19:51:01 3.5 C 5.16 g/m*3 3.5 C 0 km/h
3099 21-03-2007 20:03:02 3.5 C 5.23 g/m*3 3.5 C 0 km/h
3100 21-03-2007 20:15:01 3.4 C 5.25 g/m*3 3.4 C 0 km/h
Sensor: Nr:Datum:Temp:Abs-Feuchte:Windchill:Wind:
Aussen-T/F 3101 21-03-2007 20:27:01 3.4 C 5.31 g/m*3 3.4 C 0 km/h
3102 21-03-2007 20:39:01 3.4 C 5.31 g/m*3 3.4 C 0 km/h
3103 21-03-2007 20:51:02 3.4 C 5.25 g/m*3 3.4 C 0 km/h
3104 21-03-2007 21:03:01 3.4 C 5.25 g/m*3 3.4 C 0 km/h
3105 21-03-2007 21:15:01 3.3 C 5.16 g/m*3 3.3 C 0 km/h
3106 21-03-2007 21:27:01 3.2 C 5.06 g/m*3 3.2 C 0 km/h
3107 21-03-2007 21:39:02 3.1 C 5.03 g/m*3 3.1 C 0 km/h
3108 21-03-2007 21:51:02 3.2 C 5 g/m*3 3.2 C 0 km/h
3109 21-03-2007 22:03:02 3.1 C 4.91 g/m*3 3.1 C 0 km/h
3110 21-03-2007 22:15:01 3.1 C 4.91 g/m*3 3.1 C 0 km/h
3111 21-03-2007 22:27:01 2.8 C 4.81 g/m*3 2.8 C 0 km/h
3112 21-03-2007 22:39:01 2.8 C 4.75 g/m*3 2.8 C 0 km/h
3113 21-03-2007 22:51:01 2.8 C 4.75 g/m*3 2.8 C 0 km/h
3114 21-03-2007 23:03:02 2.6 C 4.75 g/m*3 2.6 C 0 km/h
3115 21-03-2007 23:15:02 2.6 C 4.75 g/m*3 2.6 C 0 km/h
3116 21-03-2007 23:27:02 2.7 C 4.78 g/m*3 2.7 C 0 km/h
3117 21-03-2007 23:39:01 2.8 C 4.75 g/m*3 2.8 C 0 km/h
3118 21-03-2007 23:51:02 2.8 C 4.75 g/m*3 2.8 C 0 km/h
3119 22-03-2007 00:03:01 2.6 C 4.69 g/m*3 2.6 C 0 km/h
3120 22-03-2007 00:15:02 2.7 C 4.78 g/m*3 2.7 C 0 km/h
3121 22-03-2007 00:27:02 2.8 C 4.75 g/m*3 2.8 C 0 km/h
3122 22-03-2007 00:39:02 2.8 C 4.63 g/m*3 2.8 C 0 km/h
3123 22-03-2007 00:51:02 2.9 C 4.67 g/m*3 2.9 C 0 km/h
3124 22-03-2007 01:03:02 2.8 C 4.63 g/m*3 2.8 C 0 km/h
3125 22-03-2007 01:15:01 2.8 C 4.58 g/m*3 2.8 C 0 km/h
Sensor: Nr:Datum:Temp:Abs-Feuchte:Windchill:Wind:
Aussen-T/F 3126 22-03-2007 01:27:02 2.8 C 4.52 g/m*3 2.8 C 0 km/h
3127 22-03-2007 01:39:01 2.9 C 4.49 g/m*3 2.9 C 0 km/h
3128 22-03-2007 01:51:02 2.8 C 4.4 g/m*3 2.8 C 0 km/h
3129 22-03-2007 02:03:02 2.8 C 4.4 g/m*3 2.8 C 0 km/h
3130 22-03-2007 02:15:02 2.7 C 4.49 g/m*3 2.7 C 0 km/h
3131 22-03-2007 02:27:02 2.6 C 4.57 g/m*3 2.6 C 0 km/h
3132 22-03-2007 02:39:02 2.6 C 4.63 g/m*3 2.6 C 0 km/h
3133 22-03-2007 02:52:07 2.3 C 4.76 g/m*3 2.3 C 0 km/h
3134 22-03-2007 03:04:07 2.1 C 4.81 g/m*3 2.1 C 0 km/h
3135 22-03-2007 03:16:07 2 C 4.89 g/m*3 2 C 0 km/h
3136 22-03-2007 03:28:07 1.9 C 4.91 g/m*3 1.9 C 0 km/h
3137 22-03-2007 03:40:02 1.8 C 4.93 g/m*3 1.8 C 0 km/h
3138 22-03-2007 03:52:02 1.4 C 4.85 g/m*3 1.4 C 0 km/h
3139 22-03-2007 04:04:02 1.2 C 4.79 g/m*3 1.2 C 0 km/h
3140 22-03-2007 04:16:02 1 C 4.78 g/m*3 1 C 0 km/h
3141 22-03-2007 04:28:02 0.9 C 4.79 g/m*3 0.9 C 0 km/h
3142 22-03-2007 04:40:02 1 C 4.83 g/m*3 1 C 0 km/h
3143 22-03-2007 04:52:02 1 C 4.88 g/m*3 1 C 0 km/h
3144 22-03-2007 05:04:01 1 C 4.88 g/m*3 1 C 0 km/h
3145 22-03-2007 05:16:02 1.1 C 4.91 g/m*3 1.1 C 0 km/h
3146 22-03-2007 05:28:02 1 C 4.88 g/m*3 1 C 0 km/h
3147 22-03-2007 05:40:02 0.8 C 4.86 g/m*3 0.8 C 0 km/h
3148 22-03-2007 05:52:02 0.7 C 4.83 g/m*3 0.7 C 0 km/h
3149 22-03-2007 06:04:02 0.6 C 4.8 g/m*3 0.6 C 0 km/h
3150 22-03-2007 06:16:02 0.6 C 4.8 g/m*3 0.6 C 0 km/h
Sensor: Nr:Datum:Temp:Abs-Feuchte:Windchill:Wind:
Aussen-T/F 3151 22-03-2007 06:28:02 0.6 C 4.8 g/m*3 0.6 C 0 km/h
3152 22-03-2007 06:40:02 0.6 C 4.8 g/m*3 0.6 C 0 km/h
3153 22-03-2007 06:52:02 0.5 C 4.76 g/m*3 0.5 C 0 km/h
3154 22-03-2007 07:04:01 0.6 C 4.8 g/m*3 0.6 C 0 km/h
3155 22-03-2007 07:16:01 0.5 C 4.76 g/m*3 0.5 C 0 km/h
3156 22-03-2007 07:28:01 0.6 C 4.8 g/m*3 0.6 C 0 km/h
3157 22-03-2007 07:40:02 0.8 C 4.86 g/m*3 0.8 C 0 km/h
3158 22-03-2007 07:52:02 1 C 4.93 g/m*3 1 C 0 km/h
3159 22-03-2007 08:04:03 1.1 C 4.96 g/m*3 1.1 C 0 km/h
3160 22-03-2007 08:16:02 1.3 C 5.03 g/m*3 1.3 C 0 km/h
3161 22-03-2007 08:28:03 1.3 C 5.03 g/m*3 1.3 C 0 km/h
3162 22-03-2007 08:40:02 1.4 C 5.07 g/m*3 1.4 C 0 km/h
3163 22-03-2007 08:52:02 1.5 C 5.1 g/m*3 1.5 C 0 km/h
3164 22-03-2007 09:04:02 1.5 C 5.1 g/m*3 1.5 C 0 km/h
3165 22-03-2007 09:16:03 1.5 C 5.1 g/m*3 1.5 C 0 km/h
3166 22-03-2007 09:28:03 1.6 C 5.14 g/m*3 1.6 C 0 km/h
3167 22-03-2007 09:40:02 1.6 C 5.14 g/m*3 1.6 C 0 km/h
3168 22-03-2007 09:52:02 1.7 C 5.17 g/m*3 1.7 C 0 km/h
3169 22-03-2007 10:04:02 1.7 C 5.17 g/m*3 1.7 C 0 km/h
3170 22-03-2007 10:16:02 1.9 C 5.24 g/m*3 1.9 C 0 km/h
3171 22-03-2007 10:28:02 1.9 C 5.24 g/m*3 1.9 C 0 km/h
3172 22-03-2007 10:40:01 2 C 5.22 g/m*3 2 C 0 km/h
3173 22-03-2007 10:52:02 2 C 5.22 g/m*3 2 C 0 km/h
3174 22-03-2007 11:04:02 2 C 5.22 g/m*3 2 C 0 km/h
3175 22-03-2007 11:16:02 2.1 C 5.26 g/m*3 2.1 C 0 km/h
Sensor: Nr:Datum:Temp:Abs-Feuchte:Windchill:Wind:
Aussen-T/F 3176 22-03-2007 11:28:02 2.2 C 5.29 g/m*3 2.2 C 0 km/h
3177 22-03-2007 11:40:01 2 C 5.17 g/m*3 2 C 0 km/h
3178 22-03-2007 11:52:02 1.7 C 5.06 g/m*3 1.7 C 0 km/h
3179 22-03-2007 12:04:02 2 C 5.17 g/m*3 2 C 0 km/h
3180 22-03-2007 12:16:01 1.8 C 5.15 g/m*3 1.8 C 0 km/h
3181 22-03-2007 12:28:01 1.9 C 5.19 g/m*3 1.9 C 0 km/h
3182 22-03-2007 12:40:02 1.8 C 5.15 g/m*3 1.8 C 0 km/h
3183 22-03-2007 12:52:01 1.9 C 5.19 g/m*3 1.9 C 0 km/h
3184 22-03-2007 13:04:02 2 C 5.22 g/m*3 2 C 0 km/h
3185 22-03-2007 13:16:01 2 C 5.22 g/m*3 2 C 0 km/h
3186 22-03-2007 13:28:01 2.1 C 5.26 g/m*3 2.1 C 0 km/h
3187 22-03-2007 13:40:01 2 C 5.17 g/m*3 2 C 0 km/h
3188 22-03-2007 13:52:01 2 C 5.17 g/m*3 2 C 0 km/h
3189 22-03-2007 14:04:01 2.1 C 5.2 g/m*3 2.1 C 0 km/h
3190 22-03-2007 14:16:02 2 C 5.17 g/m*3 2 C 0 km/h
3191 22-03-2007 14:28:02 2 C 5.17 g/m*3 2 C 0 km/h
3192 22-03-2007 14:40:01 2.1 C 5.2 g/m*3 2.1 C 0 km/h
3193 22-03-2007 14:52:02 2 C 5.17 g/m*3 2 C 0 km/h
3194 22-03-2007 15:04:02 2 C 5.17 g/m*3 2 C 0 km/h
3195 22-03-2007 15:16:02 2 C 5.17 g/m*3 2 C 0 km/h
3196 22-03-2007 15:28:02 2 C 5.22 g/m*3 2 C 0 km/h
3197 22-03-2007 15:40:02 2.1 C 5.26 g/m*3 2.1 C 0 km/h
3198 22-03-2007 15:52:01 2.1 C 5.26 g/m*3 2.1 C 0 km/h
3199 22-03-2007 16:04:02 2.3 C 5.33 g/m*3 2.3 C 0 km/h
3200 22-03-2007 16:16:02 2.4 C 5.42 g/m*3 2.4 C 0 km/h
Sensor: Nr:Datum:Temp:Abs-Feuchte:Windchill:Wind:
Aussen-T/F 3201 22-03-2007 16:28:02 2.7 C 5.54 g/m*3 2.7 C 0 km/h
3202 22-03-2007 16:40:01 2.7 C 5.54 g/m*3 2.7 C 0 km/h
3203 22-03-2007 16:52:02 2.7 C 5.54 g/m*3 2.7 C 0 km/h
3204 22-03-2007 17:04:02 2.8 C 5.57 g/m*3 2.8 C 0 km/h
3205 22-03-2007 17:16:02 2.9 C 5.61 g/m*3 2.9 C 0 km/h
3206 22-03-2007 17:28:02 2.9 C 5.61 g/m*3 2.9 C 0 km/h
3207 22-03-2007 17:40:02 3 C 5.65 g/m*3 3 C 0 km/h
3208 22-03-2007 17:52:01 3.1 C 5.69 g/m*3 3.1 C 0 km/h
3209 22-03-2007 18:04:02 3.3 C 5.76 g/m*3 3.3 C 0 km/h
3210 22-03-2007 18:16:02 3.4 C 5.8 g/m*3 3.4 C 0 km/h
3211 22-03-2007 18:28:02 3.5 C 5.84 g/m*3 3.5 C 0 km/h
3212 22-03-2007 18:40:01 3.5 C 5.84 g/m*3 3.5 C 0 km/h
3213 22-03-2007 18:52:02 3.5 C 5.84 g/m*3 3.5 C 0 km/h
3214 22-03-2007 19:04:02 3.5 C 5.84 g/m*3 3.5 C 0 km/h
3215 22-03-2007 19:16:02 3.4 C 5.8 g/m*3 3.4 C 0 km/h
3216 22-03-2007 19:28:02 3.4 C 5.8 g/m*3 3.4 C 0 km/h
3217 22-03-2007 19:40:02 3.3 C 5.7 g/m*3 3.3 C 0 km/h
3218 22-03-2007 19:52:01 3.4 C 5.74 g/m*3 3.4 C 0 km/h
3219 22-03-2007 20:04:02 3.4 C 5.74 g/m*3 3.4 C 0 km/h
3220 22-03-2007 20:16:02 3.4 C 5.68 g/m*3 3.4 C 0 km/h
3221 22-03-2007 20:28:02 3.3 C 5.64 g/m*3 3.3 C 0 km/h
3222 22-03-2007 20:40:01 3.3 C 5.64 g/m*3 3.3 C 0 km/h
3223 22-03-2007 20:52:02 3.3 C 5.64 g/m*3 3.3 C 0 km/h
3224 22-03-2007 21:04:01 3.3 C 5.64 g/m*3 3.3 C 0 km/h
3225 22-03-2007 21:16:02 3.3 C 5.64 g/m*3 3.3 C 0 km/h
Sensor: Nr:Datum:Temp:Abs-Feuchte:Windchill:Wind:
Aussen-T/F 3226 22-03-2007 21:28:02 3.4 C 5.68 g/m*3 3.4 C 0 km/h
3227 22-03-2007 21:40:02 3.4 C 5.74 g/m*3 3.4 C 0 km/h
3228 22-03-2007 21:52:02 3.4 C 5.68 g/m*3 3.4 C 0 km/h
3229 22-03-2007 22:04:02 3.5 C 5.66 g/m*3 3.5 C 0 km/h
3230 22-03-2007 22:16:02 3.6 C 5.63 g/m*3 3.6 C 0 km/h
3231 22-03-2007 22:28:02 3.6 C 5.51 g/m*3 3.6 C 0 km/h
3232 22-03-2007 22:40:03 3.5 C 5.41 g/m*3 3.5 C 0 km/h
3233 22-03-2007 22:52:02 3.6 C 5.32 g/m*3 3.6 C 0 km/h
3234 22-03-2007 23:04:02 3.6 C 5.32 g/m*3 3.6 C 0 km/h
3235 22-03-2007 23:16:02 3.4 C 5.25 g/m*3 3.4 C 0 km/h
3236 22-03-2007 23:28:03 3.5 C 5.23 g/m*3 3.5 C 0 km/h
3237 22-03-2007 23:40:02 3.6 C 5.2 g/m*3 3.6 C 0 km/h
3238 22-03-2007 23:52:02 3.6 C 5.2 g/m*3 3.6 C 0 km/h
3239 23-03-2007 00:04:02 3.3 C 5.16 g/m*3 3.3 C 0 km/h
3240 23-03-2007 00:16:02 3.2 C 5.12 g/m*3 3.2 C 0 km/h
3241 23-03-2007 00:28:03 3.1 C 5.15 g/m*3 3.1 C 0 km/h
3242 23-03-2007 00:40:03 3 C 5.17 g/m*3 3 C 0 km/h
3243 23-03-2007 00:52:02 3 C 5.23 g/m*3 3 C 0 km/h
3244 23-03-2007 01:04:02 2.8 C 5.22 g/m*3 2.8 C 0 km/h
3245 23-03-2007 01:16:02 2.7 C 5.24 g/m*3 2.7 C 0 km/h
3246 23-03-2007 01:28:02 2.6 C 5.21 g/m*3 2.6 C 0 km/h
3247 23-03-2007 01:40:02 2.5 C 5.17 g/m*3 2.5 C 0 km/h